<?xml version="1.0" encoding="UTF-8" standalone="no" ?>
<gpx xmlns="http://www.topografix.com/GPX/1/1" xmlns:xsi="http://www.w3.org/2001/XMLSchema-instance" xsi:schemaLocation="http://www.topografix.com/GPX/1/1 http://www.topografix.com/GPX/1/1/gpx.xsd" version="1.1" creator="VisuGPX - https://www.visugpx.com">
  <metadata>
    <name>Mini Cap D\'Aïl</name>
    <desc><![CDATA[Sortie trouvée par Chris pour samedi.]]></desc>
  </metadata>
  <trk>
    <name><![CDATA[ACTIVE LOG 001]]></name>
    <trkseg>
      <trkpt lat="43.5338" lon="3.00499">
        <ele>179.4232178</ele>
        <time>2011-12-31T08:16:25Z</time>
      </trkpt>
      <trkpt lat="43.53381" lon="3.00499">
        <ele>181.3458252</ele>
        <time>2011-12-31T08:16:31Z</time>
      </trkpt>
      <trkpt lat="43.53382" lon="3.005">
        <ele>182.7878418</ele>
        <time>2011-12-31T08:16:47Z</time>
      </trkpt>
      <trkpt lat="43.53385" lon="3.00502">
        <ele>183.7490234</ele>
        <time>2011-12-31T08:16:50Z</time>
      </trkpt>
      <trkpt lat="43.53391" lon="3.00497">
        <ele>185.1911621</ele>
        <time>2011-12-31T08:16:56Z</time>
      </trkpt>
      <trkpt lat="43.534" lon="3.00493">
        <ele>186.1524658</ele>
        <time>2011-12-31T08:17:02Z</time>
      </trkpt>
      <trkpt lat="43.53401" lon="3.00493">
        <ele>186.1524658</ele>
        <time>2011-12-31T08:17:03Z</time>
      </trkpt>
      <trkpt lat="43.53406" lon="3.00492">
        <ele>186.1524658</ele>
        <time>2011-12-31T08:17:06Z</time>
      </trkpt>
      <trkpt lat="43.53411" lon="3.0048">
        <ele>187.1137695</ele>
        <time>2011-12-31T08:17:13Z</time>
      </trkpt>
      <trkpt lat="43.5341" lon="3.00479">
        <ele>186.6331787</ele>
        <time>2011-12-31T08:17:14Z</time>
      </trkpt>
      <trkpt lat="43.53399" lon="3.00471">
        <ele>188.0750732</ele>
        <time>2011-12-31T08:17:21Z</time>
      </trkpt>
      <trkpt lat="43.53388" lon="3.00471">
        <ele>189.9976807</ele>
        <time>2011-12-31T08:17:28Z</time>
      </trkpt>
      <trkpt lat="43.53372" lon="3.00469">
        <ele>192.8817139</ele>
        <time>2011-12-31T08:17:38Z</time>
      </trkpt>
      <trkpt lat="43.53352" lon="3.0046">
        <ele>194.8043213</ele>
        <time>2011-12-31T08:17:51Z</time>
      </trkpt>
      <trkpt lat="43.5334" lon="3.00446">
        <ele>196.7269287</ele>
        <time>2011-12-31T08:18:01Z</time>
      </trkpt>
      <trkpt lat="43.53332" lon="3.00433">
        <ele>198.6495361</ele>
        <time>2011-12-31T08:18:09Z</time>
      </trkpt>
      <trkpt lat="43.53336" lon="3.00431">
        <ele>198.6495361</ele>
        <time>2011-12-31T08:18:14Z</time>
      </trkpt>
      <trkpt lat="43.53337" lon="3.00434">
        <ele>198.6495361</ele>
        <time>2011-12-31T08:18:15Z</time>
      </trkpt>
      <trkpt lat="43.53346" lon="3.00445">
        <ele>200.0916748</ele>
        <time>2011-12-31T08:18:22Z</time>
      </trkpt>
      <trkpt lat="43.53351" lon="3.00437">
        <ele>201.0528564</ele>
        <time>2011-12-31T08:18:28Z</time>
      </trkpt>
      <trkpt lat="43.53347" lon="3.00426">
        <ele>202.0142822</ele>
        <time>2011-12-31T08:18:33Z</time>
      </trkpt>
      <trkpt lat="43.53352" lon="3.00421">
        <ele>202.9754639</ele>
        <time>2011-12-31T08:18:38Z</time>
      </trkpt>
      <trkpt lat="43.53355" lon="3.00424">
        <ele>203.4561768</ele>
        <time>2011-12-31T08:18:40Z</time>
      </trkpt>
      <trkpt lat="43.53366" lon="3.00433">
        <ele>205.3787842</ele>
        <time>2011-12-31T08:18:47Z</time>
      </trkpt>
      <trkpt lat="43.53368" lon="3.00434">
        <ele>205.3787842</ele>
        <time>2011-12-31T08:18:48Z</time>
      </trkpt>
      <trkpt lat="43.53379" lon="3.00437">
        <ele>206.8206787</ele>
        <time>2011-12-31T08:18:55Z</time>
      </trkpt>
      <trkpt lat="43.53393" lon="3.00449">
        <ele>208.7434082</ele>
        <time>2011-12-31T08:19:05Z</time>
      </trkpt>
      <trkpt lat="43.53395" lon="3.00437">
        <ele>209.704834</ele>
        <time>2011-12-31T08:19:11Z</time>
      </trkpt>
      <trkpt lat="43.53391" lon="3.00422">
        <ele>211.1467285</ele>
        <time>2011-12-31T08:19:17Z</time>
      </trkpt>
      <trkpt lat="43.53396" lon="3.00407">
        <ele>213.0693359</ele>
        <time>2011-12-31T08:19:25Z</time>
      </trkpt>
      <trkpt lat="43.53397" lon="3.00405">
        <ele>213.0693359</ele>
        <time>2011-12-31T08:19:26Z</time>
      </trkpt>
      <trkpt lat="43.53413" lon="3.00391">
        <ele>213.0693359</ele>
        <time>2011-12-31T08:19:36Z</time>
      </trkpt>
      <trkpt lat="43.53431" lon="3.00383">
        <ele>214.9919434</ele>
        <time>2011-12-31T08:19:44Z</time>
      </trkpt>
      <trkpt lat="43.53452" lon="3.0037">
        <ele>216.9146729</ele>
        <time>2011-12-31T08:19:56Z</time>
      </trkpt>
      <trkpt lat="43.53474" lon="3.00354">
        <ele>218.8372803</ele>
        <time>2011-12-31T08:20:09Z</time>
      </trkpt>
      <trkpt lat="43.53494" lon="3.0034">
        <ele>220.7598877</ele>
        <time>2011-12-31T08:20:20Z</time>
      </trkpt>
      <trkpt lat="43.5351" lon="3.00323">
        <ele>222.2017822</ele>
        <time>2011-12-31T08:20:31Z</time>
      </trkpt>
      <trkpt lat="43.53532" lon="3.00299">
        <ele>224.6052246</ele>
        <time>2011-12-31T08:20:45Z</time>
      </trkpt>
      <trkpt lat="43.53552" lon="3.00272">
        <ele>225.5665283</ele>
        <time>2011-12-31T08:20:58Z</time>
      </trkpt>
      <trkpt lat="43.53575" lon="3.00241">
        <ele>228.4504395</ele>
        <time>2011-12-31T08:21:13Z</time>
      </trkpt>
      <trkpt lat="43.53602" lon="3.0022">
        <ele>231.3343506</ele>
        <time>2011-12-31T08:21:28Z</time>
      </trkpt>
      <trkpt lat="43.53618" lon="3.00212">
        <ele>232.2957764</ele>
        <time>2011-12-31T08:21:37Z</time>
      </trkpt>
      <trkpt lat="43.53627" lon="3.0021">
        <ele>233.2570801</ele>
        <time>2011-12-31T08:21:42Z</time>
      </trkpt>
      <trkpt lat="43.53627" lon="3.00219">
        <ele>234.6990967</ele>
        <time>2011-12-31T08:21:47Z</time>
      </trkpt>
      <trkpt lat="43.53608" lon="3.00233">
        <ele>236.1409912</ele>
        <time>2011-12-31T08:21:58Z</time>
      </trkpt>
      <trkpt lat="43.53591" lon="3.0026">
        <ele>238.0635986</ele>
        <time>2011-12-31T08:22:10Z</time>
      </trkpt>
      <trkpt lat="43.53578" lon="3.00286">
        <ele>239.0249023</ele>
        <time>2011-12-31T08:22:21Z</time>
      </trkpt>
      <trkpt lat="43.53562" lon="3.00316">
        <ele>242.3896484</ele>
        <time>2011-12-31T08:22:34Z</time>
      </trkpt>
      <trkpt lat="43.5355" lon="3.00347">
        <ele>244.3122559</ele>
        <time>2011-12-31T08:22:47Z</time>
      </trkpt>
      <trkpt lat="43.53546" lon="3.00378">
        <ele>246.2348633</ele>
        <time>2011-12-31T08:22:58Z</time>
      </trkpt>
      <trkpt lat="43.53543" lon="3.004">
        <ele>247.1960449</ele>
        <time>2011-12-31T08:23:06Z</time>
      </trkpt>
      <trkpt lat="43.53548" lon="3.00421">
        <ele>249.1187744</ele>
        <time>2011-12-31T08:23:14Z</time>
      </trkpt>
      <trkpt lat="43.53564" lon="3.00435">
        <ele>251.5220947</ele>
        <time>2011-12-31T08:23:23Z</time>
      </trkpt>
      <trkpt lat="43.53582" lon="3.00445">
        <ele>253.4447021</ele>
        <time>2011-12-31T08:23:33Z</time>
      </trkpt>
      <trkpt lat="43.53608" lon="3.00459">
        <ele>255.8480225</ele>
        <time>2011-12-31T08:23:47Z</time>
      </trkpt>
      <trkpt lat="43.53636" lon="3.00472">
        <ele>258.2513428</ele>
        <time>2011-12-31T08:24:02Z</time>
      </trkpt>
      <trkpt lat="43.53658" lon="3.00483">
        <ele>260.654541</ele>
        <time>2011-12-31T08:24:15Z</time>
      </trkpt>
      <trkpt lat="43.53677" lon="3.00495">
        <ele>262.5771484</ele>
        <time>2011-12-31T08:24:26Z</time>
      </trkpt>
      <trkpt lat="43.53699" lon="3.00509">
        <ele>265.9418945</ele>
        <time>2011-12-31T08:24:39Z</time>
      </trkpt>
      <trkpt lat="43.53717" lon="3.00521">
        <ele>268.8258057</ele>
        <time>2011-12-31T08:24:50Z</time>
      </trkpt>
      <trkpt lat="43.53734" lon="3.00536">
        <ele>272.1904297</ele>
        <time>2011-12-31T08:25:01Z</time>
      </trkpt>
      <trkpt lat="43.53755" lon="3.00552">
        <ele>274.59375</ele>
        <time>2011-12-31T08:25:14Z</time>
      </trkpt>
      <trkpt lat="43.53774" lon="3.00577">
        <ele>276.9970703</ele>
        <time>2011-12-31T08:25:28Z</time>
      </trkpt>
      <trkpt lat="43.53786" lon="3.00597">
        <ele>278.4389648</ele>
        <time>2011-12-31T08:25:38Z</time>
      </trkpt>
      <trkpt lat="43.53806" lon="3.0062">
        <ele>280.8424072</ele>
        <time>2011-12-31T08:25:52Z</time>
      </trkpt>
      <trkpt lat="43.53828" lon="3.00634">
        <ele>283.7261963</ele>
        <time>2011-12-31T08:26:04Z</time>
      </trkpt>
      <trkpt lat="43.53852" lon="3.00644">
        <ele>285.6488037</ele>
        <time>2011-12-31T08:26:16Z</time>
      </trkpt>
      <trkpt lat="43.53864" lon="3.00646">
        <ele>287.0908203</ele>
        <time>2011-12-31T08:26:22Z</time>
      </trkpt>
      <trkpt lat="43.53868" lon="3.00635">
        <ele>287.5714111</ele>
        <time>2011-12-31T08:26:28Z</time>
      </trkpt>
      <trkpt lat="43.5386" lon="3.0063">
        <ele>288.0522461</ele>
        <time>2011-12-31T08:26:32Z</time>
      </trkpt>
      <trkpt lat="43.53843" lon="3.0062">
        <ele>289.9748535</ele>
        <time>2011-12-31T08:26:41Z</time>
      </trkpt>
      <trkpt lat="43.53829" lon="3.006">
        <ele>293.3393555</ele>
        <time>2011-12-31T08:26:52Z</time>
      </trkpt>
      <trkpt lat="43.53818" lon="3.0058">
        <ele>294.3007813</ele>
        <time>2011-12-31T08:27:00Z</time>
      </trkpt>
      <trkpt lat="43.53811" lon="3.00555">
        <ele>296.2235107</ele>
        <time>2011-12-31T08:27:10Z</time>
      </trkpt>
      <trkpt lat="43.53803" lon="3.00532">
        <ele>297.6654053</ele>
        <time>2011-12-31T08:27:19Z</time>
      </trkpt>
      <trkpt lat="43.53797" lon="3.00519">
        <ele>299.1072998</ele>
        <time>2011-12-31T08:27:25Z</time>
      </trkpt>
      <trkpt lat="43.53796" lon="3.0051">
        <ele>300.0687256</ele>
        <time>2011-12-31T08:27:29Z</time>
      </trkpt>
      <trkpt lat="43.53804" lon="3.0051">
        <ele>301.0299072</ele>
        <time>2011-12-31T08:27:35Z</time>
      </trkpt>
      <trkpt lat="43.53805" lon="3.00512">
        <ele>302.4719238</ele>
        <time>2011-12-31T08:27:36Z</time>
      </trkpt>
      <trkpt lat="43.53822" lon="3.00539">
        <ele>304.8752441</ele>
        <time>2011-12-31T08:27:51Z</time>
      </trkpt>
      <trkpt lat="43.53835" lon="3.00551">
        <ele>306.7978516</ele>
        <time>2011-12-31T08:28:00Z</time>
      </trkpt>
      <trkpt lat="43.53856" lon="3.00568">
        <ele>310.1624756</ele>
        <time>2011-12-31T08:28:13Z</time>
      </trkpt>
      <trkpt lat="43.53889" lon="3.00584">
        <ele>311.6044922</ele>
        <time>2011-12-31T08:28:31Z</time>
      </trkpt>
      <trkpt lat="43.5392" lon="3.00597">
        <ele>313.0465088</ele>
        <time>2011-12-31T08:28:47Z</time>
      </trkpt>
      <trkpt lat="43.53952" lon="3.00603">
        <ele>313.5272217</ele>
        <time>2011-12-31T08:29:01Z</time>
      </trkpt>
      <trkpt lat="43.53961" lon="3.00616">
        <ele>313.5272217</ele>
        <time>2011-12-31T08:29:07Z</time>
      </trkpt>
      <trkpt lat="43.53956" lon="3.0063">
        <ele>314.0078125</ele>
        <time>2011-12-31T08:29:12Z</time>
      </trkpt>
      <trkpt lat="43.53938" lon="3.0065">
        <ele>314.0078125</ele>
        <time>2011-12-31T08:29:21Z</time>
      </trkpt>
      <trkpt lat="43.53929" lon="3.00674">
        <ele>314.4884033</ele>
        <time>2011-12-31T08:29:29Z</time>
      </trkpt>
      <trkpt lat="43.53931" lon="3.00712">
        <ele>315.9304199</ele>
        <time>2011-12-31T08:29:41Z</time>
      </trkpt>
      <trkpt lat="43.53943" lon="3.0074">
        <ele>317.3724365</ele>
        <time>2011-12-31T08:29:51Z</time>
      </trkpt>
      <trkpt lat="43.53959" lon="3.00763">
        <ele>319.7756348</ele>
        <time>2011-12-31T08:30:02Z</time>
      </trkpt>
      <trkpt lat="43.53973" lon="3.00781">
        <ele>321.6983643</ele>
        <time>2011-12-31T08:30:11Z</time>
      </trkpt>
      <trkpt lat="43.53989" lon="3.00795">
        <ele>323.6209717</ele>
        <time>2011-12-31T08:30:21Z</time>
      </trkpt>
      <trkpt lat="43.54007" lon="3.0081">
        <ele>326.0241699</ele>
        <time>2011-12-31T08:30:31Z</time>
      </trkpt>
      <trkpt lat="43.54023" lon="3.00828">
        <ele>328.4276123</ele>
        <time>2011-12-31T08:30:41Z</time>
      </trkpt>
      <trkpt lat="43.54027" lon="3.00847">
        <ele>328.4276123</ele>
        <time>2011-12-31T08:30:49Z</time>
      </trkpt>
      <trkpt lat="43.54014" lon="3.00853">
        <ele>328.9083252</ele>
        <time>2011-12-31T08:30:55Z</time>
      </trkpt>
      <trkpt lat="43.54004" lon="3.00852">
        <ele>329.8695068</ele>
        <time>2011-12-31T08:30:59Z</time>
      </trkpt>
      <trkpt lat="43.53977" lon="3.0086">
        <ele>329.388916</ele>
        <time>2011-12-31T08:31:12Z</time>
      </trkpt>
      <trkpt lat="43.53969" lon="3.00862">
        <ele>330.8309326</ele>
        <time>2011-12-31T08:31:16Z</time>
      </trkpt>
      <trkpt lat="43.53958" lon="3.00862">
        <ele>333.7147217</ele>
        <time>2011-12-31T08:31:21Z</time>
      </trkpt>
      <trkpt lat="43.53932" lon="3.00866">
        <ele>337.5600586</ele>
        <time>2011-12-31T08:31:34Z</time>
      </trkpt>
      <trkpt lat="43.53908" lon="3.00871">
        <ele>339.482666</ele>
        <time>2011-12-31T08:31:45Z</time>
      </trkpt>
      <trkpt lat="43.5388" lon="3.00875">
        <ele>342.3666992</ele>
        <time>2011-12-31T08:31:59Z</time>
      </trkpt>
      <trkpt lat="43.53854" lon="3.00884">
        <ele>345.2506104</ele>
        <time>2011-12-31T08:32:11Z</time>
      </trkpt>
      <trkpt lat="43.5385" lon="3.00885">
        <ele>345.7313232</ele>
        <time>2011-12-31T08:32:13Z</time>
      </trkpt>
      <trkpt lat="43.53828" lon="3.00899">
        <ele>347.6539307</ele>
        <time>2011-12-31T08:32:24Z</time>
      </trkpt>
      <trkpt lat="43.53802" lon="3.00908">
        <ele>350.057251</ele>
        <time>2011-12-31T08:32:37Z</time>
      </trkpt>
      <trkpt lat="43.53777" lon="3.00912">
        <ele>351.9798584</ele>
        <time>2011-12-31T08:32:49Z</time>
      </trkpt>
      <trkpt lat="43.53751" lon="3.00923">
        <ele>354.3831787</ele>
        <time>2011-12-31T08:33:02Z</time>
      </trkpt>
      <trkpt lat="43.53733" lon="3.00936">
        <ele>355.8251953</ele>
        <time>2011-12-31T08:33:12Z</time>
      </trkpt>
      <trkpt lat="43.53704" lon="3.0096">
        <ele>358.7089844</ele>
        <time>2011-12-31T08:33:28Z</time>
      </trkpt>
      <trkpt lat="43.53693" lon="3.00985">
        <ele>361.5931396</ele>
        <time>2011-12-31T08:33:38Z</time>
      </trkpt>
      <trkpt lat="43.53688" lon="3.01016">
        <ele>364.9576416</ele>
        <time>2011-12-31T08:33:48Z</time>
      </trkpt>
      <trkpt lat="43.53683" lon="3.01039">
        <ele>367.8415527</ele>
        <time>2011-12-31T08:33:56Z</time>
      </trkpt>
      <trkpt lat="43.53671" lon="3.01061">
        <ele>371.2062988</ele>
        <time>2011-12-31T08:34:05Z</time>
      </trkpt>
      <trkpt lat="43.5367" lon="3.01064">
        <ele>371.2062988</ele>
        <time>2011-12-31T08:34:06Z</time>
      </trkpt>
      <trkpt lat="43.53668" lon="3.01075">
        <ele>372.6481934</ele>
        <time>2011-12-31T08:34:10Z</time>
      </trkpt>
      <trkpt lat="43.5366" lon="3.01121">
        <ele>375.0515137</ele>
        <time>2011-12-31T08:34:25Z</time>
      </trkpt>
      <trkpt lat="43.53655" lon="3.01158">
        <ele>376.9742432</ele>
        <time>2011-12-31T08:34:38Z</time>
      </trkpt>
      <trkpt lat="43.53643" lon="3.01184">
        <ele>378.8968506</ele>
        <time>2011-12-31T08:34:48Z</time>
      </trkpt>
      <trkpt lat="43.53627" lon="3.01203">
        <ele>380.819458</ele>
        <time>2011-12-31T08:34:59Z</time>
      </trkpt>
      <trkpt lat="43.53608" lon="3.01224">
        <ele>383.2226563</ele>
        <time>2011-12-31T08:35:12Z</time>
      </trkpt>
      <trkpt lat="43.53597" lon="3.01249">
        <ele>385.1453857</ele>
        <time>2011-12-31T08:35:23Z</time>
      </trkpt>
      <trkpt lat="43.53596" lon="3.01279">
        <ele>386.5874023</ele>
        <time>2011-12-31T08:35:35Z</time>
      </trkpt>
      <trkpt lat="43.53601" lon="3.01306">
        <ele>389.9519043</ele>
        <time>2011-12-31T08:35:46Z</time>
      </trkpt>
      <trkpt lat="43.53606" lon="3.01332">
        <ele>391.3937988</ele>
        <time>2011-12-31T08:35:55Z</time>
      </trkpt>
      <trkpt lat="43.5361" lon="3.01358">
        <ele>394.7585449</ele>
        <time>2011-12-31T08:36:05Z</time>
      </trkpt>
      <trkpt lat="43.53614" lon="3.01382">
        <ele>396.6811523</ele>
        <time>2011-12-31T08:36:14Z</time>
      </trkpt>
      <trkpt lat="43.53617" lon="3.01414">
        <ele>398.6037598</ele>
        <time>2011-12-31T08:36:26Z</time>
      </trkpt>
      <trkpt lat="43.53619" lon="3.01457">
        <ele>401.0070801</ele>
        <time>2011-12-31T08:36:41Z</time>
      </trkpt>
      <trkpt lat="43.53628" lon="3.01486">
        <ele>402.9296875</ele>
        <time>2011-12-31T08:36:52Z</time>
      </trkpt>
      <trkpt lat="43.53649" lon="3.01503">
        <ele>405.8137207</ele>
        <time>2011-12-31T08:37:04Z</time>
      </trkpt>
      <trkpt lat="43.53674" lon="3.01509">
        <ele>407.7363281</ele>
        <time>2011-12-31T08:37:17Z</time>
      </trkpt>
      <trkpt lat="43.537" lon="3.01508">
        <ele>410.1396484</ele>
        <time>2011-12-31T08:37:30Z</time>
      </trkpt>
      <trkpt lat="43.53722" lon="3.01507">
        <ele>413.0235596</ele>
        <time>2011-12-31T08:37:42Z</time>
      </trkpt>
      <trkpt lat="43.53747" lon="3.01508">
        <ele>414.4654541</ele>
        <time>2011-12-31T08:37:55Z</time>
      </trkpt>
      <trkpt lat="43.53756" lon="3.01509">
        <ele>416.8688965</ele>
        <time>2011-12-31T08:38:03Z</time>
      </trkpt>
      <trkpt lat="43.53762" lon="3.0151">
        <ele>416.8688965</ele>
        <time>2011-12-31T08:38:15Z</time>
      </trkpt>
      <trkpt lat="43.5378" lon="3.01509">
        <ele>419.2722168</ele>
        <time>2011-12-31T08:38:22Z</time>
      </trkpt>
      <trkpt lat="43.53808" lon="3.01513">
        <ele>421.1948242</ele>
        <time>2011-12-31T08:38:34Z</time>
      </trkpt>
      <trkpt lat="43.53828" lon="3.01517">
        <ele>424.0787354</ele>
        <time>2011-12-31T08:38:44Z</time>
      </trkpt>
      <trkpt lat="43.53845" lon="3.01527">
        <ele>425.520752</ele>
        <time>2011-12-31T08:38:53Z</time>
      </trkpt>
      <trkpt lat="43.53847" lon="3.01532">
        <ele>426.0013428</ele>
        <time>2011-12-31T08:38:55Z</time>
      </trkpt>
      <trkpt lat="43.53851" lon="3.01564">
        <ele>427.9239502</ele>
        <time>2011-12-31T08:39:07Z</time>
      </trkpt>
      <trkpt lat="43.53853" lon="3.01588">
        <ele>431.2885742</ele>
        <time>2011-12-31T08:39:16Z</time>
      </trkpt>
      <trkpt lat="43.53852" lon="3.01612">
        <ele>431.2885742</ele>
        <time>2011-12-31T08:39:24Z</time>
      </trkpt>
      <trkpt lat="43.53854" lon="3.0164">
        <ele>433.2113037</ele>
        <time>2011-12-31T08:39:35Z</time>
      </trkpt>
      <trkpt lat="43.53857" lon="3.01673">
        <ele>436.0952148</ele>
        <time>2011-12-31T08:39:46Z</time>
      </trkpt>
      <trkpt lat="43.53858" lon="3.01687">
        <ele>438.0178223</ele>
        <time>2011-12-31T08:39:51Z</time>
      </trkpt>
      <trkpt lat="43.53863" lon="3.01718">
        <ele>439.9404297</ele>
        <time>2011-12-31T08:40:02Z</time>
      </trkpt>
      <trkpt lat="43.53877" lon="3.0175">
        <ele>441.8631592</ele>
        <time>2011-12-31T08:40:14Z</time>
      </trkpt>
      <trkpt lat="43.53891" lon="3.01761">
        <ele>442.8244629</ele>
        <time>2011-12-31T08:40:22Z</time>
      </trkpt>
      <trkpt lat="43.53912" lon="3.01761">
        <ele>443.3050537</ele>
        <time>2011-12-31T08:40:33Z</time>
      </trkpt>
      <trkpt lat="43.5393" lon="3.01764">
        <ele>446.6696777</ele>
        <time>2011-12-31T08:40:42Z</time>
      </trkpt>
      <trkpt lat="43.53945" lon="3.01777">
        <ele>447.1502686</ele>
        <time>2011-12-31T08:40:52Z</time>
      </trkpt>
      <trkpt lat="43.53951" lon="3.01806">
        <ele>449.072998</ele>
        <time>2011-12-31T08:41:03Z</time>
      </trkpt>
      <trkpt lat="43.53952" lon="3.01838">
        <ele>450.9956055</ele>
        <time>2011-12-31T08:41:15Z</time>
      </trkpt>
      <trkpt lat="43.53944" lon="3.01866">
        <ele>452.4376221</ele>
        <time>2011-12-31T08:41:25Z</time>
      </trkpt>
      <trkpt lat="43.53939" lon="3.01896">
        <ele>455.3215332</ele>
        <time>2011-12-31T08:41:35Z</time>
      </trkpt>
      <trkpt lat="43.53933" lon="3.01925">
        <ele>457.2442627</ele>
        <time>2011-12-31T08:41:46Z</time>
      </trkpt>
      <trkpt lat="43.53922" lon="3.01953">
        <ele>460.6087646</ele>
        <time>2011-12-31T08:41:58Z</time>
      </trkpt>
      <trkpt lat="43.53912" lon="3.01984">
        <ele>463.012085</ele>
        <time>2011-12-31T08:42:10Z</time>
      </trkpt>
      <trkpt lat="43.53906" lon="3.02014">
        <ele>465.4155273</ele>
        <time>2011-12-31T08:42:20Z</time>
      </trkpt>
      <trkpt lat="43.53899" lon="3.02051">
        <ele>468.2993164</ele>
        <time>2011-12-31T08:42:33Z</time>
      </trkpt>
      <trkpt lat="43.53901" lon="3.02079">
        <ele>470.2219238</ele>
        <time>2011-12-31T08:42:43Z</time>
      </trkpt>
      <trkpt lat="43.53912" lon="3.02099">
        <ele>473.1060791</ele>
        <time>2011-12-31T08:42:51Z</time>
      </trkpt>
      <trkpt lat="43.53914" lon="3.02101">
        <ele>473.1060791</ele>
        <time>2011-12-31T08:42:52Z</time>
      </trkpt>
      <trkpt lat="43.53931" lon="3.02098">
        <ele>474.5479736</ele>
        <time>2011-12-31T08:43:00Z</time>
      </trkpt>
      <trkpt lat="43.53935" lon="3.02096">
        <ele>475.0286865</ele>
        <time>2011-12-31T08:43:02Z</time>
      </trkpt>
      <trkpt lat="43.53953" lon="3.0209">
        <ele>477.9124756</ele>
        <time>2011-12-31T08:43:13Z</time>
      </trkpt>
      <trkpt lat="43.53971" lon="3.0209">
        <ele>479.3544922</ele>
        <time>2011-12-31T08:43:23Z</time>
      </trkpt>
      <trkpt lat="43.53992" lon="3.0209">
        <ele>481.7578125</ele>
        <time>2011-12-31T08:43:35Z</time>
      </trkpt>
      <trkpt lat="43.53997" lon="3.0209">
        <ele>483.1998291</ele>
        <time>2011-12-31T08:43:38Z</time>
      </trkpt>
      <trkpt lat="43.54012" lon="3.02091">
        <ele>484.6418457</ele>
        <time>2011-12-31T08:43:47Z</time>
      </trkpt>
      <trkpt lat="43.54016" lon="3.02091">
        <ele>484.6418457</ele>
        <time>2011-12-31T08:43:50Z</time>
      </trkpt>
      <trkpt lat="43.54032" lon="3.0209">
        <ele>487.0450439</ele>
        <time>2011-12-31T08:43:59Z</time>
      </trkpt>
      <trkpt lat="43.54054" lon="3.02082">
        <ele>490.40979</ele>
        <time>2011-12-31T08:44:12Z</time>
      </trkpt>
      <trkpt lat="43.54073" lon="3.02075">
        <ele>491.8516846</ele>
        <time>2011-12-31T08:44:23Z</time>
      </trkpt>
      <trkpt lat="43.54098" lon="3.02059">
        <ele>493.774292</ele>
        <time>2011-12-31T08:44:39Z</time>
      </trkpt>
      <trkpt lat="43.54113" lon="3.02042">
        <ele>497.138916</ele>
        <time>2011-12-31T08:44:50Z</time>
      </trkpt>
      <trkpt lat="43.54126" lon="3.02022">
        <ele>498.1003418</ele>
        <time>2011-12-31T08:45:01Z</time>
      </trkpt>
      <trkpt lat="43.54139" lon="3.02005">
        <ele>501.4648438</ele>
        <time>2011-12-31T08:45:11Z</time>
      </trkpt>
      <trkpt lat="43.5415" lon="3.01986">
        <ele>503.3874512</ele>
        <time>2011-12-31T08:45:21Z</time>
      </trkpt>
      <trkpt lat="43.54163" lon="3.01959">
        <ele>504.8294678</ele>
        <time>2011-12-31T08:45:34Z</time>
      </trkpt>
      <trkpt lat="43.54169" lon="3.01929">
        <ele>506.7520752</ele>
        <time>2011-12-31T08:45:46Z</time>
      </trkpt>
      <trkpt lat="43.54174" lon="3.01912">
        <ele>507.713501</ele>
        <time>2011-12-31T08:45:54Z</time>
      </trkpt>
      <trkpt lat="43.54183" lon="3.01892">
        <ele>509.6361084</ele>
        <time>2011-12-31T08:46:04Z</time>
      </trkpt>
      <trkpt lat="43.54191" lon="3.0187">
        <ele>512.0394287</ele>
        <time>2011-12-31T08:46:14Z</time>
      </trkpt>
      <trkpt lat="43.54201" lon="3.01845">
        <ele>514.442627</ele>
        <time>2011-12-31T08:46:25Z</time>
      </trkpt>
      <trkpt lat="43.54207" lon="3.01828">
        <ele>515.4040527</ele>
        <time>2011-12-31T08:46:33Z</time>
      </trkpt>
      <trkpt lat="43.5422" lon="3.0179">
        <ele>518.2878418</ele>
        <time>2011-12-31T08:46:50Z</time>
      </trkpt>
      <trkpt lat="43.54228" lon="3.0177">
        <ele>519.2492676</ele>
        <time>2011-12-31T08:46:59Z</time>
      </trkpt>
      <trkpt lat="43.5424" lon="3.01741">
        <ele>521.1719971</ele>
        <time>2011-12-31T08:47:09Z</time>
      </trkpt>
      <trkpt lat="43.54247" lon="3.01721">
        <ele>522.1331787</ele>
        <time>2011-12-31T08:47:17Z</time>
      </trkpt>
      <trkpt lat="43.54259" lon="3.01694">
        <ele>523.0946045</ele>
        <time>2011-12-31T08:47:28Z</time>
      </trkpt>
      <trkpt lat="43.54275" lon="3.01676">
        <ele>524.0557861</ele>
        <time>2011-12-31T08:47:37Z</time>
      </trkpt>
      <trkpt lat="43.54281" lon="3.01678">
        <ele>524.536499</ele>
        <time>2011-12-31T08:47:40Z</time>
      </trkpt>
      <trkpt lat="43.54288" lon="3.01703">
        <ele>525.0172119</ele>
        <time>2011-12-31T08:47:48Z</time>
      </trkpt>
      <trkpt lat="43.543" lon="3.01745">
        <ele>525.9783936</ele>
        <time>2011-12-31T08:48:00Z</time>
      </trkpt>
      <trkpt lat="43.54314" lon="3.01776">
        <ele>526.4591064</ele>
        <time>2011-12-31T08:48:10Z</time>
      </trkpt>
      <trkpt lat="43.54316" lon="3.01779">
        <ele>526.4591064</ele>
        <time>2011-12-31T08:48:11Z</time>
      </trkpt>
      <trkpt lat="43.54338" lon="3.01786">
        <ele>526.4591064</ele>
        <time>2011-12-31T08:48:19Z</time>
      </trkpt>
      <trkpt lat="43.54365" lon="3.01777">
        <ele>525.9783936</ele>
        <time>2011-12-31T08:48:29Z</time>
      </trkpt>
      <trkpt lat="43.54394" lon="3.01755">
        <ele>526.4591064</ele>
        <time>2011-12-31T08:48:40Z</time>
      </trkpt>
      <trkpt lat="43.54414" lon="3.01745">
        <ele>526.9398193</ele>
        <time>2011-12-31T08:48:47Z</time>
      </trkpt>
      <trkpt lat="43.54422" lon="3.01763">
        <ele>526.9398193</ele>
        <time>2011-12-31T08:48:52Z</time>
      </trkpt>
      <trkpt lat="43.54429" lon="3.01804">
        <ele>526.9398193</ele>
        <time>2011-12-31T08:49:03Z</time>
      </trkpt>
      <trkpt lat="43.5444" lon="3.01841">
        <ele>527.901001</ele>
        <time>2011-12-31T08:49:14Z</time>
      </trkpt>
      <trkpt lat="43.54463" lon="3.01859">
        <ele>527.901001</ele>
        <time>2011-12-31T08:49:23Z</time>
      </trkpt>
      <trkpt lat="43.54486" lon="3.01864">
        <ele>528.3818359</ele>
        <time>2011-12-31T08:49:31Z</time>
      </trkpt>
      <trkpt lat="43.54513" lon="3.01862">
        <ele>527.4204102</ele>
        <time>2011-12-31T08:49:40Z</time>
      </trkpt>
      <trkpt lat="43.54528" lon="3.01871">
        <ele>527.901001</ele>
        <time>2011-12-31T08:49:46Z</time>
      </trkpt>
      <trkpt lat="43.54526" lon="3.01894">
        <ele>528.8625488</ele>
        <time>2011-12-31T08:49:52Z</time>
      </trkpt>
      <trkpt lat="43.54521" lon="3.01928">
        <ele>530.7851563</ele>
        <time>2011-12-31T08:50:02Z</time>
      </trkpt>
      <trkpt lat="43.5451" lon="3.01974">
        <ele>532.2270508</ele>
        <time>2011-12-31T08:50:16Z</time>
      </trkpt>
      <trkpt lat="43.54497" lon="3.02003">
        <ele>532.7077637</ele>
        <time>2011-12-31T08:50:26Z</time>
      </trkpt>
      <trkpt lat="43.5449" lon="3.02024">
        <ele>534.6303711</ele>
        <time>2011-12-31T08:50:34Z</time>
      </trkpt>
      <trkpt lat="43.54494" lon="3.02029">
        <ele>535.5915527</ele>
        <time>2011-12-31T08:50:37Z</time>
      </trkpt>
      <trkpt lat="43.54505" lon="3.02024">
        <ele>536.5531006</ele>
        <time>2011-12-31T08:50:43Z</time>
      </trkpt>
      <trkpt lat="43.5452" lon="3.0199">
        <ele>537.5142822</ele>
        <time>2011-12-31T08:50:55Z</time>
      </trkpt>
      <trkpt lat="43.54531" lon="3.01959">
        <ele>539.4368896</ele>
        <time>2011-12-31T08:51:05Z</time>
      </trkpt>
      <trkpt lat="43.54543" lon="3.01929">
        <ele>540.8789063</ele>
        <time>2011-12-31T08:51:15Z</time>
      </trkpt>
      <trkpt lat="43.54555" lon="3.01895">
        <ele>542.8015137</ele>
        <time>2011-12-31T08:51:26Z</time>
      </trkpt>
      <trkpt lat="43.5456" lon="3.01881">
        <ele>544.2436523</ele>
        <time>2011-12-31T08:51:31Z</time>
      </trkpt>
      <trkpt lat="43.54569" lon="3.0185">
        <ele>547.6081543</ele>
        <time>2011-12-31T08:51:42Z</time>
      </trkpt>
      <trkpt lat="43.5457" lon="3.01844">
        <ele>548.5693359</ele>
        <time>2011-12-31T08:51:44Z</time>
      </trkpt>
      <trkpt lat="43.54573" lon="3.01821">
        <ele>549.5307617</ele>
        <time>2011-12-31T08:51:52Z</time>
      </trkpt>
      <trkpt lat="43.54574" lon="3.01797">
        <ele>550.0114746</ele>
        <time>2011-12-31T08:52:01Z</time>
      </trkpt>
      <trkpt lat="43.54574" lon="3.01793">
        <ele>550.9726563</ele>
        <time>2011-12-31T08:52:03Z</time>
      </trkpt>
      <trkpt lat="43.54572" lon="3.01786">
        <ele>551.4533691</ele>
        <time>2011-12-31T08:52:10Z</time>
      </trkpt>
      <trkpt lat="43.54573" lon="3.01786">
        <ele>552.4145508</ele>
        <time>2011-12-31T08:55:53Z</time>
      </trkpt>
      <trkpt lat="43.54572" lon="3.01785">
        <ele>551.934082</ele>
        <time>2011-12-31T08:58:22Z</time>
      </trkpt>
      <trkpt lat="43.54573" lon="3.01785">
        <ele>552.4145508</ele>
        <time>2011-12-31T08:59:28Z</time>
      </trkpt>
      <trkpt lat="43.54573" lon="3.01785">
        <ele>552.8952637</ele>
        <time>2011-12-31T08:59:53Z</time>
      </trkpt>
      <trkpt lat="43.54573" lon="3.01784">
        <ele>552.4145508</ele>
        <time>2011-12-31T09:04:01Z</time>
      </trkpt>
      <trkpt lat="43.54573" lon="3.01781">
        <ele>553.8566895</ele>
        <time>2011-12-31T09:04:12Z</time>
      </trkpt>
      <trkpt lat="43.54571" lon="3.01778">
        <ele>553.8566895</ele>
        <time>2011-12-31T09:04:14Z</time>
      </trkpt>
      <trkpt lat="43.54563" lon="3.01759">
        <ele>555.298584</ele>
        <time>2011-12-31T09:04:24Z</time>
      </trkpt>
      <trkpt lat="43.54555" lon="3.01741">
        <ele>556.2600098</ele>
        <time>2011-12-31T09:04:32Z</time>
      </trkpt>
      <trkpt lat="43.54539" lon="3.01735">
        <ele>556.2600098</ele>
        <time>2011-12-31T09:04:40Z</time>
      </trkpt>
      <trkpt lat="43.54527" lon="3.01725">
        <ele>559.144043</ele>
        <time>2011-12-31T09:04:47Z</time>
      </trkpt>
      <trkpt lat="43.54522" lon="3.01719">
        <ele>560.1052246</ele>
        <time>2011-12-31T09:04:50Z</time>
      </trkpt>
      <trkpt lat="43.54508" lon="3.01711">
        <ele>561.5473633</ele>
        <time>2011-12-31T09:04:58Z</time>
      </trkpt>
      <trkpt lat="43.54491" lon="3.01698">
        <ele>562.9892578</ele>
        <time>2011-12-31T09:05:07Z</time>
      </trkpt>
      <trkpt lat="43.54475" lon="3.01676">
        <ele>565.873291</ele>
        <time>2011-12-31T09:05:17Z</time>
      </trkpt>
      <trkpt lat="43.54463" lon="3.01657">
        <ele>567.3151855</ele>
        <time>2011-12-31T09:05:26Z</time>
      </trkpt>
      <trkpt lat="43.54452" lon="3.01639">
        <ele>568.2763672</ele>
        <time>2011-12-31T09:05:35Z</time>
      </trkpt>
      <trkpt lat="43.54439" lon="3.01612">
        <ele>569.237793</ele>
        <time>2011-12-31T09:05:46Z</time>
      </trkpt>
      <trkpt lat="43.54427" lon="3.01586">
        <ele>569.237793</ele>
        <time>2011-12-31T09:05:54Z</time>
      </trkpt>
      <trkpt lat="43.54417" lon="3.01562">
        <ele>570.6796875</ele>
        <time>2011-12-31T09:06:01Z</time>
      </trkpt>
      <trkpt lat="43.54421" lon="3.01522">
        <ele>571.1604004</ele>
        <time>2011-12-31T09:06:11Z</time>
      </trkpt>
      <trkpt lat="43.54424" lon="3.01483">
        <ele>571.6408691</ele>
        <time>2011-12-31T09:06:20Z</time>
      </trkpt>
      <trkpt lat="43.54427" lon="3.01428">
        <ele>572.1218262</ele>
        <time>2011-12-31T09:06:31Z</time>
      </trkpt>
      <trkpt lat="43.54436" lon="3.01382">
        <ele>572.1218262</ele>
        <time>2011-12-31T09:06:41Z</time>
      </trkpt>
      <trkpt lat="43.54451" lon="3.01324">
        <ele>573.083252</ele>
        <time>2011-12-31T09:06:55Z</time>
      </trkpt>
      <trkpt lat="43.54463" lon="3.01273">
        <ele>573.5639648</ele>
        <time>2011-12-31T09:07:06Z</time>
      </trkpt>
      <trkpt lat="43.54465" lon="3.01258">
        <ele>573.083252</ele>
        <time>2011-12-31T09:07:09Z</time>
      </trkpt>
      <trkpt lat="43.54468" lon="3.01238">
        <ele>572.6025391</ele>
        <time>2011-12-31T09:07:13Z</time>
      </trkpt>
      <trkpt lat="43.54475" lon="3.012">
        <ele>572.1218262</ele>
        <time>2011-12-31T09:07:20Z</time>
      </trkpt>
      <trkpt lat="43.54484" lon="3.01181">
        <ele>572.1218262</ele>
        <time>2011-12-31T09:07:24Z</time>
      </trkpt>
      <trkpt lat="43.54508" lon="3.01166">
        <ele>571.1604004</ele>
        <time>2011-12-31T09:07:31Z</time>
      </trkpt>
      <trkpt lat="43.54531" lon="3.01158">
        <ele>570.1989746</ele>
        <time>2011-12-31T09:07:37Z</time>
      </trkpt>
      <trkpt lat="43.54543" lon="3.0116">
        <ele>569.7185059</ele>
        <time>2011-12-31T09:07:40Z</time>
      </trkpt>
      <trkpt lat="43.54562" lon="3.01165">
        <ele>568.2763672</ele>
        <time>2011-12-31T09:07:44Z</time>
      </trkpt>
      <trkpt lat="43.54595" lon="3.01174">
        <ele>568.7570801</ele>
        <time>2011-12-31T09:07:51Z</time>
      </trkpt>
      <trkpt lat="43.54614" lon="3.01174">
        <ele>569.7185059</ele>
        <time>2011-12-31T09:07:56Z</time>
      </trkpt>
      <trkpt lat="43.54615" lon="3.01173">
        <ele>570.6796875</ele>
        <time>2011-12-31T09:07:58Z</time>
      </trkpt>
      <trkpt lat="43.54616" lon="3.01173">
        <ele>571.1604004</ele>
        <time>2011-12-31T09:08:10Z</time>
      </trkpt>
      <trkpt lat="43.54618" lon="3.01171">
        <ele>571.1604004</ele>
        <time>2011-12-31T09:08:19Z</time>
      </trkpt>
      <trkpt lat="43.54619" lon="3.01167">
        <ele>572.1218262</ele>
        <time>2011-12-31T09:08:24Z</time>
      </trkpt>
      <trkpt lat="43.5462" lon="3.0116">
        <ele>573.5639648</ele>
        <time>2011-12-31T09:08:32Z</time>
      </trkpt>
      <trkpt lat="43.54621" lon="3.01156">
        <ele>573.083252</ele>
        <time>2011-12-31T09:08:35Z</time>
      </trkpt>
      <trkpt lat="43.54624" lon="3.01143">
        <ele>573.5639648</ele>
        <time>2011-12-31T09:08:43Z</time>
      </trkpt>
      <trkpt lat="43.54626" lon="3.0112">
        <ele>575.0058594</ele>
        <time>2011-12-31T09:08:55Z</time>
      </trkpt>
      <trkpt lat="43.54625" lon="3.01103">
        <ele>575.967041</ele>
        <time>2011-12-31T09:09:05Z</time>
      </trkpt>
      <trkpt lat="43.54622" lon="3.01093">
        <ele>577.4091797</ele>
        <time>2011-12-31T09:09:14Z</time>
      </trkpt>
      <trkpt lat="43.54622" lon="3.01091">
        <ele>576.9284668</ele>
        <time>2011-12-31T09:09:16Z</time>
      </trkpt>
      <trkpt lat="43.54621" lon="3.01081">
        <ele>578.3703613</ele>
        <time>2011-12-31T09:09:25Z</time>
      </trkpt>
      <trkpt lat="43.54622" lon="3.01077">
        <ele>580.7736816</ele>
        <time>2011-12-31T09:09:33Z</time>
      </trkpt>
      <trkpt lat="43.54623" lon="3.01071">
        <ele>581.7348633</ele>
        <time>2011-12-31T09:09:41Z</time>
      </trkpt>
      <trkpt lat="43.54622" lon="3.01061">
        <ele>583.1767578</ele>
        <time>2011-12-31T09:09:51Z</time>
      </trkpt>
      <trkpt lat="43.54624" lon="3.01052">
        <ele>584.6188965</ele>
        <time>2011-12-31T09:10:01Z</time>
      </trkpt>
      <trkpt lat="43.54625" lon="3.01044">
        <ele>586.5415039</ele>
        <time>2011-12-31T09:10:09Z</time>
      </trkpt>
      <trkpt lat="43.54625" lon="3.01033">
        <ele>587.5026855</ele>
        <time>2011-12-31T09:10:19Z</time>
      </trkpt>
      <trkpt lat="43.54623" lon="3.01024">
        <ele>589.4255371</ele>
        <time>2011-12-31T09:10:29Z</time>
      </trkpt>
      <trkpt lat="43.54621" lon="3.01017">
        <ele>590.8674316</ele>
        <time>2011-12-31T09:10:38Z</time>
      </trkpt>
      <trkpt lat="43.54619" lon="3.01009">
        <ele>593.7514648</ele>
        <time>2011-12-31T09:10:49Z</time>
      </trkpt>
      <trkpt lat="43.5462" lon="3.01">
        <ele>593.7514648</ele>
        <time>2011-12-31T09:11:01Z</time>
      </trkpt>
      <trkpt lat="43.54621" lon="3.00992">
        <ele>593.7514648</ele>
        <time>2011-12-31T09:11:09Z</time>
      </trkpt>
      <trkpt lat="43.54619" lon="3.00983">
        <ele>595.1933594</ele>
        <time>2011-12-31T09:11:19Z</time>
      </trkpt>
      <trkpt lat="43.54619" lon="3.00973">
        <ele>598.0773926</ele>
        <time>2011-12-31T09:11:30Z</time>
      </trkpt>
      <trkpt lat="43.54618" lon="3.00967">
        <ele>599.5192871</ele>
        <time>2011-12-31T09:11:39Z</time>
      </trkpt>
      <trkpt lat="43.54619" lon="3.00958">
        <ele>602.8837891</ele>
        <time>2011-12-31T09:11:50Z</time>
      </trkpt>
      <trkpt lat="43.54621" lon="3.00951">
        <ele>603.8452148</ele>
        <time>2011-12-31T09:11:59Z</time>
      </trkpt>
      <trkpt lat="43.54619" lon="3.00949">
        <ele>604.3261719</ele>
        <time>2011-12-31T09:12:04Z</time>
      </trkpt>
      <trkpt lat="43.54618" lon="3.00943">
        <ele>605.2873535</ele>
        <time>2011-12-31T09:12:12Z</time>
      </trkpt>
      <trkpt lat="43.54618" lon="3.00939">
        <ele>606.729248</ele>
        <time>2011-12-31T09:12:21Z</time>
      </trkpt>
      <trkpt lat="43.54618" lon="3.00931">
        <ele>608.6518555</ele>
        <time>2011-12-31T09:12:31Z</time>
      </trkpt>
      <trkpt lat="43.54619" lon="3.00926">
        <ele>609.1325684</ele>
        <time>2011-12-31T09:12:39Z</time>
      </trkpt>
      <trkpt lat="43.54622" lon="3.00919">
        <ele>610.5744629</ele>
        <time>2011-12-31T09:12:47Z</time>
      </trkpt>
      <trkpt lat="43.54623" lon="3.00915">
        <ele>612.0166016</ele>
        <time>2011-12-31T09:12:51Z</time>
      </trkpt>
      <trkpt lat="43.54623" lon="3.00908">
        <ele>612.9777832</ele>
        <time>2011-12-31T09:12:58Z</time>
      </trkpt>
      <trkpt lat="43.54624" lon="3.00902">
        <ele>614.4196777</ele>
        <time>2011-12-31T09:13:07Z</time>
      </trkpt>
      <trkpt lat="43.54625" lon="3.009">
        <ele>615.3811035</ele>
        <time>2011-12-31T09:13:15Z</time>
      </trkpt>
      <trkpt lat="43.54628" lon="3.00899">
        <ele>614.4196777</ele>
        <time>2011-12-31T09:13:24Z</time>
      </trkpt>
      <trkpt lat="43.54632" lon="3.00894">
        <ele>613.9389648</ele>
        <time>2011-12-31T09:13:33Z</time>
      </trkpt>
      <trkpt lat="43.54636" lon="3.00888">
        <ele>614.9003906</ele>
        <time>2011-12-31T09:13:41Z</time>
      </trkpt>
      <trkpt lat="43.54639" lon="3.00883">
        <ele>615.8618164</ele>
        <time>2011-12-31T09:13:50Z</time>
      </trkpt>
      <trkpt lat="43.5464" lon="3.00875">
        <ele>616.3422852</ele>
        <time>2011-12-31T09:13:58Z</time>
      </trkpt>
      <trkpt lat="43.54642" lon="3.0087">
        <ele>617.7841797</ele>
        <time>2011-12-31T09:14:06Z</time>
      </trkpt>
      <trkpt lat="43.54644" lon="3.00862">
        <ele>618.2648926</ele>
        <time>2011-12-31T09:14:14Z</time>
      </trkpt>
      <trkpt lat="43.54647" lon="3.00854">
        <ele>619.7070313</ele>
        <time>2011-12-31T09:14:21Z</time>
      </trkpt>
      <trkpt lat="43.5465" lon="3.00846">
        <ele>622.1103516</ele>
        <time>2011-12-31T09:14:29Z</time>
      </trkpt>
      <trkpt lat="43.54651" lon="3.00839">
        <ele>621.6296387</ele>
        <time>2011-12-31T09:14:36Z</time>
      </trkpt>
      <trkpt lat="43.54652" lon="3.00834">
        <ele>622.1103516</ele>
        <time>2011-12-31T09:14:41Z</time>
      </trkpt>
      <trkpt lat="43.54649" lon="3.00826">
        <ele>622.5910645</ele>
        <time>2011-12-31T09:14:49Z</time>
      </trkpt>
      <trkpt lat="43.54647" lon="3.00814">
        <ele>625.4748535</ele>
        <time>2011-12-31T09:14:57Z</time>
      </trkpt>
      <trkpt lat="43.54646" lon="3.00802">
        <ele>626.4362793</ele>
        <time>2011-12-31T09:15:07Z</time>
      </trkpt>
      <trkpt lat="43.54646" lon="3.00799">
        <ele>626.9169922</ele>
        <time>2011-12-31T09:15:18Z</time>
      </trkpt>
      <trkpt lat="43.54645" lon="3.00799">
        <ele>626.9169922</ele>
        <time>2011-12-31T09:16:13Z</time>
      </trkpt>
      <trkpt lat="43.54645" lon="3.00799">
        <ele>626.4362793</ele>
        <time>2011-12-31T09:18:25Z</time>
      </trkpt>
      <trkpt lat="43.54645" lon="3.00792">
        <ele>626.9169922</ele>
        <time>2011-12-31T09:18:33Z</time>
      </trkpt>
      <trkpt lat="43.54649" lon="3.00785">
        <ele>627.3977051</ele>
        <time>2011-12-31T09:18:37Z</time>
      </trkpt>
      <trkpt lat="43.54651" lon="3.0078">
        <ele>627.3977051</ele>
        <time>2011-12-31T09:18:44Z</time>
      </trkpt>
      <trkpt lat="43.54653" lon="3.00777">
        <ele>626.9169922</ele>
        <time>2011-12-31T09:18:46Z</time>
      </trkpt>
      <trkpt lat="43.54656" lon="3.00766">
        <ele>626.4362793</ele>
        <time>2011-12-31T09:18:51Z</time>
      </trkpt>
      <trkpt lat="43.54664" lon="3.00757">
        <ele>626.9169922</ele>
        <time>2011-12-31T09:18:56Z</time>
      </trkpt>
      <trkpt lat="43.54673" lon="3.00751">
        <ele>626.9169922</ele>
        <time>2011-12-31T09:19:00Z</time>
      </trkpt>
      <trkpt lat="43.54686" lon="3.00748">
        <ele>626.4362793</ele>
        <time>2011-12-31T09:19:05Z</time>
      </trkpt>
      <trkpt lat="43.54706" lon="3.00749">
        <ele>628.8395996</ele>
        <time>2011-12-31T09:19:13Z</time>
      </trkpt>
      <trkpt lat="43.54715" lon="3.00751">
        <ele>631.2429199</ele>
        <time>2011-12-31T09:19:17Z</time>
      </trkpt>
      <trkpt lat="43.54719" lon="3.00752">
        <ele>632.2041016</ele>
        <time>2011-12-31T09:19:19Z</time>
      </trkpt>
      <trkpt lat="43.54723" lon="3.00755">
        <ele>633.6459961</ele>
        <time>2011-12-31T09:19:22Z</time>
      </trkpt>
      <trkpt lat="43.54732" lon="3.00755">
        <ele>635.0881348</ele>
        <time>2011-12-31T09:19:28Z</time>
      </trkpt>
      <trkpt lat="43.54738" lon="3.0076">
        <ele>635.0881348</ele>
        <time>2011-12-31T09:19:33Z</time>
      </trkpt>
      <trkpt lat="43.54742" lon="3.00765">
        <ele>634.6074219</ele>
        <time>2011-12-31T09:19:36Z</time>
      </trkpt>
      <trkpt lat="43.54749" lon="3.00781">
        <ele>633.1652832</ele>
        <time>2011-12-31T09:19:42Z</time>
      </trkpt>
      <trkpt lat="43.54756" lon="3.00788">
        <ele>631.7233887</ele>
        <time>2011-12-31T09:19:45Z</time>
      </trkpt>
      <trkpt lat="43.54759" lon="3.00792">
        <ele>629.8007813</ele>
        <time>2011-12-31T09:19:46Z</time>
      </trkpt>
      <trkpt lat="43.54761" lon="3.00799">
        <ele>628.3588867</ele>
        <time>2011-12-31T09:19:49Z</time>
      </trkpt>
      <trkpt lat="43.54771" lon="3.00806">
        <ele>627.8781738</ele>
        <time>2011-12-31T09:19:53Z</time>
      </trkpt>
      <trkpt lat="43.54775" lon="3.00809">
        <ele>626.9169922</ele>
        <time>2011-12-31T09:19:55Z</time>
      </trkpt>
      <trkpt lat="43.5478" lon="3.00815">
        <ele>625.9555664</ele>
        <time>2011-12-31T09:20:00Z</time>
      </trkpt>
      <trkpt lat="43.54783" lon="3.00822">
        <ele>624.9943848</ele>
        <time>2011-12-31T09:20:03Z</time>
      </trkpt>
      <trkpt lat="43.54798" lon="3.00828">
        <ele>624.032959</ele>
        <time>2011-12-31T09:20:10Z</time>
      </trkpt>
      <trkpt lat="43.54803" lon="3.0083">
        <ele>622.5910645</ele>
        <time>2011-12-31T09:20:12Z</time>
      </trkpt>
      <trkpt lat="43.54804" lon="3.0083">
        <ele>621.6296387</ele>
        <time>2011-12-31T09:20:13Z</time>
      </trkpt>
      <trkpt lat="43.54814" lon="3.00835">
        <ele>621.6296387</ele>
        <time>2011-12-31T09:20:17Z</time>
      </trkpt>
      <trkpt lat="43.54822" lon="3.00829">
        <ele>621.1491699</ele>
        <time>2011-12-31T09:20:21Z</time>
      </trkpt>
      <trkpt lat="43.54832" lon="3.00828">
        <ele>622.1103516</ele>
        <time>2011-12-31T09:20:25Z</time>
      </trkpt>
      <trkpt lat="43.54852" lon="3.00817">
        <ele>620.668457</ele>
        <time>2011-12-31T09:20:32Z</time>
      </trkpt>
      <trkpt lat="43.54862" lon="3.00807">
        <ele>622.1103516</ele>
        <time>2011-12-31T09:20:37Z</time>
      </trkpt>
      <trkpt lat="43.54879" lon="3.00798">
        <ele>621.1491699</ele>
        <time>2011-12-31T09:20:43Z</time>
      </trkpt>
      <trkpt lat="43.5488" lon="3.00783">
        <ele>621.1491699</ele>
        <time>2011-12-31T09:20:49Z</time>
      </trkpt>
      <trkpt lat="43.5488" lon="3.0078">
        <ele>621.6296387</ele>
        <time>2011-12-31T09:20:51Z</time>
      </trkpt>
      <trkpt lat="43.54883" lon="3.00771">
        <ele>622.1103516</ele>
        <time>2011-12-31T09:20:55Z</time>
      </trkpt>
      <trkpt lat="43.54885" lon="3.00753">
        <ele>620.668457</ele>
        <time>2011-12-31T09:21:00Z</time>
      </trkpt>
      <trkpt lat="43.5489" lon="3.00748">
        <ele>619.2263184</ele>
        <time>2011-12-31T09:21:03Z</time>
      </trkpt>
      <trkpt lat="43.54891" lon="3.00741">
        <ele>617.3037109</ele>
        <time>2011-12-31T09:21:05Z</time>
      </trkpt>
      <trkpt lat="43.54892" lon="3.00738">
        <ele>616.3422852</ele>
        <time>2011-12-31T09:21:06Z</time>
      </trkpt>
      <trkpt lat="43.54893" lon="3.00728">
        <ele>614.9003906</ele>
        <time>2011-12-31T09:21:10Z</time>
      </trkpt>
      <trkpt lat="43.54884" lon="3.00709">
        <ele>612.9777832</ele>
        <time>2011-12-31T09:21:16Z</time>
      </trkpt>
      <trkpt lat="43.54883" lon="3.00707">
        <ele>612.9777832</ele>
        <time>2011-12-31T09:21:17Z</time>
      </trkpt>
      <trkpt lat="43.54883" lon="3.00699">
        <ele>612.4970703</ele>
        <time>2011-12-31T09:21:21Z</time>
      </trkpt>
      <trkpt lat="43.54887" lon="3.00695">
        <ele>610.09375</ele>
        <time>2011-12-31T09:21:24Z</time>
      </trkpt>
      <trkpt lat="43.54891" lon="3.00696">
        <ele>609.6132813</ele>
        <time>2011-12-31T09:21:26Z</time>
      </trkpt>
      <trkpt lat="43.54906" lon="3.00688">
        <ele>606.729248</ele>
        <time>2011-12-31T09:21:33Z</time>
      </trkpt>
      <trkpt lat="43.54908" lon="3.0068">
        <ele>605.2873535</ele>
        <time>2011-12-31T09:21:35Z</time>
      </trkpt>
      <trkpt lat="43.54911" lon="3.00674">
        <ele>602.8837891</ele>
        <time>2011-12-31T09:21:38Z</time>
      </trkpt>
      <trkpt lat="43.54918" lon="3.00679">
        <ele>601.9226074</ele>
        <time>2011-12-31T09:21:42Z</time>
      </trkpt>
      <trkpt lat="43.5492" lon="3.00681">
        <ele>601.9226074</ele>
        <time>2011-12-31T09:21:44Z</time>
      </trkpt>
      <trkpt lat="43.54931" lon="3.00681">
        <ele>598.5578613</ele>
        <time>2011-12-31T09:21:49Z</time>
      </trkpt>
      <trkpt lat="43.54942" lon="3.00679">
        <ele>595.1933594</ele>
        <time>2011-12-31T09:21:55Z</time>
      </trkpt>
      <trkpt lat="43.54943" lon="3.00677">
        <ele>592.7902832</ele>
        <time>2011-12-31T09:21:58Z</time>
      </trkpt>
      <trkpt lat="43.54957" lon="3.00673">
        <ele>591.3481445</ele>
        <time>2011-12-31T09:22:03Z</time>
      </trkpt>
      <trkpt lat="43.5496" lon="3.00674">
        <ele>589.90625</ele>
        <time>2011-12-31T09:22:05Z</time>
      </trkpt>
      <trkpt lat="43.54966" lon="3.00679">
        <ele>588.4643555</ele>
        <time>2011-12-31T09:22:09Z</time>
      </trkpt>
      <trkpt lat="43.54974" lon="3.00679">
        <ele>586.5415039</ele>
        <time>2011-12-31T09:22:12Z</time>
      </trkpt>
      <trkpt lat="43.54989" lon="3.00694">
        <ele>583.6574707</ele>
        <time>2011-12-31T09:22:16Z</time>
      </trkpt>
      <trkpt lat="43.54993" lon="3.007">
        <ele>580.2929688</ele>
        <time>2011-12-31T09:22:18Z</time>
      </trkpt>
      <trkpt lat="43.54995" lon="3.00703">
        <ele>580.2929688</ele>
        <time>2011-12-31T09:22:19Z</time>
      </trkpt>
      <trkpt lat="43.55008" lon="3.00715">
        <ele>577.4091797</ele>
        <time>2011-12-31T09:22:23Z</time>
      </trkpt>
      <trkpt lat="43.5501" lon="3.00716">
        <ele>575.967041</ele>
        <time>2011-12-31T09:22:24Z</time>
      </trkpt>
      <trkpt lat="43.55017" lon="3.00719">
        <ele>572.1218262</ele>
        <time>2011-12-31T09:22:27Z</time>
      </trkpt>
      <trkpt lat="43.55025" lon="3.00726">
        <ele>570.1989746</ele>
        <time>2011-12-31T09:22:30Z</time>
      </trkpt>
      <trkpt lat="43.55028" lon="3.00732">
        <ele>568.2763672</ele>
        <time>2011-12-31T09:22:32Z</time>
      </trkpt>
      <trkpt lat="43.5503" lon="3.00736">
        <ele>566.3537598</ele>
        <time>2011-12-31T09:22:33Z</time>
      </trkpt>
      <trkpt lat="43.55034" lon="3.00745">
        <ele>564.4311523</ele>
        <time>2011-12-31T09:22:35Z</time>
      </trkpt>
      <trkpt lat="43.55038" lon="3.00754">
        <ele>562.5085449</ele>
        <time>2011-12-31T09:22:37Z</time>
      </trkpt>
      <trkpt lat="43.55042" lon="3.00763">
        <ele>560.5859375</ele>
        <time>2011-12-31T09:22:39Z</time>
      </trkpt>
      <trkpt lat="43.55045" lon="3.00765">
        <ele>557.7021484</ele>
        <time>2011-12-31T09:22:41Z</time>
      </trkpt>
      <trkpt lat="43.55045" lon="3.00764">
        <ele>557.7021484</ele>
        <time>2011-12-31T09:22:42Z</time>
      </trkpt>
      <trkpt lat="43.55048" lon="3.00755">
        <ele>558.6633301</ele>
        <time>2011-12-31T09:22:46Z</time>
      </trkpt>
      <trkpt lat="43.55049" lon="3.00745">
        <ele>558.6633301</ele>
        <time>2011-12-31T09:22:50Z</time>
      </trkpt>
      <trkpt lat="43.55048" lon="3.00736">
        <ele>561.5473633</ele>
        <time>2011-12-31T09:22:55Z</time>
      </trkpt>
      <trkpt lat="43.55048" lon="3.00736">
        <ele>561.5473633</ele>
        <time>2011-12-31T09:22:56Z</time>
      </trkpt>
      <trkpt lat="43.55046" lon="3.00726">
        <ele>563.4699707</ele>
        <time>2011-12-31T09:23:07Z</time>
      </trkpt>
      <trkpt lat="43.55043" lon="3.0072">
        <ele>562.9892578</ele>
        <time>2011-12-31T09:23:15Z</time>
      </trkpt>
      <trkpt lat="43.55044" lon="3.00718">
        <ele>562.9892578</ele>
        <time>2011-12-31T09:23:19Z</time>
      </trkpt>
      <trkpt lat="43.55044" lon="3.00709">
        <ele>562.5085449</ele>
        <time>2011-12-31T09:23:23Z</time>
      </trkpt>
      <trkpt lat="43.55047" lon="3.00694">
        <ele>560.1052246</ele>
        <time>2011-12-31T09:23:28Z</time>
      </trkpt>
      <trkpt lat="43.5505" lon="3.00676">
        <ele>559.144043</ele>
        <time>2011-12-31T09:23:34Z</time>
      </trkpt>
      <trkpt lat="43.55053" lon="3.00651">
        <ele>556.2600098</ele>
        <time>2011-12-31T09:23:39Z</time>
      </trkpt>
      <trkpt lat="43.55054" lon="3.00629">
        <ele>554.8178711</ele>
        <time>2011-12-31T09:23:43Z</time>
      </trkpt>
      <trkpt lat="43.55057" lon="3.00616">
        <ele>555.298584</ele>
        <time>2011-12-31T09:23:47Z</time>
      </trkpt>
      <trkpt lat="43.55054" lon="3.006">
        <ele>554.8178711</ele>
        <time>2011-12-31T09:23:51Z</time>
      </trkpt>
      <trkpt lat="43.55044" lon="3.00583">
        <ele>555.7792969</ele>
        <time>2011-12-31T09:23:56Z</time>
      </trkpt>
      <trkpt lat="43.55046" lon="3.00575">
        <ele>554.3374023</ele>
        <time>2011-12-31T09:23:59Z</time>
      </trkpt>
      <trkpt lat="43.55047" lon="3.00571">
        <ele>554.3374023</ele>
        <time>2011-12-31T09:24:00Z</time>
      </trkpt>
      <trkpt lat="43.55043" lon="3.00557">
        <ele>554.3374023</ele>
        <time>2011-12-31T09:24:06Z</time>
      </trkpt>
      <trkpt lat="43.55038" lon="3.00552">
        <ele>555.7792969</ele>
        <time>2011-12-31T09:24:13Z</time>
      </trkpt>
      <trkpt lat="43.55032" lon="3.00545">
        <ele>557.2214355</ele>
        <time>2011-12-31T09:24:20Z</time>
      </trkpt>
      <trkpt lat="43.55033" lon="3.00543">
        <ele>557.2214355</ele>
        <time>2011-12-31T09:24:22Z</time>
      </trkpt>
      <trkpt lat="43.55028" lon="3.00532">
        <ele>557.2214355</ele>
        <time>2011-12-31T09:24:30Z</time>
      </trkpt>
      <trkpt lat="43.55028" lon="3.00524">
        <ele>555.7792969</ele>
        <time>2011-12-31T09:24:35Z</time>
      </trkpt>
      <trkpt lat="43.55028" lon="3.00521">
        <ele>555.7792969</ele>
        <time>2011-12-31T09:24:36Z</time>
      </trkpt>
      <trkpt lat="43.55028" lon="3.0051">
        <ele>555.298584</ele>
        <time>2011-12-31T09:24:38Z</time>
      </trkpt>
      <trkpt lat="43.55033" lon="3.00495">
        <ele>551.934082</ele>
        <time>2011-12-31T09:24:43Z</time>
      </trkpt>
      <trkpt lat="43.55032" lon="3.00485">
        <ele>552.4145508</ele>
        <time>2011-12-31T09:24:47Z</time>
      </trkpt>
      <trkpt lat="43.55031" lon="3.00479">
        <ele>551.934082</ele>
        <time>2011-12-31T09:24:49Z</time>
      </trkpt>
      <trkpt lat="43.55035" lon="3.00468">
        <ele>549.5307617</ele>
        <time>2011-12-31T09:24:55Z</time>
      </trkpt>
      <trkpt lat="43.55041" lon="3.00465">
        <ele>547.6081543</ele>
        <time>2011-12-31T09:24:57Z</time>
      </trkpt>
      <trkpt lat="43.55047" lon="3.00459">
        <ele>546.1662598</ele>
        <time>2011-12-31T09:24:59Z</time>
      </trkpt>
      <trkpt lat="43.55053" lon="3.00453">
        <ele>544.7242432</ele>
        <time>2011-12-31T09:25:01Z</time>
      </trkpt>
      <trkpt lat="43.55063" lon="3.00445">
        <ele>540.3983154</ele>
        <time>2011-12-31T09:25:03Z</time>
      </trkpt>
      <trkpt lat="43.55066" lon="3.00441">
        <ele>540.3983154</ele>
        <time>2011-12-31T09:25:04Z</time>
      </trkpt>
      <trkpt lat="43.55071" lon="3.00437">
        <ele>538.475708</ele>
        <time>2011-12-31T09:25:05Z</time>
      </trkpt>
      <trkpt lat="43.55077" lon="3.00435">
        <ele>537.5142822</ele>
        <time>2011-12-31T09:25:08Z</time>
      </trkpt>
      <trkpt lat="43.5508" lon="3.00436">
        <ele>534.1496582</ele>
        <time>2011-12-31T09:25:10Z</time>
      </trkpt>
      <trkpt lat="43.55081" lon="3.00435">
        <ele>534.1496582</ele>
        <time>2011-12-31T09:25:11Z</time>
      </trkpt>
      <trkpt lat="43.55085" lon="3.00436">
        <ele>532.2270508</ele>
        <time>2011-12-31T09:25:13Z</time>
      </trkpt>
      <trkpt lat="43.55091" lon="3.00438">
        <ele>530.3044434</ele>
        <time>2011-12-31T09:25:17Z</time>
      </trkpt>
      <trkpt lat="43.55094" lon="3.00439">
        <ele>528.8625488</ele>
        <time>2011-12-31T09:25:19Z</time>
      </trkpt>
      <trkpt lat="43.55101" lon="3.00444">
        <ele>525.4978027</ele>
        <time>2011-12-31T09:25:23Z</time>
      </trkpt>
      <trkpt lat="43.55106" lon="3.00446">
        <ele>524.0557861</ele>
        <time>2011-12-31T09:25:25Z</time>
      </trkpt>
      <trkpt lat="43.55111" lon="3.00446">
        <ele>520.2105713</ele>
        <time>2011-12-31T09:25:27Z</time>
      </trkpt>
      <trkpt lat="43.55113" lon="3.00446">
        <ele>520.2105713</ele>
        <time>2011-12-31T09:25:28Z</time>
      </trkpt>
      <trkpt lat="43.55118" lon="3.00444">
        <ele>517.807251</ele>
        <time>2011-12-31T09:25:30Z</time>
      </trkpt>
      <trkpt lat="43.55123" lon="3.00443">
        <ele>516.3652344</ele>
        <time>2011-12-31T09:25:32Z</time>
      </trkpt>
      <trkpt lat="43.55128" lon="3.00441">
        <ele>513.9620361</ele>
        <time>2011-12-31T09:25:34Z</time>
      </trkpt>
      <trkpt lat="43.55135" lon="3.00439">
        <ele>512.0394287</ele>
        <time>2011-12-31T09:25:36Z</time>
      </trkpt>
      <trkpt lat="43.55139" lon="3.00437">
        <ele>509.6361084</ele>
        <time>2011-12-31T09:25:38Z</time>
      </trkpt>
      <trkpt lat="43.55142" lon="3.00435">
        <ele>506.7520752</ele>
        <time>2011-12-31T09:25:40Z</time>
      </trkpt>
      <trkpt lat="43.55143" lon="3.00434">
        <ele>506.7520752</ele>
        <time>2011-12-31T09:25:41Z</time>
      </trkpt>
      <trkpt lat="43.55145" lon="3.00433">
        <ele>505.7908936</ele>
        <time>2011-12-31T09:25:45Z</time>
      </trkpt>
      <trkpt lat="43.5515" lon="3.00433">
        <ele>503.8681641</ele>
        <time>2011-12-31T09:25:48Z</time>
      </trkpt>
      <trkpt lat="43.55154" lon="3.00432">
        <ele>500.50354</ele>
        <time>2011-12-31T09:25:51Z</time>
      </trkpt>
      <trkpt lat="43.55158" lon="3.00429">
        <ele>499.0615234</ele>
        <time>2011-12-31T09:25:58Z</time>
      </trkpt>
      <trkpt lat="43.55159" lon="3.00429">
        <ele>499.0615234</ele>
        <time>2011-12-31T09:26:00Z</time>
      </trkpt>
      <trkpt lat="43.55161" lon="3.00434">
        <ele>497.138916</ele>
        <time>2011-12-31T09:26:03Z</time>
      </trkpt>
      <trkpt lat="43.55167" lon="3.00441">
        <ele>495.2161865</ele>
        <time>2011-12-31T09:26:06Z</time>
      </trkpt>
      <trkpt lat="43.55172" lon="3.00445">
        <ele>492.8129883</ele>
        <time>2011-12-31T09:26:08Z</time>
      </trkpt>
      <trkpt lat="43.55173" lon="3.00447">
        <ele>491.3709717</ele>
        <time>2011-12-31T09:26:09Z</time>
      </trkpt>
      <trkpt lat="43.55176" lon="3.00453">
        <ele>489.4483643</ele>
        <time>2011-12-31T09:26:11Z</time>
      </trkpt>
      <trkpt lat="43.55175" lon="3.00463">
        <ele>488.0064697</ele>
        <time>2011-12-31T09:26:15Z</time>
      </trkpt>
      <trkpt lat="43.55172" lon="3.0047">
        <ele>485.1224365</ele>
        <time>2011-12-31T09:26:18Z</time>
      </trkpt>
      <trkpt lat="43.55172" lon="3.00471">
        <ele>483.6804199</ele>
        <time>2011-12-31T09:26:19Z</time>
      </trkpt>
      <trkpt lat="43.55169" lon="3.0048">
        <ele>481.7578125</ele>
        <time>2011-12-31T09:26:22Z</time>
      </trkpt>
      <trkpt lat="43.55168" lon="3.00484">
        <ele>481.7578125</ele>
        <time>2011-12-31T09:26:24Z</time>
      </trkpt>
      <trkpt lat="43.55175" lon="3.00498">
        <ele>479.3544922</ele>
        <time>2011-12-31T09:26:29Z</time>
      </trkpt>
      <trkpt lat="43.55181" lon="3.00502">
        <ele>475.9898682</ele>
        <time>2011-12-31T09:26:31Z</time>
      </trkpt>
      <trkpt lat="43.55182" lon="3.00503">
        <ele>475.9898682</ele>
        <time>2011-12-31T09:26:32Z</time>
      </trkpt>
      <trkpt lat="43.55186" lon="3.00507">
        <ele>474.5479736</ele>
        <time>2011-12-31T09:26:34Z</time>
      </trkpt>
      <trkpt lat="43.55193" lon="3.00513">
        <ele>472.1446533</ele>
        <time>2011-12-31T09:26:36Z</time>
      </trkpt>
      <trkpt lat="43.55195" lon="3.00514">
        <ele>470.7026367</ele>
        <time>2011-12-31T09:26:37Z</time>
      </trkpt>
      <trkpt lat="43.55202" lon="3.00516">
        <ele>469.741333</ele>
        <time>2011-12-31T09:26:39Z</time>
      </trkpt>
      <trkpt lat="43.55206" lon="3.00518">
        <ele>467.8187256</ele>
        <time>2011-12-31T09:26:41Z</time>
      </trkpt>
      <trkpt lat="43.55208" lon="3.00519">
        <ele>466.376709</ele>
        <time>2011-12-31T09:26:42Z</time>
      </trkpt>
      <trkpt lat="43.55216" lon="3.00518">
        <ele>465.4155273</ele>
        <time>2011-12-31T09:26:45Z</time>
      </trkpt>
      <trkpt lat="43.5522" lon="3.00519">
        <ele>463.4927979</ele>
        <time>2011-12-31T09:26:46Z</time>
      </trkpt>
      <trkpt lat="43.55224" lon="3.00525">
        <ele>461.5701904</ele>
        <time>2011-12-31T09:26:48Z</time>
      </trkpt>
      <trkpt lat="43.55223" lon="3.00535">
        <ele>461.5701904</ele>
        <time>2011-12-31T09:26:52Z</time>
      </trkpt>
      <trkpt lat="43.55224" lon="3.00536">
        <ele>461.5701904</ele>
        <time>2011-12-31T09:27:35Z</time>
      </trkpt>
      <trkpt lat="43.5523" lon="3.00557">
        <ele>461.0894775</ele>
        <time>2011-12-31T09:27:42Z</time>
      </trkpt>
      <trkpt lat="43.55239" lon="3.00588">
        <ele>461.0894775</ele>
        <time>2011-12-31T09:27:49Z</time>
      </trkpt>
      <trkpt lat="43.5524" lon="3.00609">
        <ele>460.6087646</ele>
        <time>2011-12-31T09:27:53Z</time>
      </trkpt>
      <trkpt lat="43.55237" lon="3.00632">
        <ele>462.0507813</ele>
        <time>2011-12-31T09:27:57Z</time>
      </trkpt>
      <trkpt lat="43.55234" lon="3.00643">
        <ele>460.6087646</ele>
        <time>2011-12-31T09:27:59Z</time>
      </trkpt>
      <trkpt lat="43.55224" lon="3.00664">
        <ele>460.6087646</ele>
        <time>2011-12-31T09:28:03Z</time>
      </trkpt>
      <trkpt lat="43.5521" lon="3.0069">
        <ele>461.0894775</ele>
        <time>2011-12-31T09:28:09Z</time>
      </trkpt>
      <trkpt lat="43.55208" lon="3.00704">
        <ele>461.0894775</ele>
        <time>2011-12-31T09:28:12Z</time>
      </trkpt>
      <trkpt lat="43.55206" lon="3.00712">
        <ele>461.0894775</ele>
        <time>2011-12-31T09:28:14Z</time>
      </trkpt>
      <trkpt lat="43.55205" lon="3.00728">
        <ele>460.6087646</ele>
        <time>2011-12-31T09:28:17Z</time>
      </trkpt>
      <trkpt lat="43.55201" lon="3.00775">
        <ele>460.6087646</ele>
        <time>2011-12-31T09:28:25Z</time>
      </trkpt>
      <trkpt lat="43.5521" lon="3.00811">
        <ele>459.647583</ele>
        <time>2011-12-31T09:28:31Z</time>
      </trkpt>
      <trkpt lat="43.55216" lon="3.00842">
        <ele>459.647583</ele>
        <time>2011-12-31T09:28:36Z</time>
      </trkpt>
      <trkpt lat="43.55214" lon="3.00896">
        <ele>460.1281738</ele>
        <time>2011-12-31T09:28:45Z</time>
      </trkpt>
      <trkpt lat="43.55211" lon="3.00954">
        <ele>460.1281738</ele>
        <time>2011-12-31T09:28:56Z</time>
      </trkpt>
      <trkpt lat="43.552" lon="3.01008">
        <ele>460.1281738</ele>
        <time>2011-12-31T09:29:08Z</time>
      </trkpt>
      <trkpt lat="43.55182" lon="3.01049">
        <ele>459.647583</ele>
        <time>2011-12-31T09:29:18Z</time>
      </trkpt>
      <trkpt lat="43.55166" lon="3.01071">
        <ele>460.1281738</ele>
        <time>2011-12-31T09:29:25Z</time>
      </trkpt>
      <trkpt lat="43.55142" lon="3.01106">
        <ele>461.0894775</ele>
        <time>2011-12-31T09:29:36Z</time>
      </trkpt>
      <trkpt lat="43.5512" lon="3.0113">
        <ele>462.0507813</ele>
        <time>2011-12-31T09:29:45Z</time>
      </trkpt>
      <trkpt lat="43.55092" lon="3.01155">
        <ele>462.0507813</ele>
        <time>2011-12-31T09:29:55Z</time>
      </trkpt>
      <trkpt lat="43.55079" lon="3.01184">
        <ele>462.0507813</ele>
        <time>2011-12-31T09:30:02Z</time>
      </trkpt>
      <trkpt lat="43.55065" lon="3.01204">
        <ele>462.0507813</ele>
        <time>2011-12-31T09:30:09Z</time>
      </trkpt>
      <trkpt lat="43.55051" lon="3.01229">
        <ele>463.012085</ele>
        <time>2011-12-31T09:30:17Z</time>
      </trkpt>
      <trkpt lat="43.55036" lon="3.01254">
        <ele>463.4927979</ele>
        <time>2011-12-31T09:30:25Z</time>
      </trkpt>
      <trkpt lat="43.55024" lon="3.01283">
        <ele>463.4927979</ele>
        <time>2011-12-31T09:30:33Z</time>
      </trkpt>
      <trkpt lat="43.55014" lon="3.01318">
        <ele>464.4541016</ele>
        <time>2011-12-31T09:30:43Z</time>
      </trkpt>
      <trkpt lat="43.55003" lon="3.01345">
        <ele>465.4155273</ele>
        <time>2011-12-31T09:30:53Z</time>
      </trkpt>
      <trkpt lat="43.54997" lon="3.01356">
        <ele>465.8961182</ele>
        <time>2011-12-31T09:30:57Z</time>
      </trkpt>
      <trkpt lat="43.54993" lon="3.01383">
        <ele>467.3381348</ele>
        <time>2011-12-31T09:31:05Z</time>
      </trkpt>
      <trkpt lat="43.54988" lon="3.01415">
        <ele>468.7800293</ele>
        <time>2011-12-31T09:31:14Z</time>
      </trkpt>
      <trkpt lat="43.54983" lon="3.01438">
        <ele>469.741333</ele>
        <time>2011-12-31T09:31:21Z</time>
      </trkpt>
      <trkpt lat="43.54983" lon="3.0144">
        <ele>470.2219238</ele>
        <time>2011-12-31T09:31:22Z</time>
      </trkpt>
      <trkpt lat="43.5498" lon="3.01438">
        <ele>470.7026367</ele>
        <time>2011-12-31T09:31:27Z</time>
      </trkpt>
      <trkpt lat="43.5498" lon="3.01435">
        <ele>471.1833496</ele>
        <time>2011-12-31T09:31:28Z</time>
      </trkpt>
      <trkpt lat="43.54985" lon="3.01385">
        <ele>472.1446533</ele>
        <time>2011-12-31T09:31:42Z</time>
      </trkpt>
      <trkpt lat="43.54988" lon="3.01361">
        <ele>471.6639404</ele>
        <time>2011-12-31T09:31:48Z</time>
      </trkpt>
      <trkpt lat="43.54991" lon="3.01325">
        <ele>471.1833496</ele>
        <time>2011-12-31T09:31:57Z</time>
      </trkpt>
      <trkpt lat="43.54999" lon="3.01265">
        <ele>473.1060791</ele>
        <time>2011-12-31T09:32:12Z</time>
      </trkpt>
      <trkpt lat="43.55" lon="3.01259">
        <ele>474.0672607</ele>
        <time>2011-12-31T09:32:14Z</time>
      </trkpt>
      <trkpt lat="43.55005" lon="3.01233">
        <ele>476.4705811</ele>
        <time>2011-12-31T09:32:23Z</time>
      </trkpt>
      <trkpt lat="43.5501" lon="3.01206">
        <ele>478.3931885</ele>
        <time>2011-12-31T09:32:34Z</time>
      </trkpt>
      <trkpt lat="43.5501" lon="3.01199">
        <ele>479.835083</ele>
        <time>2011-12-31T09:32:37Z</time>
      </trkpt>
      <trkpt lat="43.5502" lon="3.01179">
        <ele>482.2385254</ele>
        <time>2011-12-31T09:32:49Z</time>
      </trkpt>
      <trkpt lat="43.55024" lon="3.01168">
        <ele>483.6804199</ele>
        <time>2011-12-31T09:32:56Z</time>
      </trkpt>
      <trkpt lat="43.55016" lon="3.01164">
        <ele>486.0837402</ele>
        <time>2011-12-31T09:33:05Z</time>
      </trkpt>
      <trkpt lat="43.55015" lon="3.01165">
        <ele>486.0837402</ele>
        <time>2011-12-31T09:33:06Z</time>
      </trkpt>
      <trkpt lat="43.5501" lon="3.0117">
        <ele>487.5256348</ele>
        <time>2011-12-31T09:33:17Z</time>
      </trkpt>
      <trkpt lat="43.5501" lon="3.0117">
        <ele>488.0064697</ele>
        <time>2011-12-31T09:33:32Z</time>
      </trkpt>
      <trkpt lat="43.55005" lon="3.01175">
        <ele>488.9677734</ele>
        <time>2011-12-31T09:33:36Z</time>
      </trkpt>
      <trkpt lat="43.54989" lon="3.01186">
        <ele>491.8516846</ele>
        <time>2011-12-31T09:33:48Z</time>
      </trkpt>
      <trkpt lat="43.54973" lon="3.01192">
        <ele>494.7355957</ele>
        <time>2011-12-31T09:34:00Z</time>
      </trkpt>
      <trkpt lat="43.54959" lon="3.01199">
        <ele>498.1003418</ele>
        <time>2011-12-31T09:34:11Z</time>
      </trkpt>
      <trkpt lat="43.54946" lon="3.01205">
        <ele>500.9841309</ele>
        <time>2011-12-31T09:34:22Z</time>
      </trkpt>
      <trkpt lat="43.54933" lon="3.01209">
        <ele>502.9067383</ele>
        <time>2011-12-31T09:34:33Z</time>
      </trkpt>
      <trkpt lat="43.54924" lon="3.01211">
        <ele>504.8294678</ele>
        <time>2011-12-31T09:34:41Z</time>
      </trkpt>
      <trkpt lat="43.54913" lon="3.01217">
        <ele>506.7520752</ele>
        <time>2011-12-31T09:34:53Z</time>
      </trkpt>
      <trkpt lat="43.54901" lon="3.01221">
        <ele>509.1553955</ele>
        <time>2011-12-31T09:35:03Z</time>
      </trkpt>
      <trkpt lat="43.54895" lon="3.01223">
        <ele>510.1166992</ele>
        <time>2011-12-31T09:35:07Z</time>
      </trkpt>
      <trkpt lat="43.54882" lon="3.01223">
        <ele>512.5200195</ele>
        <time>2011-12-31T09:35:19Z</time>
      </trkpt>
      <trkpt lat="43.54872" lon="3.01225">
        <ele>514.9233398</ele>
        <time>2011-12-31T09:35:28Z</time>
      </trkpt>
      <trkpt lat="43.54861" lon="3.01223">
        <ele>516.3652344</ele>
        <time>2011-12-31T09:35:37Z</time>
      </trkpt>
      <trkpt lat="43.54852" lon="3.01221">
        <ele>516.8459473</ele>
        <time>2011-12-31T09:35:44Z</time>
      </trkpt>
      <trkpt lat="43.5484" lon="3.01218">
        <ele>519.2492676</ele>
        <time>2011-12-31T09:35:54Z</time>
      </trkpt>
      <trkpt lat="43.54828" lon="3.01211">
        <ele>519.7298584</ele>
        <time>2011-12-31T09:36:06Z</time>
      </trkpt>
      <trkpt lat="43.54816" lon="3.01205">
        <ele>521.1719971</ele>
        <time>2011-12-31T09:36:17Z</time>
      </trkpt>
      <trkpt lat="43.54807" lon="3.01194">
        <ele>522.1331787</ele>
        <time>2011-12-31T09:36:27Z</time>
      </trkpt>
      <trkpt lat="43.54814" lon="3.01179">
        <ele>524.0557861</ele>
        <time>2011-12-31T09:36:37Z</time>
      </trkpt>
      <trkpt lat="43.54817" lon="3.01175">
        <ele>524.536499</ele>
        <time>2011-12-31T09:36:41Z</time>
      </trkpt>
      <trkpt lat="43.54835" lon="3.01159">
        <ele>527.901001</ele>
        <time>2011-12-31T09:36:57Z</time>
      </trkpt>
      <trkpt lat="43.54835" lon="3.01158">
        <ele>527.901001</ele>
        <time>2011-12-31T09:36:58Z</time>
      </trkpt>
      <trkpt lat="43.54844" lon="3.0115">
        <ele>529.3431396</ele>
        <time>2011-12-31T09:37:07Z</time>
      </trkpt>
      <trkpt lat="43.54853" lon="3.01141">
        <ele>531.2657471</ele>
        <time>2011-12-31T09:37:11Z</time>
      </trkpt>
      <trkpt lat="43.54865" lon="3.01129">
        <ele>533.6689453</ele>
        <time>2011-12-31T09:37:18Z</time>
      </trkpt>
      <trkpt lat="43.5487" lon="3.01124">
        <ele>535.1109619</ele>
        <time>2011-12-31T09:37:21Z</time>
      </trkpt>
      <trkpt lat="43.54879" lon="3.01109">
        <ele>537.0336914</ele>
        <time>2011-12-31T09:37:27Z</time>
      </trkpt>
      <trkpt lat="43.54882" lon="3.01102">
        <ele>538.9562988</ele>
        <time>2011-12-31T09:37:30Z</time>
      </trkpt>
      <trkpt lat="43.54886" lon="3.01092">
        <ele>541.3594971</ele>
        <time>2011-12-31T09:37:36Z</time>
      </trkpt>
      <trkpt lat="43.54893" lon="3.0108">
        <ele>543.7628174</ele>
        <time>2011-12-31T09:37:44Z</time>
      </trkpt>
      <trkpt lat="43.54904" lon="3.01067">
        <ele>546.1662598</ele>
        <time>2011-12-31T09:37:57Z</time>
      </trkpt>
      <trkpt lat="43.54905" lon="3.01066">
        <ele>545.6855469</ele>
        <time>2011-12-31T09:37:58Z</time>
      </trkpt>
      <trkpt lat="43.54905" lon="3.01056">
        <ele>547.1274414</ele>
        <time>2011-12-31T09:38:04Z</time>
      </trkpt>
      <trkpt lat="43.54896" lon="3.01054">
        <ele>548.0888672</ele>
        <time>2011-12-31T09:38:11Z</time>
      </trkpt>
      <trkpt lat="43.54876" lon="3.01063">
        <ele>550.0114746</ele>
        <time>2011-12-31T09:38:24Z</time>
      </trkpt>
      <trkpt lat="43.54861" lon="3.01066">
        <ele>551.4533691</ele>
        <time>2011-12-31T09:38:33Z</time>
      </trkpt>
      <trkpt lat="43.5484" lon="3.01066">
        <ele>551.4533691</ele>
        <time>2011-12-31T09:38:45Z</time>
      </trkpt>
      <trkpt lat="43.54826" lon="3.01058">
        <ele>553.3759766</ele>
        <time>2011-12-31T09:38:53Z</time>
      </trkpt>
      <trkpt lat="43.54811" lon="3.01048">
        <ele>555.298584</ele>
        <time>2011-12-31T09:39:03Z</time>
      </trkpt>
      <trkpt lat="43.54795" lon="3.01038">
        <ele>558.6633301</ele>
        <time>2011-12-31T09:39:14Z</time>
      </trkpt>
      <trkpt lat="43.54783" lon="3.0103">
        <ele>559.144043</ele>
        <time>2011-12-31T09:39:22Z</time>
      </trkpt>
      <trkpt lat="43.54768" lon="3.0102">
        <ele>560.5859375</ele>
        <time>2011-12-31T09:39:32Z</time>
      </trkpt>
      <trkpt lat="43.54757" lon="3.01009">
        <ele>561.5473633</ele>
        <time>2011-12-31T09:39:39Z</time>
      </trkpt>
      <trkpt lat="43.54746" lon="3.00999">
        <ele>562.5085449</ele>
        <time>2011-12-31T09:39:46Z</time>
      </trkpt>
      <trkpt lat="43.54731" lon="3.00993">
        <ele>563.4699707</ele>
        <time>2011-12-31T09:39:55Z</time>
      </trkpt>
      <trkpt lat="43.54713" lon="3.00998">
        <ele>564.9118652</ele>
        <time>2011-12-31T09:40:04Z</time>
      </trkpt>
      <trkpt lat="43.54701" lon="3.01009">
        <ele>565.873291</ele>
        <time>2011-12-31T09:40:11Z</time>
      </trkpt>
      <trkpt lat="43.54691" lon="3.01032">
        <ele>566.3537598</ele>
        <time>2011-12-31T09:40:21Z</time>
      </trkpt>
      <trkpt lat="43.54679" lon="3.01067">
        <ele>567.7956543</ele>
        <time>2011-12-31T09:40:34Z</time>
      </trkpt>
      <trkpt lat="43.54665" lon="3.01085">
        <ele>569.237793</ele>
        <time>2011-12-31T09:40:41Z</time>
      </trkpt>
      <trkpt lat="43.54647" lon="3.01116">
        <ele>572.1218262</ele>
        <time>2011-12-31T09:40:50Z</time>
      </trkpt>
      <trkpt lat="43.5463" lon="3.01155">
        <ele>573.5639648</ele>
        <time>2011-12-31T09:41:01Z</time>
      </trkpt>
      <trkpt lat="43.54623" lon="3.01167">
        <ele>574.5251465</ele>
        <time>2011-12-31T09:41:08Z</time>
      </trkpt>
      <trkpt lat="43.54622" lon="3.01169">
        <ele>576.9284668</ele>
        <time>2011-12-31T09:41:12Z</time>
      </trkpt>
      <trkpt lat="43.54622" lon="3.01169">
        <ele>575.967041</ele>
        <time>2011-12-31T09:42:57Z</time>
      </trkpt>
      <trkpt lat="43.54621" lon="3.01169">
        <ele>575.967041</ele>
        <time>2011-12-31T09:44:19Z</time>
      </trkpt>
      <trkpt lat="43.54621" lon="3.0117">
        <ele>575.967041</ele>
        <time>2011-12-31T09:46:23Z</time>
      </trkpt>
      <trkpt lat="43.54621" lon="3.0117">
        <ele>575.967041</ele>
        <time>2011-12-31T09:46:30Z</time>
      </trkpt>
      <trkpt lat="43.54622" lon="3.0117">
        <ele>576.4477539</ele>
        <time>2011-12-31T09:46:39Z</time>
      </trkpt>
      <trkpt lat="43.54621" lon="3.0117">
        <ele>575.0058594</ele>
        <time>2011-12-31T09:46:53Z</time>
      </trkpt>
      <trkpt lat="43.54621" lon="3.01164">
        <ele>575.967041</ele>
        <time>2011-12-31T09:46:58Z</time>
      </trkpt>
      <trkpt lat="43.54622" lon="3.0116">
        <ele>576.9284668</ele>
        <time>2011-12-31T09:47:06Z</time>
      </trkpt>
      <trkpt lat="43.54622" lon="3.01159">
        <ele>577.4091797</ele>
        <time>2011-12-31T09:47:08Z</time>
      </trkpt>
      <trkpt lat="43.54624" lon="3.01154">
        <ele>576.9284668</ele>
        <time>2011-12-31T09:47:11Z</time>
      </trkpt>
      <trkpt lat="43.54626" lon="3.01142">
        <ele>577.4091797</ele>
        <time>2011-12-31T09:47:15Z</time>
      </trkpt>
      <trkpt lat="43.54628" lon="3.01107">
        <ele>579.331543</ele>
        <time>2011-12-31T09:47:27Z</time>
      </trkpt>
      <trkpt lat="43.54625" lon="3.01093">
        <ele>580.2929688</ele>
        <time>2011-12-31T09:47:32Z</time>
      </trkpt>
      <trkpt lat="43.54624" lon="3.0109">
        <ele>581.2543945</ele>
        <time>2011-12-31T09:47:38Z</time>
      </trkpt>
      <trkpt lat="43.54623" lon="3.01084">
        <ele>581.7348633</ele>
        <time>2011-12-31T09:47:44Z</time>
      </trkpt>
      <trkpt lat="43.54624" lon="3.01078">
        <ele>583.1767578</ele>
        <time>2011-12-31T09:47:54Z</time>
      </trkpt>
      <trkpt lat="43.54626" lon="3.01069">
        <ele>585.5800781</ele>
        <time>2011-12-31T09:48:03Z</time>
      </trkpt>
      <trkpt lat="43.54625" lon="3.01058">
        <ele>588.4643555</ele>
        <time>2011-12-31T09:48:12Z</time>
      </trkpt>
      <trkpt lat="43.54626" lon="3.01052">
        <ele>589.90625</ele>
        <time>2011-12-31T09:48:21Z</time>
      </trkpt>
      <trkpt lat="43.54628" lon="3.01043">
        <ele>590.8674316</ele>
        <time>2011-12-31T09:48:30Z</time>
      </trkpt>
      <trkpt lat="43.54628" lon="3.01036">
        <ele>592.3095703</ele>
        <time>2011-12-31T09:48:37Z</time>
      </trkpt>
      <trkpt lat="43.54626" lon="3.01027">
        <ele>593.270752</ele>
        <time>2011-12-31T09:48:46Z</time>
      </trkpt>
      <trkpt lat="43.54624" lon="3.0102">
        <ele>594.7126465</ele>
        <time>2011-12-31T09:48:54Z</time>
      </trkpt>
      <trkpt lat="43.54622" lon="3.01012">
        <ele>595.6740723</ele>
        <time>2011-12-31T09:49:03Z</time>
      </trkpt>
      <trkpt lat="43.54621" lon="3.01008">
        <ele>597.1159668</ele>
        <time>2011-12-31T09:49:11Z</time>
      </trkpt>
      <trkpt lat="43.5462" lon="3.01005">
        <ele>598.0773926</ele>
        <time>2011-12-31T09:49:18Z</time>
      </trkpt>
      <trkpt lat="43.54622" lon="3.00995">
        <ele>598.0773926</ele>
        <time>2011-12-31T09:49:27Z</time>
      </trkpt>
      <trkpt lat="43.54622" lon="3.0099">
        <ele>600</ele>
        <time>2011-12-31T09:49:33Z</time>
      </trkpt>
      <trkpt lat="43.54621" lon="3.00982">
        <ele>600.9611816</ele>
        <time>2011-12-31T09:49:42Z</time>
      </trkpt>
      <trkpt lat="43.5462" lon="3.00981">
        <ele>601.9226074</ele>
        <time>2011-12-31T09:49:44Z</time>
      </trkpt>
      <trkpt lat="43.54621" lon="3.00975">
        <ele>602.4030762</ele>
        <time>2011-12-31T09:49:50Z</time>
      </trkpt>
      <trkpt lat="43.54621" lon="3.0097">
        <ele>604.3261719</ele>
        <time>2011-12-31T09:49:57Z</time>
      </trkpt>
      <trkpt lat="43.54622" lon="3.00964">
        <ele>606.2485352</ele>
        <time>2011-12-31T09:50:06Z</time>
      </trkpt>
      <trkpt lat="43.54622" lon="3.00957">
        <ele>607.2099609</ele>
        <time>2011-12-31T09:50:17Z</time>
      </trkpt>
      <trkpt lat="43.54623" lon="3.00954">
        <ele>607.6906738</ele>
        <time>2011-12-31T09:50:23Z</time>
      </trkpt>
      <trkpt lat="43.54623" lon="3.00953">
        <ele>607.2099609</ele>
        <time>2011-12-31T09:50:25Z</time>
      </trkpt>
      <trkpt lat="43.54623" lon="3.00946">
        <ele>609.1325684</ele>
        <time>2011-12-31T09:50:32Z</time>
      </trkpt>
      <trkpt lat="43.54621" lon="3.00937">
        <ele>611.0551758</ele>
        <time>2011-12-31T09:50:44Z</time>
      </trkpt>
      <trkpt lat="43.5462" lon="3.00931">
        <ele>612.9777832</ele>
        <time>2011-12-31T09:50:52Z</time>
      </trkpt>
      <trkpt lat="43.54622" lon="3.00921">
        <ele>613.9389648</ele>
        <time>2011-12-31T09:51:02Z</time>
      </trkpt>
      <trkpt lat="43.54622" lon="3.0092">
        <ele>614.4196777</ele>
        <time>2011-12-31T09:51:03Z</time>
      </trkpt>
      <trkpt lat="43.54625" lon="3.00911">
        <ele>614.9003906</ele>
        <time>2011-12-31T09:51:11Z</time>
      </trkpt>
      <trkpt lat="43.54626" lon="3.009">
        <ele>616.822998</ele>
        <time>2011-12-31T09:51:21Z</time>
      </trkpt>
      <trkpt lat="43.54628" lon="3.00896">
        <ele>617.7841797</ele>
        <time>2011-12-31T09:51:32Z</time>
      </trkpt>
      <trkpt lat="43.54629" lon="3.00896">
        <ele>617.3037109</ele>
        <time>2011-12-31T09:51:35Z</time>
      </trkpt>
      <trkpt lat="43.54631" lon="3.00893">
        <ele>617.3037109</ele>
        <time>2011-12-31T09:51:40Z</time>
      </trkpt>
      <trkpt lat="43.54635" lon="3.00889">
        <ele>617.3037109</ele>
        <time>2011-12-31T09:51:47Z</time>
      </trkpt>
      <trkpt lat="43.54637" lon="3.00884">
        <ele>618.2648926</ele>
        <time>2011-12-31T09:51:55Z</time>
      </trkpt>
      <trkpt lat="43.54641" lon="3.00881">
        <ele>619.2263184</ele>
        <time>2011-12-31T09:52:02Z</time>
      </trkpt>
      <trkpt lat="43.54641" lon="3.00876">
        <ele>619.7070313</ele>
        <time>2011-12-31T09:52:10Z</time>
      </trkpt>
      <trkpt lat="43.54645" lon="3.00867">
        <ele>621.6296387</ele>
        <time>2011-12-31T09:52:21Z</time>
      </trkpt>
      <trkpt lat="43.54647" lon="3.00863">
        <ele>622.1103516</ele>
        <time>2011-12-31T09:52:28Z</time>
      </trkpt>
      <trkpt lat="43.54649" lon="3.00855">
        <ele>623.0717773</ele>
        <time>2011-12-31T09:52:35Z</time>
      </trkpt>
      <trkpt lat="43.54651" lon="3.00843">
        <ele>624.9943848</ele>
        <time>2011-12-31T09:52:44Z</time>
      </trkpt>
      <trkpt lat="43.54651" lon="3.00836">
        <ele>625.9555664</ele>
        <time>2011-12-31T09:52:52Z</time>
      </trkpt>
      <trkpt lat="43.54655" lon="3.0083">
        <ele>625.9555664</ele>
        <time>2011-12-31T09:52:59Z</time>
      </trkpt>
      <trkpt lat="43.54652" lon="3.00821">
        <ele>627.3977051</ele>
        <time>2011-12-31T09:53:07Z</time>
      </trkpt>
      <trkpt lat="43.54649" lon="3.0081">
        <ele>629.3200684</ele>
        <time>2011-12-31T09:53:17Z</time>
      </trkpt>
      <trkpt lat="43.54648" lon="3.00796">
        <ele>630.762207</ele>
        <time>2011-12-31T09:53:28Z</time>
      </trkpt>
      <trkpt lat="43.54649" lon="3.00793">
        <ele>631.2429199</ele>
        <time>2011-12-31T09:53:38Z</time>
      </trkpt>
      <trkpt lat="43.54649" lon="3.00793">
        <ele>631.7233887</ele>
        <time>2011-12-31T09:57:27Z</time>
      </trkpt>
      <trkpt lat="43.54649" lon="3.00793">
        <ele>630.762207</ele>
        <time>2011-12-31T09:58:12Z</time>
      </trkpt>
      <trkpt lat="43.54648" lon="3.00787">
        <ele>629.8007813</ele>
        <time>2011-12-31T09:59:04Z</time>
      </trkpt>
      <trkpt lat="43.54644" lon="3.00778">
        <ele>629.8007813</ele>
        <time>2011-12-31T09:59:09Z</time>
      </trkpt>
      <trkpt lat="43.54642" lon="3.00772">
        <ele>629.8007813</ele>
        <time>2011-12-31T09:59:13Z</time>
      </trkpt>
      <trkpt lat="43.54639" lon="3.00758">
        <ele>627.3977051</ele>
        <time>2011-12-31T09:59:17Z</time>
      </trkpt>
      <trkpt lat="43.54637" lon="3.00751">
        <ele>625.9555664</ele>
        <time>2011-12-31T09:59:19Z</time>
      </trkpt>
      <trkpt lat="43.54635" lon="3.00745">
        <ele>624.5136719</ele>
        <time>2011-12-31T09:59:21Z</time>
      </trkpt>
      <trkpt lat="43.54635" lon="3.00732">
        <ele>622.5910645</ele>
        <time>2011-12-31T09:59:25Z</time>
      </trkpt>
      <trkpt lat="43.5463" lon="3.00729">
        <ele>619.2263184</ele>
        <time>2011-12-31T09:59:27Z</time>
      </trkpt>
      <trkpt lat="43.54628" lon="3.00728">
        <ele>619.2263184</ele>
        <time>2011-12-31T09:59:28Z</time>
      </trkpt>
      <trkpt lat="43.54624" lon="3.00723">
        <ele>620.1877441</ele>
        <time>2011-12-31T09:59:30Z</time>
      </trkpt>
      <trkpt lat="43.54611" lon="3.00695">
        <ele>615.3811035</ele>
        <time>2011-12-31T09:59:37Z</time>
      </trkpt>
      <trkpt lat="43.5461" lon="3.00692">
        <ele>615.3811035</ele>
        <time>2011-12-31T09:59:38Z</time>
      </trkpt>
      <trkpt lat="43.54603" lon="3.00676">
        <ele>612.4970703</ele>
        <time>2011-12-31T09:59:42Z</time>
      </trkpt>
      <trkpt lat="43.54602" lon="3.00673">
        <ele>612.4970703</ele>
        <time>2011-12-31T09:59:43Z</time>
      </trkpt>
      <trkpt lat="43.54597" lon="3.00657">
        <ele>609.6132813</ele>
        <time>2011-12-31T09:59:47Z</time>
      </trkpt>
      <trkpt lat="43.54589" lon="3.00634">
        <ele>606.2485352</ele>
        <time>2011-12-31T09:59:53Z</time>
      </trkpt>
      <trkpt lat="43.54588" lon="3.00627">
        <ele>606.2485352</ele>
        <time>2011-12-31T09:59:54Z</time>
      </trkpt>
      <trkpt lat="43.54587" lon="3.00617">
        <ele>604.8066406</ele>
        <time>2011-12-31T09:59:56Z</time>
      </trkpt>
      <trkpt lat="43.54574" lon="3.00595">
        <ele>604.3261719</ele>
        <time>2011-12-31T10:00:02Z</time>
      </trkpt>
      <trkpt lat="43.54573" lon="3.00588">
        <ele>602.8837891</ele>
        <time>2011-12-31T10:00:04Z</time>
      </trkpt>
      <trkpt lat="43.54572" lon="3.00582">
        <ele>601.4418945</ele>
        <time>2011-12-31T10:00:06Z</time>
      </trkpt>
      <trkpt lat="43.54566" lon="3.00564">
        <ele>602.4030762</ele>
        <time>2011-12-31T10:00:11Z</time>
      </trkpt>
      <trkpt lat="43.5456" lon="3.00543">
        <ele>600.9611816</ele>
        <time>2011-12-31T10:00:17Z</time>
      </trkpt>
      <trkpt lat="43.54557" lon="3.00535">
        <ele>601.4418945</ele>
        <time>2011-12-31T10:00:23Z</time>
      </trkpt>
      <trkpt lat="43.54556" lon="3.00526">
        <ele>601.4418945</ele>
        <time>2011-12-31T10:00:29Z</time>
      </trkpt>
      <trkpt lat="43.54553" lon="3.00519">
        <ele>600.9611816</ele>
        <time>2011-12-31T10:00:31Z</time>
      </trkpt>
      <trkpt lat="43.54552" lon="3.00513">
        <ele>600.4807129</ele>
        <time>2011-12-31T10:00:33Z</time>
      </trkpt>
      <trkpt lat="43.54548" lon="3.00497">
        <ele>599.0385742</ele>
        <time>2011-12-31T10:00:38Z</time>
      </trkpt>
      <trkpt lat="43.54547" lon="3.00487">
        <ele>597.1159668</ele>
        <time>2011-12-31T10:00:41Z</time>
      </trkpt>
      <trkpt lat="43.54544" lon="3.00463">
        <ele>594.2321777</ele>
        <time>2011-12-31T10:00:47Z</time>
      </trkpt>
      <trkpt lat="43.54544" lon="3.00435">
        <ele>592.7902832</ele>
        <time>2011-12-31T10:00:52Z</time>
      </trkpt>
      <trkpt lat="43.54543" lon="3.00421">
        <ele>590.8674316</ele>
        <time>2011-12-31T10:00:55Z</time>
      </trkpt>
      <trkpt lat="43.54544" lon="3.00406">
        <ele>589.90625</ele>
        <time>2011-12-31T10:00:59Z</time>
      </trkpt>
      <trkpt lat="43.54539" lon="3.00394">
        <ele>590.3869629</ele>
        <time>2011-12-31T10:01:06Z</time>
      </trkpt>
      <trkpt lat="43.54535" lon="3.00387">
        <ele>589.4255371</ele>
        <time>2011-12-31T10:01:10Z</time>
      </trkpt>
      <trkpt lat="43.54537" lon="3.00378">
        <ele>589.4255371</ele>
        <time>2011-12-31T10:01:14Z</time>
      </trkpt>
      <trkpt lat="43.54532" lon="3.0036">
        <ele>587.5026855</ele>
        <time>2011-12-31T10:01:18Z</time>
      </trkpt>
      <trkpt lat="43.54525" lon="3.00357">
        <ele>587.5026855</ele>
        <time>2011-12-31T10:01:21Z</time>
      </trkpt>
      <trkpt lat="43.5452" lon="3.00349">
        <ele>585.5800781</ele>
        <time>2011-12-31T10:01:24Z</time>
      </trkpt>
      <trkpt lat="43.54517" lon="3.00345">
        <ele>583.6574707</ele>
        <time>2011-12-31T10:01:26Z</time>
      </trkpt>
      <trkpt lat="43.54514" lon="3.00344">
        <ele>582.2155762</ele>
        <time>2011-12-31T10:01:28Z</time>
      </trkpt>
      <trkpt lat="43.54508" lon="3.00338">
        <ele>581.7348633</ele>
        <time>2011-12-31T10:01:31Z</time>
      </trkpt>
      <trkpt lat="43.54506" lon="3.00334">
        <ele>580.2929688</ele>
        <time>2011-12-31T10:01:33Z</time>
      </trkpt>
      <trkpt lat="43.54497" lon="3.00318">
        <ele>578.3703613</ele>
        <time>2011-12-31T10:01:39Z</time>
      </trkpt>
      <trkpt lat="43.54494" lon="3.00315">
        <ele>578.3703613</ele>
        <time>2011-12-31T10:01:40Z</time>
      </trkpt>
      <trkpt lat="43.5448" lon="3.0029">
        <ele>576.4477539</ele>
        <time>2011-12-31T10:01:46Z</time>
      </trkpt>
      <trkpt lat="43.54476" lon="3.00282">
        <ele>575.4863281</ele>
        <time>2011-12-31T10:01:50Z</time>
      </trkpt>
      <trkpt lat="43.54471" lon="3.00276">
        <ele>574.5251465</ele>
        <time>2011-12-31T10:01:52Z</time>
      </trkpt>
      <trkpt lat="43.54468" lon="3.00273">
        <ele>573.083252</ele>
        <time>2011-12-31T10:01:53Z</time>
      </trkpt>
      <trkpt lat="43.54459" lon="3.00254">
        <ele>569.7185059</ele>
        <time>2011-12-31T10:01:58Z</time>
      </trkpt>
      <trkpt lat="43.54458" lon="3.00251">
        <ele>569.7185059</ele>
        <time>2011-12-31T10:01:59Z</time>
      </trkpt>
      <trkpt lat="43.54457" lon="3.00244">
        <ele>567.3151855</ele>
        <time>2011-12-31T10:02:07Z</time>
      </trkpt>
      <trkpt lat="43.54454" lon="3.0024">
        <ele>566.3537598</ele>
        <time>2011-12-31T10:02:12Z</time>
      </trkpt>
      <trkpt lat="43.54449" lon="3.00233">
        <ele>564.9118652</ele>
        <time>2011-12-31T10:02:15Z</time>
      </trkpt>
      <trkpt lat="43.54449" lon="3.00231">
        <ele>564.9118652</ele>
        <time>2011-12-31T10:02:16Z</time>
      </trkpt>
      <trkpt lat="43.54445" lon="3.00227">
        <ele>564.9118652</ele>
        <time>2011-12-31T10:02:18Z</time>
      </trkpt>
      <trkpt lat="43.54442" lon="3.00222">
        <ele>564.9118652</ele>
        <time>2011-12-31T10:02:24Z</time>
      </trkpt>
      <trkpt lat="43.54437" lon="3.00217">
        <ele>564.4311523</ele>
        <time>2011-12-31T10:02:26Z</time>
      </trkpt>
      <trkpt lat="43.5443" lon="3.00207">
        <ele>562.5085449</ele>
        <time>2011-12-31T10:02:29Z</time>
      </trkpt>
      <trkpt lat="43.54417" lon="3.00181">
        <ele>559.144043</ele>
        <time>2011-12-31T10:02:34Z</time>
      </trkpt>
      <trkpt lat="43.54414" lon="3.00174">
        <ele>556.7407227</ele>
        <time>2011-12-31T10:02:36Z</time>
      </trkpt>
      <trkpt lat="43.5441" lon="3.00166">
        <ele>555.298584</ele>
        <time>2011-12-31T10:02:40Z</time>
      </trkpt>
      <trkpt lat="43.54407" lon="3.00158">
        <ele>552.4145508</ele>
        <time>2011-12-31T10:02:43Z</time>
      </trkpt>
      <trkpt lat="43.54407" lon="3.00153">
        <ele>551.4533691</ele>
        <time>2011-12-31T10:02:45Z</time>
      </trkpt>
      <trkpt lat="43.54397" lon="3.00137">
        <ele>548.5693359</ele>
        <time>2011-12-31T10:02:50Z</time>
      </trkpt>
      <trkpt lat="43.5439" lon="3.00121">
        <ele>548.5693359</ele>
        <time>2011-12-31T10:02:54Z</time>
      </trkpt>
      <trkpt lat="43.54386" lon="3.00113">
        <ele>546.6468506</ele>
        <time>2011-12-31T10:02:56Z</time>
      </trkpt>
      <trkpt lat="43.54365" lon="3.00086">
        <ele>549.0500488</ele>
        <time>2011-12-31T10:03:05Z</time>
      </trkpt>
      <trkpt lat="43.54359" lon="3.00079">
        <ele>550.4921875</ele>
        <time>2011-12-31T10:03:09Z</time>
      </trkpt>
      <trkpt lat="43.54359" lon="3.00078">
        <ele>550.4921875</ele>
        <time>2011-12-31T10:03:17Z</time>
      </trkpt>
      <trkpt lat="43.54349" lon="3.00064">
        <ele>550.4921875</ele>
        <time>2011-12-31T10:03:23Z</time>
      </trkpt>
      <trkpt lat="43.54332" lon="3.00048">
        <ele>550.9726563</ele>
        <time>2011-12-31T10:03:31Z</time>
      </trkpt>
      <trkpt lat="43.54323" lon="3.00041">
        <ele>550.9726563</ele>
        <time>2011-12-31T10:03:34Z</time>
      </trkpt>
      <trkpt lat="43.54319" lon="3.0004">
        <ele>551.4533691</ele>
        <time>2011-12-31T10:03:36Z</time>
      </trkpt>
      <trkpt lat="43.54312" lon="3.00034">
        <ele>550.4921875</ele>
        <time>2011-12-31T10:03:40Z</time>
      </trkpt>
      <trkpt lat="43.54297" lon="3.00028">
        <ele>549.0500488</ele>
        <time>2011-12-31T10:03:46Z</time>
      </trkpt>
      <trkpt lat="43.54292" lon="3.00024">
        <ele>548.5693359</ele>
        <time>2011-12-31T10:03:50Z</time>
      </trkpt>
      <trkpt lat="43.54288" lon="3.00023">
        <ele>548.0888672</ele>
        <time>2011-12-31T10:03:52Z</time>
      </trkpt>
      <trkpt lat="43.54284" lon="3.00024">
        <ele>547.1274414</ele>
        <time>2011-12-31T10:03:54Z</time>
      </trkpt>
      <trkpt lat="43.54274" lon="3.0002">
        <ele>545.6855469</ele>
        <time>2011-12-31T10:03:58Z</time>
      </trkpt>
      <trkpt lat="43.54263" lon="3.00014">
        <ele>544.2436523</ele>
        <time>2011-12-31T10:04:02Z</time>
      </trkpt>
      <trkpt lat="43.54248" lon="3.00003">
        <ele>541.84021</ele>
        <time>2011-12-31T10:04:07Z</time>
      </trkpt>
      <trkpt lat="43.54239" lon="2.99998">
        <ele>540.8789063</ele>
        <time>2011-12-31T10:04:10Z</time>
      </trkpt>
      <trkpt lat="43.54235" lon="2.99994">
        <ele>539.4368896</ele>
        <time>2011-12-31T10:04:12Z</time>
      </trkpt>
      <trkpt lat="43.5423" lon="2.99988">
        <ele>537.0336914</ele>
        <time>2011-12-31T10:04:14Z</time>
      </trkpt>
      <trkpt lat="43.54215" lon="2.9998">
        <ele>534.6303711</ele>
        <time>2011-12-31T10:04:19Z</time>
      </trkpt>
      <trkpt lat="43.54212" lon="2.9998">
        <ele>533.1883545</ele>
        <time>2011-12-31T10:04:20Z</time>
      </trkpt>
      <trkpt lat="43.54202" lon="2.99965">
        <ele>530.3044434</ele>
        <time>2011-12-31T10:04:24Z</time>
      </trkpt>
      <trkpt lat="43.54197" lon="2.99956">
        <ele>530.3044434</ele>
        <time>2011-12-31T10:04:26Z</time>
      </trkpt>
      <trkpt lat="43.54184" lon="2.9994">
        <ele>529.8237305</ele>
        <time>2011-12-31T10:04:31Z</time>
      </trkpt>
      <trkpt lat="43.54181" lon="2.99937">
        <ele>528.8625488</ele>
        <time>2011-12-31T10:04:32Z</time>
      </trkpt>
      <trkpt lat="43.5416" lon="2.99932">
        <ele>527.901001</ele>
        <time>2011-12-31T10:04:38Z</time>
      </trkpt>
      <trkpt lat="43.54143" lon="2.99934">
        <ele>529.8237305</ele>
        <time>2011-12-31T10:04:44Z</time>
      </trkpt>
      <trkpt lat="43.54141" lon="2.99935">
        <ele>529.8237305</ele>
        <time>2011-12-31T10:04:45Z</time>
      </trkpt>
      <trkpt lat="43.54121" lon="2.9994">
        <ele>529.3431396</ele>
        <time>2011-12-31T10:04:53Z</time>
      </trkpt>
      <trkpt lat="43.54119" lon="2.99935">
        <ele>527.901001</ele>
        <time>2011-12-31T10:05:01Z</time>
      </trkpt>
      <trkpt lat="43.54114" lon="2.99931">
        <ele>525.9783936</ele>
        <time>2011-12-31T10:05:11Z</time>
      </trkpt>
      <trkpt lat="43.54109" lon="2.99926">
        <ele>524.536499</ele>
        <time>2011-12-31T10:05:21Z</time>
      </trkpt>
      <trkpt lat="43.54104" lon="2.99924">
        <ele>522.6138916</ele>
        <time>2011-12-31T10:05:28Z</time>
      </trkpt>
      <trkpt lat="43.54099" lon="2.99926">
        <ele>519.2492676</ele>
        <time>2011-12-31T10:05:35Z</time>
      </trkpt>
      <trkpt lat="43.54099" lon="2.99925">
        <ele>519.2492676</ele>
        <time>2011-12-31T10:05:36Z</time>
      </trkpt>
      <trkpt lat="43.54097" lon="2.99919">
        <ele>518.7685547</ele>
        <time>2011-12-31T10:05:44Z</time>
      </trkpt>
      <trkpt lat="43.54095" lon="2.99917">
        <ele>517.3266602</ele>
        <time>2011-12-31T10:05:49Z</time>
      </trkpt>
      <trkpt lat="43.54093" lon="2.99914">
        <ele>515.8846436</ele>
        <time>2011-12-31T10:05:53Z</time>
      </trkpt>
      <trkpt lat="43.54091" lon="2.99912">
        <ele>514.442627</ele>
        <time>2011-12-31T10:05:59Z</time>
      </trkpt>
      <trkpt lat="43.54088" lon="2.99908">
        <ele>513.4814453</ele>
        <time>2011-12-31T10:06:03Z</time>
      </trkpt>
      <trkpt lat="43.54071" lon="2.99896">
        <ele>510.1166992</ele>
        <time>2011-12-31T10:06:10Z</time>
      </trkpt>
      <trkpt lat="43.54062" lon="2.99892">
        <ele>508.1940918</ele>
        <time>2011-12-31T10:06:14Z</time>
      </trkpt>
      <trkpt lat="43.54056" lon="2.99889">
        <ele>507.2327881</ele>
        <time>2011-12-31T10:06:20Z</time>
      </trkpt>
      <trkpt lat="43.54054" lon="2.99888">
        <ele>506.7520752</ele>
        <time>2011-12-31T10:06:28Z</time>
      </trkpt>
      <trkpt lat="43.5405" lon="2.99878">
        <ele>504.8294678</ele>
        <time>2011-12-31T10:06:38Z</time>
      </trkpt>
      <trkpt lat="43.5405" lon="2.99871">
        <ele>503.3874512</ele>
        <time>2011-12-31T10:06:48Z</time>
      </trkpt>
      <trkpt lat="43.54048" lon="2.99866">
        <ele>502.4261475</ele>
        <time>2011-12-31T10:06:54Z</time>
      </trkpt>
      <trkpt lat="43.54046" lon="2.99862">
        <ele>500.50354</ele>
        <time>2011-12-31T10:07:02Z</time>
      </trkpt>
      <trkpt lat="43.54044" lon="2.99866">
        <ele>499.0615234</ele>
        <time>2011-12-31T10:07:11Z</time>
      </trkpt>
      <trkpt lat="43.54043" lon="2.99862">
        <ele>497.6196289</ele>
        <time>2011-12-31T10:07:15Z</time>
      </trkpt>
      <trkpt lat="43.54043" lon="2.99861">
        <ele>498.1003418</ele>
        <time>2011-12-31T10:07:22Z</time>
      </trkpt>
      <trkpt lat="43.54039" lon="2.99846">
        <ele>494.2550049</ele>
        <time>2011-12-31T10:07:28Z</time>
      </trkpt>
      <trkpt lat="43.54038" lon="2.99842">
        <ele>494.2550049</ele>
        <time>2011-12-31T10:07:29Z</time>
      </trkpt>
      <trkpt lat="43.54038" lon="2.99824">
        <ele>491.8516846</ele>
        <time>2011-12-31T10:07:33Z</time>
      </trkpt>
      <trkpt lat="43.5404" lon="2.99811">
        <ele>489.9290771</ele>
        <time>2011-12-31T10:07:36Z</time>
      </trkpt>
      <trkpt lat="43.54043" lon="2.99788">
        <ele>488.0064697</ele>
        <time>2011-12-31T10:07:42Z</time>
      </trkpt>
      <trkpt lat="43.54041" lon="2.99778">
        <ele>486.0837402</ele>
        <time>2011-12-31T10:07:46Z</time>
      </trkpt>
      <trkpt lat="43.54039" lon="2.99773">
        <ele>484.6418457</ele>
        <time>2011-12-31T10:07:48Z</time>
      </trkpt>
      <trkpt lat="43.54038" lon="2.99763">
        <ele>482.2385254</ele>
        <time>2011-12-31T10:07:52Z</time>
      </trkpt>
      <trkpt lat="43.54033" lon="2.99761">
        <ele>481.2772217</ele>
        <time>2011-12-31T10:07:55Z</time>
      </trkpt>
      <trkpt lat="43.54028" lon="2.99763">
        <ele>478.8739014</ele>
        <time>2011-12-31T10:08:02Z</time>
      </trkpt>
      <trkpt lat="43.54022" lon="2.99753">
        <ele>475.9898682</ele>
        <time>2011-12-31T10:08:10Z</time>
      </trkpt>
      <trkpt lat="43.54018" lon="2.99748">
        <ele>475.0286865</ele>
        <time>2011-12-31T10:08:13Z</time>
      </trkpt>
      <trkpt lat="43.54017" lon="2.99746">
        <ele>473.5866699</ele>
        <time>2011-12-31T10:08:14Z</time>
      </trkpt>
      <trkpt lat="43.54015" lon="2.99745">
        <ele>473.1060791</ele>
        <time>2011-12-31T10:08:16Z</time>
      </trkpt>
      <trkpt lat="43.54012" lon="2.99745">
        <ele>472.1446533</ele>
        <time>2011-12-31T10:08:18Z</time>
      </trkpt>
      <trkpt lat="43.54007" lon="2.99742">
        <ele>469.741333</ele>
        <time>2011-12-31T10:08:23Z</time>
      </trkpt>
      <trkpt lat="43.54001" lon="2.99738">
        <ele>468.2993164</ele>
        <time>2011-12-31T10:08:27Z</time>
      </trkpt>
      <trkpt lat="43.53997" lon="2.99744">
        <ele>466.8574219</ele>
        <time>2011-12-31T10:08:32Z</time>
      </trkpt>
      <trkpt lat="43.53994" lon="2.99751">
        <ele>464.9348145</ele>
        <time>2011-12-31T10:08:39Z</time>
      </trkpt>
      <trkpt lat="43.53993" lon="2.99755">
        <ele>463.9733887</ele>
        <time>2011-12-31T10:08:47Z</time>
      </trkpt>
      <trkpt lat="43.5399" lon="2.9976">
        <ele>462.0507813</ele>
        <time>2011-12-31T10:08:57Z</time>
      </trkpt>
      <trkpt lat="43.53985" lon="2.99763">
        <ele>459.647583</ele>
        <time>2011-12-31T10:09:07Z</time>
      </trkpt>
      <trkpt lat="43.53985" lon="2.99764">
        <ele>459.647583</ele>
        <time>2011-12-31T10:09:08Z</time>
      </trkpt>
      <trkpt lat="43.53987" lon="2.99774">
        <ele>457.7249756</ele>
        <time>2011-12-31T10:09:20Z</time>
      </trkpt>
      <trkpt lat="43.53988" lon="2.99777">
        <ele>457.2442627</ele>
        <time>2011-12-31T10:09:23Z</time>
      </trkpt>
      <trkpt lat="43.53986" lon="2.99788">
        <ele>454.8408203</ele>
        <time>2011-12-31T10:09:33Z</time>
      </trkpt>
      <trkpt lat="43.53984" lon="2.99791">
        <ele>453.3989258</ele>
        <time>2011-12-31T10:09:39Z</time>
      </trkpt>
      <trkpt lat="43.53977" lon="2.99806">
        <ele>450.9956055</ele>
        <time>2011-12-31T10:09:46Z</time>
      </trkpt>
      <trkpt lat="43.53975" lon="2.99812">
        <ele>449.072998</ele>
        <time>2011-12-31T10:09:48Z</time>
      </trkpt>
      <trkpt lat="43.53975" lon="2.99819">
        <ele>448.5924072</ele>
        <time>2011-12-31T10:09:50Z</time>
      </trkpt>
      <trkpt lat="43.5397" lon="2.99841">
        <ele>446.6696777</ele>
        <time>2011-12-31T10:09:55Z</time>
      </trkpt>
      <trkpt lat="43.53969" lon="2.99848">
        <ele>446.1890869</ele>
        <time>2011-12-31T10:09:57Z</time>
      </trkpt>
      <trkpt lat="43.5396" lon="2.99873">
        <ele>444.2664795</ele>
        <time>2011-12-31T10:10:03Z</time>
      </trkpt>
      <trkpt lat="43.53954" lon="2.99887">
        <ele>443.7857666</ele>
        <time>2011-12-31T10:10:07Z</time>
      </trkpt>
      <trkpt lat="43.53949" lon="2.99897">
        <ele>441.8631592</ele>
        <time>2011-12-31T10:10:09Z</time>
      </trkpt>
      <trkpt lat="43.53941" lon="2.99912">
        <ele>438.979126</ele>
        <time>2011-12-31T10:10:12Z</time>
      </trkpt>
      <trkpt lat="43.53938" lon="2.99921">
        <ele>438.4985352</ele>
        <time>2011-12-31T10:10:15Z</time>
      </trkpt>
      <trkpt lat="43.53938" lon="2.99921">
        <ele>438.4985352</ele>
        <time>2011-12-31T10:10:16Z</time>
      </trkpt>
      <trkpt lat="43.53931" lon="2.99938">
        <ele>436.0952148</ele>
        <time>2011-12-31T10:10:24Z</time>
      </trkpt>
      <trkpt lat="43.53927" lon="2.99944">
        <ele>434.6533203</ele>
        <time>2011-12-31T10:10:27Z</time>
      </trkpt>
      <trkpt lat="43.53926" lon="2.99954">
        <ele>433.6918945</ele>
        <time>2011-12-31T10:10:30Z</time>
      </trkpt>
      <trkpt lat="43.53927" lon="2.99962">
        <ele>434.6533203</ele>
        <time>2011-12-31T10:10:33Z</time>
      </trkpt>
      <trkpt lat="43.53929" lon="2.99965">
        <ele>433.6918945</ele>
        <time>2011-12-31T10:10:36Z</time>
      </trkpt>
      <trkpt lat="43.53928" lon="2.99976">
        <ele>431.769165</ele>
        <time>2011-12-31T10:10:40Z</time>
      </trkpt>
      <trkpt lat="43.53932" lon="2.99983">
        <ele>430.3272705</ele>
        <time>2011-12-31T10:10:42Z</time>
      </trkpt>
      <trkpt lat="43.53947" lon="3.00002">
        <ele>427.9239502</ele>
        <time>2011-12-31T10:10:47Z</time>
      </trkpt>
      <trkpt lat="43.53955" lon="3.00009">
        <ele>426.0013428</ele>
        <time>2011-12-31T10:10:49Z</time>
      </trkpt>
      <trkpt lat="43.53962" lon="3.00016">
        <ele>424.5594482</ele>
        <time>2011-12-31T10:10:51Z</time>
      </trkpt>
      <trkpt lat="43.53972" lon="3.00023">
        <ele>423.5980225</ele>
        <time>2011-12-31T10:10:55Z</time>
      </trkpt>
      <trkpt lat="43.53974" lon="3.00024">
        <ele>423.5980225</ele>
        <time>2011-12-31T10:10:56Z</time>
      </trkpt>
      <trkpt lat="43.53991" lon="3.00037">
        <ele>419.2722168</ele>
        <time>2011-12-31T10:11:02Z</time>
      </trkpt>
      <trkpt lat="43.53998" lon="3.00042">
        <ele>419.7528076</ele>
        <time>2011-12-31T10:11:04Z</time>
      </trkpt>
      <trkpt lat="43.54003" lon="3.00051">
        <ele>420.2333984</ele>
        <time>2011-12-31T10:11:07Z</time>
      </trkpt>
      <trkpt lat="43.54007" lon="3.00056">
        <ele>418.310791</ele>
        <time>2011-12-31T10:11:09Z</time>
      </trkpt>
      <trkpt lat="43.54018" lon="3.00063">
        <ele>415.4268799</ele>
        <time>2011-12-31T10:11:15Z</time>
      </trkpt>
      <trkpt lat="43.54021" lon="3.00073">
        <ele>412.5428467</ele>
        <time>2011-12-31T10:11:19Z</time>
      </trkpt>
      <trkpt lat="43.54024" lon="3.00078">
        <ele>410.6202393</ele>
        <time>2011-12-31T10:11:21Z</time>
      </trkpt>
      <trkpt lat="43.54032" lon="3.00087">
        <ele>408.217041</ele>
        <time>2011-12-31T10:11:24Z</time>
      </trkpt>
      <trkpt lat="43.54034" lon="3.00091">
        <ele>406.2943115</ele>
        <time>2011-12-31T10:11:25Z</time>
      </trkpt>
      <trkpt lat="43.54036" lon="3.00097">
        <ele>404.8522949</ele>
        <time>2011-12-31T10:11:27Z</time>
      </trkpt>
      <trkpt lat="43.54044" lon="3.00104">
        <ele>402.9296875</ele>
        <time>2011-12-31T10:11:31Z</time>
      </trkpt>
      <trkpt lat="43.54049" lon="3.00108">
        <ele>401.0070801</ele>
        <time>2011-12-31T10:11:33Z</time>
      </trkpt>
      <trkpt lat="43.54057" lon="3.00119">
        <ele>398.6037598</ele>
        <time>2011-12-31T10:11:37Z</time>
      </trkpt>
      <trkpt lat="43.5406" lon="3.00129">
        <ele>396.6811523</ele>
        <time>2011-12-31T10:11:40Z</time>
      </trkpt>
      <trkpt lat="43.54061" lon="3.00138">
        <ele>394.2779541</ele>
        <time>2011-12-31T10:11:43Z</time>
      </trkpt>
      <trkpt lat="43.54059" lon="3.00149">
        <ele>390.4326172</ele>
        <time>2011-12-31T10:11:46Z</time>
      </trkpt>
      <trkpt lat="43.54057" lon="3.00153">
        <ele>390.4326172</ele>
        <time>2011-12-31T10:11:47Z</time>
      </trkpt>
      <trkpt lat="43.54056" lon="3.0016">
        <ele>389.4711914</ele>
        <time>2011-12-31T10:11:49Z</time>
      </trkpt>
      <trkpt lat="43.54049" lon="3.00174">
        <ele>387.0679932</ele>
        <time>2011-12-31T10:11:53Z</time>
      </trkpt>
      <trkpt lat="43.54047" lon="3.00178">
        <ele>385.6259766</ele>
        <time>2011-12-31T10:11:55Z</time>
      </trkpt>
      <trkpt lat="43.54044" lon="3.00184">
        <ele>385.1453857</ele>
        <time>2011-12-31T10:11:57Z</time>
      </trkpt>
      <trkpt lat="43.54036" lon="3.00202">
        <ele>383.2226563</ele>
        <time>2011-12-31T10:12:03Z</time>
      </trkpt>
      <trkpt lat="43.54033" lon="3.00212">
        <ele>382.2613525</ele>
        <time>2011-12-31T10:12:08Z</time>
      </trkpt>
      <trkpt lat="43.54029" lon="3.00222">
        <ele>380.3387451</ele>
        <time>2011-12-31T10:12:11Z</time>
      </trkpt>
      <trkpt lat="43.54027" lon="3.00225">
        <ele>379.3774414</ele>
        <time>2011-12-31T10:12:16Z</time>
      </trkpt>
      <trkpt lat="43.54026" lon="3.00224">
        <ele>378.8968506</ele>
        <time>2011-12-31T10:12:25Z</time>
      </trkpt>
      <trkpt lat="43.54025" lon="3.00211">
        <ele>376.4935303</ele>
        <time>2011-12-31T10:12:31Z</time>
      </trkpt>
      <trkpt lat="43.54023" lon="3.00205">
        <ele>373.6094971</ele>
        <time>2011-12-31T10:12:39Z</time>
      </trkpt>
      <trkpt lat="43.54023" lon="3.00207">
        <ele>373.6094971</ele>
        <time>2011-12-31T10:12:46Z</time>
      </trkpt>
      <trkpt lat="43.54021" lon="3.0021">
        <ele>372.1674805</ele>
        <time>2011-12-31T10:12:49Z</time>
      </trkpt>
      <trkpt lat="43.54012" lon="3.00229">
        <ele>369.2836914</ele>
        <time>2011-12-31T10:12:57Z</time>
      </trkpt>
      <trkpt lat="43.54011" lon="3.00232">
        <ele>367.8415527</ele>
        <time>2011-12-31T10:12:58Z</time>
      </trkpt>
      <trkpt lat="43.54009" lon="3.00238">
        <ele>366.3995361</ele>
        <time>2011-12-31T10:13:00Z</time>
      </trkpt>
      <trkpt lat="43.54" lon="3.00255">
        <ele>364.4769287</ele>
        <time>2011-12-31T10:13:06Z</time>
      </trkpt>
      <trkpt lat="43.53995" lon="3.00261">
        <ele>363.0350342</ele>
        <time>2011-12-31T10:13:09Z</time>
      </trkpt>
      <trkpt lat="43.53991" lon="3.00265">
        <ele>361.5931396</ele>
        <time>2011-12-31T10:13:11Z</time>
      </trkpt>
      <trkpt lat="43.5398" lon="3.00277">
        <ele>357.7478027</ele>
        <time>2011-12-31T10:13:16Z</time>
      </trkpt>
      <trkpt lat="43.53976" lon="3.0028">
        <ele>356.3057861</ele>
        <time>2011-12-31T10:13:20Z</time>
      </trkpt>
      <trkpt lat="43.53973" lon="3.00282">
        <ele>354.3831787</ele>
        <time>2011-12-31T10:13:23Z</time>
      </trkpt>
      <trkpt lat="43.5397" lon="3.00288">
        <ele>352.4605713</ele>
        <time>2011-12-31T10:13:28Z</time>
      </trkpt>
      <trkpt lat="43.53967" lon="3.00288">
        <ele>352.4605713</ele>
        <time>2011-12-31T10:13:36Z</time>
      </trkpt>
      <trkpt lat="43.53966" lon="3.00292">
        <ele>351.9798584</ele>
        <time>2011-12-31T10:13:52Z</time>
      </trkpt>
      <trkpt lat="43.53963" lon="3.00295">
        <ele>350.5378418</ele>
        <time>2011-12-31T10:14:00Z</time>
      </trkpt>
      <trkpt lat="43.53962" lon="3.00296">
        <ele>350.057251</ele>
        <time>2011-12-31T10:14:02Z</time>
      </trkpt>
      <trkpt lat="43.53961" lon="3.00298">
        <ele>350.057251</ele>
        <time>2011-12-31T10:14:11Z</time>
      </trkpt>
      <trkpt lat="43.53955" lon="3.00305">
        <ele>349.0958252</ele>
        <time>2011-12-31T10:14:16Z</time>
      </trkpt>
      <trkpt lat="43.53949" lon="3.0031">
        <ele>347.6539307</ele>
        <time>2011-12-31T10:14:18Z</time>
      </trkpt>
      <trkpt lat="43.5394" lon="3.00316">
        <ele>345.2506104</ele>
        <time>2011-12-31T10:14:21Z</time>
      </trkpt>
      <trkpt lat="43.53936" lon="3.00323">
        <ele>344.7700195</ele>
        <time>2011-12-31T10:14:24Z</time>
      </trkpt>
      <trkpt lat="43.53926" lon="3.00327">
        <ele>342.3666992</ele>
        <time>2011-12-31T10:14:28Z</time>
      </trkpt>
      <trkpt lat="43.53921" lon="3.00328">
        <ele>340.9246826</ele>
        <time>2011-12-31T10:14:30Z</time>
      </trkpt>
      <trkpt lat="43.53915" lon="3.0033">
        <ele>339.482666</ele>
        <time>2011-12-31T10:14:32Z</time>
      </trkpt>
      <trkpt lat="43.53907" lon="3.00335">
        <ele>337.0794678</ele>
        <time>2011-12-31T10:14:35Z</time>
      </trkpt>
      <trkpt lat="43.53902" lon="3.00339">
        <ele>335.6373291</ele>
        <time>2011-12-31T10:14:37Z</time>
      </trkpt>
      <trkpt lat="43.53896" lon="3.00343">
        <ele>334.1954346</ele>
        <time>2011-12-31T10:14:39Z</time>
      </trkpt>
      <trkpt lat="43.53889" lon="3.00347">
        <ele>332.75354</ele>
        <time>2011-12-31T10:14:41Z</time>
      </trkpt>
      <trkpt lat="43.53882" lon="3.00351">
        <ele>331.3115234</ele>
        <time>2011-12-31T10:14:43Z</time>
      </trkpt>
      <trkpt lat="43.53874" lon="3.00354">
        <ele>329.8695068</ele>
        <time>2011-12-31T10:14:46Z</time>
      </trkpt>
      <trkpt lat="43.5387" lon="3.00355">
        <ele>329.8695068</ele>
        <time>2011-12-31T10:14:51Z</time>
      </trkpt>
      <trkpt lat="43.5387" lon="3.00357">
        <ele>329.388916</ele>
        <time>2011-12-31T10:14:58Z</time>
      </trkpt>
      <trkpt lat="43.53867" lon="3.00359">
        <ele>327.9467773</ele>
        <time>2011-12-31T10:15:12Z</time>
      </trkpt>
      <trkpt lat="43.53861" lon="3.00362">
        <ele>326.0241699</ele>
        <time>2011-12-31T10:15:16Z</time>
      </trkpt>
      <trkpt lat="43.5385" lon="3.00372">
        <ele>323.1403809</ele>
        <time>2011-12-31T10:15:20Z</time>
      </trkpt>
      <trkpt lat="43.53848" lon="3.00373">
        <ele>322.1789551</ele>
        <time>2011-12-31T10:15:21Z</time>
      </trkpt>
      <trkpt lat="43.53842" lon="3.00375">
        <ele>321.2177734</ele>
        <time>2011-12-31T10:15:23Z</time>
      </trkpt>
      <trkpt lat="43.53835" lon="3.00377">
        <ele>319.7756348</ele>
        <time>2011-12-31T10:15:25Z</time>
      </trkpt>
      <trkpt lat="43.53821" lon="3.00379">
        <ele>316.4110107</ele>
        <time>2011-12-31T10:15:29Z</time>
      </trkpt>
      <trkpt lat="43.53818" lon="3.00379">
        <ele>316.4110107</ele>
        <time>2011-12-31T10:15:30Z</time>
      </trkpt>
      <trkpt lat="43.53797" lon="3.00385">
        <ele>314.4884033</ele>
        <time>2011-12-31T10:15:36Z</time>
      </trkpt>
      <trkpt lat="43.53786" lon="3.00389">
        <ele>312.5657959</ele>
        <time>2011-12-31T10:15:39Z</time>
      </trkpt>
      <trkpt lat="43.53769" lon="3.00395">
        <ele>309.6818848</ele>
        <time>2011-12-31T10:15:45Z</time>
      </trkpt>
      <trkpt lat="43.53767" lon="3.00396">
        <ele>309.6818848</ele>
        <time>2011-12-31T10:15:46Z</time>
      </trkpt>
      <trkpt lat="43.53755" lon="3.00403">
        <ele>307.2785645</ele>
        <time>2011-12-31T10:15:51Z</time>
      </trkpt>
      <trkpt lat="43.53747" lon="3.00406">
        <ele>306.3172607</ele>
        <time>2011-12-31T10:15:53Z</time>
      </trkpt>
      <trkpt lat="43.53725" lon="3.00426">
        <ele>304.8752441</ele>
        <time>2011-12-31T10:15:59Z</time>
      </trkpt>
      <trkpt lat="43.53692" lon="3.0042">
        <ele>302.4719238</ele>
        <time>2011-12-31T10:16:07Z</time>
      </trkpt>
      <trkpt lat="43.53673" lon="3.00418">
        <ele>298.626709</ele>
        <time>2011-12-31T10:16:13Z</time>
      </trkpt>
      <trkpt lat="43.53671" lon="3.00417">
        <ele>298.626709</ele>
        <time>2011-12-31T10:16:14Z</time>
      </trkpt>
      <trkpt lat="43.53668" lon="3.00418">
        <ele>298.1461182</ele>
        <time>2011-12-31T10:16:19Z</time>
      </trkpt>
      <trkpt lat="43.53668" lon="3.00418">
        <ele>297.6654053</ele>
        <time>2011-12-31T10:16:27Z</time>
      </trkpt>
      <trkpt lat="43.53664" lon="3.00419">
        <ele>297.1846924</ele>
        <time>2011-12-31T10:16:36Z</time>
      </trkpt>
      <trkpt lat="43.53663" lon="3.00419">
        <ele>297.1846924</ele>
        <time>2011-12-31T10:16:37Z</time>
      </trkpt>
      <trkpt lat="43.53657" lon="3.00415">
        <ele>295.2619629</ele>
        <time>2011-12-31T10:16:44Z</time>
      </trkpt>
      <trkpt lat="43.53655" lon="3.00414">
        <ele>294.7813721</ele>
        <time>2011-12-31T10:16:52Z</time>
      </trkpt>
      <trkpt lat="43.53649" lon="3.00414">
        <ele>293.3393555</ele>
        <time>2011-12-31T10:17:00Z</time>
      </trkpt>
      <trkpt lat="43.53643" lon="3.00413">
        <ele>291.416748</ele>
        <time>2011-12-31T10:17:08Z</time>
      </trkpt>
      <trkpt lat="43.53641" lon="3.00414">
        <ele>289.9748535</ele>
        <time>2011-12-31T10:17:15Z</time>
      </trkpt>
      <trkpt lat="43.5364" lon="3.00414">
        <ele>289.4941406</ele>
        <time>2011-12-31T10:17:18Z</time>
      </trkpt>
      <trkpt lat="43.53622" lon="3.00411">
        <ele>286.6102295</ele>
        <time>2011-12-31T10:17:26Z</time>
      </trkpt>
      <trkpt lat="43.53611" lon="3.00412">
        <ele>284.2069092</ele>
        <time>2011-12-31T10:17:32Z</time>
      </trkpt>
      <trkpt lat="43.53607" lon="3.00411">
        <ele>282.7650146</ele>
        <time>2011-12-31T10:17:34Z</time>
      </trkpt>
      <trkpt lat="43.53603" lon="3.00409">
        <ele>280.8424072</ele>
        <time>2011-12-31T10:17:39Z</time>
      </trkpt>
      <trkpt lat="43.53601" lon="3.00417">
        <ele>279.4002686</ele>
        <time>2011-12-31T10:17:45Z</time>
      </trkpt>
      <trkpt lat="43.53598" lon="3.00416">
        <ele>278.9196777</ele>
        <time>2011-12-31T10:17:47Z</time>
      </trkpt>
      <trkpt lat="43.53595" lon="3.00419">
        <ele>277.958252</ele>
        <time>2011-12-31T10:17:53Z</time>
      </trkpt>
      <trkpt lat="43.53594" lon="3.00421">
        <ele>276.9970703</ele>
        <time>2011-12-31T10:17:56Z</time>
      </trkpt>
      <trkpt lat="43.53588" lon="3.00424">
        <ele>276.0356445</ele>
        <time>2011-12-31T10:17:59Z</time>
      </trkpt>
      <trkpt lat="43.53582" lon="3.00419">
        <ele>274.1130371</ele>
        <time>2011-12-31T10:18:03Z</time>
      </trkpt>
      <trkpt lat="43.53578" lon="3.00408">
        <ele>272.1904297</ele>
        <time>2011-12-31T10:18:07Z</time>
      </trkpt>
      <trkpt lat="43.53576" lon="3.00407">
        <ele>271.229126</ele>
        <time>2011-12-31T10:18:08Z</time>
      </trkpt>
      <trkpt lat="43.53573" lon="3.00407">
        <ele>270.7484131</ele>
        <time>2011-12-31T10:18:10Z</time>
      </trkpt>
      <trkpt lat="43.53568" lon="3.00408">
        <ele>269.3065186</ele>
        <time>2011-12-31T10:18:12Z</time>
      </trkpt>
      <trkpt lat="43.53563" lon="3.00409">
        <ele>267.3839111</ele>
        <time>2011-12-31T10:18:14Z</time>
      </trkpt>
      <trkpt lat="43.53558" lon="3.00412">
        <ele>265.9418945</ele>
        <time>2011-12-31T10:18:16Z</time>
      </trkpt>
      <trkpt lat="43.53556" lon="3.00411">
        <ele>264.9805908</ele>
        <time>2011-12-31T10:18:22Z</time>
      </trkpt>
      <trkpt lat="43.53555" lon="3.00412">
        <ele>264.4998779</ele>
        <time>2011-12-31T10:18:29Z</time>
      </trkpt>
      <trkpt lat="43.53551" lon="3.00411">
        <ele>263.0578613</ele>
        <time>2011-12-31T10:18:37Z</time>
      </trkpt>
      <trkpt lat="43.53549" lon="3.00411">
        <ele>263.0578613</ele>
        <time>2011-12-31T10:18:46Z</time>
      </trkpt>
      <trkpt lat="43.53549" lon="3.00412">
        <ele>262.0965576</ele>
        <time>2011-12-31T10:18:52Z</time>
      </trkpt>
      <trkpt lat="43.53549" lon="3.00411">
        <ele>262.5771484</ele>
        <time>2011-12-31T10:20:40Z</time>
      </trkpt>
      <trkpt lat="43.53551" lon="3.00409">
        <ele>262.5771484</ele>
        <time>2011-12-31T10:20:50Z</time>
      </trkpt>
      <trkpt lat="43.53548" lon="3.00409">
        <ele>263.0578613</ele>
        <time>2011-12-31T10:20:56Z</time>
      </trkpt>
      <trkpt lat="43.53541" lon="3.00409">
        <ele>259.6933594</ele>
        <time>2011-12-31T10:20:59Z</time>
      </trkpt>
      <trkpt lat="43.53539" lon="3.0041">
        <ele>259.6933594</ele>
        <time>2011-12-31T10:21:00Z</time>
      </trkpt>
      <trkpt lat="43.53533" lon="3.00415">
        <ele>258.7319336</ele>
        <time>2011-12-31T10:21:02Z</time>
      </trkpt>
      <trkpt lat="43.53532" lon="3.00423">
        <ele>256.8093262</ele>
        <time>2011-12-31T10:21:04Z</time>
      </trkpt>
      <trkpt lat="43.53536" lon="3.00433">
        <ele>254.8865967</ele>
        <time>2011-12-31T10:21:08Z</time>
      </trkpt>
      <trkpt lat="43.53531" lon="3.00431">
        <ele>253.925415</ele>
        <time>2011-12-31T10:21:13Z</time>
      </trkpt>
      <trkpt lat="43.53531" lon="3.00431">
        <ele>254.4060059</ele>
        <time>2011-12-31T10:21:14Z</time>
      </trkpt>
      <trkpt lat="43.53527" lon="3.00429">
        <ele>252.9639893</ele>
        <time>2011-12-31T10:21:19Z</time>
      </trkpt>
      <trkpt lat="43.53528" lon="3.00429">
        <ele>253.4447021</ele>
        <time>2011-12-31T10:21:31Z</time>
      </trkpt>
      <trkpt lat="43.53528" lon="3.00429">
        <ele>253.4447021</ele>
        <time>2011-12-31T10:21:34Z</time>
      </trkpt>
      <trkpt lat="43.53525" lon="3.00434">
        <ele>252.0028076</ele>
        <time>2011-12-31T10:21:37Z</time>
      </trkpt>
      <trkpt lat="43.53513" lon="3.00432">
        <ele>250.560791</ele>
        <time>2011-12-31T10:21:42Z</time>
      </trkpt>
      <trkpt lat="43.535" lon="3.00428">
        <ele>248.1575928</ele>
        <time>2011-12-31T10:21:46Z</time>
      </trkpt>
      <trkpt lat="43.53493" lon="3.00426">
        <ele>248.1575928</ele>
        <time>2011-12-31T10:21:48Z</time>
      </trkpt>
      <trkpt lat="43.53484" lon="3.00426">
        <ele>246.2348633</ele>
        <time>2011-12-31T10:21:50Z</time>
      </trkpt>
      <trkpt lat="43.53479" lon="3.00424">
        <ele>243.831543</ele>
        <time>2011-12-31T10:21:51Z</time>
      </trkpt>
      <trkpt lat="43.53462" lon="3.00421">
        <ele>241.9089355</ele>
        <time>2011-12-31T10:21:55Z</time>
      </trkpt>
      <trkpt lat="43.53457" lon="3.00421">
        <ele>240.467041</ele>
        <time>2011-12-31T10:21:56Z</time>
      </trkpt>
      <trkpt lat="43.53441" lon="3.00415">
        <ele>234.6990967</ele>
        <time>2011-12-31T10:21:59Z</time>
      </trkpt>
      <trkpt lat="43.53423" lon="3.00414">
        <ele>232.7764893</ele>
        <time>2011-12-31T10:22:02Z</time>
      </trkpt>
      <trkpt lat="43.53411" lon="3.00416">
        <ele>231.3343506</ele>
        <time>2011-12-31T10:22:04Z</time>
      </trkpt>
      <trkpt lat="43.534" lon="3.00418">
        <ele>229.4117432</ele>
        <time>2011-12-31T10:22:08Z</time>
      </trkpt>
      <trkpt lat="43.53399" lon="3.00433">
        <ele>228.4504395</ele>
        <time>2011-12-31T10:22:11Z</time>
      </trkpt>
      <trkpt lat="43.53401" lon="3.00444">
        <ele>226.0471191</ele>
        <time>2011-12-31T10:22:13Z</time>
      </trkpt>
      <trkpt lat="43.5339" lon="3.00446">
        <ele>224.1245117</ele>
        <time>2011-12-31T10:22:17Z</time>
      </trkpt>
      <trkpt lat="43.53375" lon="3.00434">
        <ele>222.2017822</ele>
        <time>2011-12-31T10:22:21Z</time>
      </trkpt>
      <trkpt lat="43.53366" lon="3.00428">
        <ele>220.7598877</ele>
        <time>2011-12-31T10:22:23Z</time>
      </trkpt>
      <trkpt lat="43.53355" lon="3.00431">
        <ele>217.3953857</ele>
        <time>2011-12-31T10:22:27Z</time>
      </trkpt>
      <trkpt lat="43.53357" lon="3.00436">
        <ele>217.3953857</ele>
        <time>2011-12-31T10:22:28Z</time>
      </trkpt>
      <trkpt lat="43.53355" lon="3.00444">
        <ele>216.9146729</ele>
        <time>2011-12-31T10:22:30Z</time>
      </trkpt>
      <trkpt lat="43.53347" lon="3.00441">
        <ele>215.4726563</ele>
        <time>2011-12-31T10:22:32Z</time>
      </trkpt>
      <trkpt lat="43.53343" lon="3.00432">
        <ele>214.0306396</ele>
        <time>2011-12-31T10:22:34Z</time>
      </trkpt>
      <trkpt lat="43.53339" lon="3.00433">
        <ele>214.0306396</ele>
        <time>2011-12-31T10:22:36Z</time>
      </trkpt>
      <trkpt lat="43.53345" lon="3.00443">
        <ele>214.5112305</ele>
        <time>2011-12-31T10:22:39Z</time>
      </trkpt>
      <trkpt lat="43.53353" lon="3.00454">
        <ele>213.0693359</ele>
        <time>2011-12-31T10:22:41Z</time>
      </trkpt>
      <trkpt lat="43.53365" lon="3.00464">
        <ele>207.7821045</ele>
        <time>2011-12-31T10:22:43Z</time>
      </trkpt>
      <trkpt lat="43.53372" lon="3.00468">
        <ele>207.7821045</ele>
        <time>2011-12-31T10:22:44Z</time>
      </trkpt>
      <trkpt lat="43.5338" lon="3.00471">
        <ele>205.8594971</ele>
        <time>2011-12-31T10:22:45Z</time>
      </trkpt>
      <trkpt lat="43.53411" lon="3.00478">
        <ele>203.9368896</ele>
        <time>2011-12-31T10:22:50Z</time>
      </trkpt>
      <trkpt lat="43.53421" lon="3.00496">
        <ele>202.9754639</ele>
        <time>2011-12-31T10:22:54Z</time>
      </trkpt>
      <trkpt lat="43.53424" lon="3.00506">
        <ele>204.8980713</ele>
        <time>2011-12-31T10:22:58Z</time>
      </trkpt>
      <trkpt lat="43.53424" lon="3.00506">
        <ele>204.8980713</ele>
        <time>2011-12-31T10:23:21Z</time>
      </trkpt>
      <trkpt lat="43.53411" lon="3.00501">
        <ele>202.9754639</ele>
        <time>2011-12-31T10:23:26Z</time>
      </trkpt>
      <trkpt lat="43.53403" lon="3.00502">
        <ele>202.0142822</ele>
        <time>2011-12-31T10:23:28Z</time>
      </trkpt>
      <trkpt lat="43.53396" lon="3.00503">
        <ele>200.5722656</ele>
        <time>2011-12-31T10:23:32Z</time>
      </trkpt>
      <trkpt lat="43.53394" lon="3.00503">
        <ele>200.5722656</ele>
        <time>2011-12-31T10:23:39Z</time>
      </trkpt>
      <trkpt lat="43.5339" lon="3.00507">
        <ele>203.4561768</ele>
        <time>2011-12-31T10:50:36Z</time>
      </trkpt>
      <trkpt lat="43.53388" lon="3.00507">
        <ele>196.7269287</ele>
        <time>2011-12-31T11:07:26Z</time>
      </trkpt>
      <trkpt lat="43.53388" lon="3.00507">
        <ele>196.7269287</ele>
        <time>2011-12-31T11:07:27Z</time>
      </trkpt>
      <trkpt lat="43.53389" lon="3.00507">
        <ele>210.1854248</ele>
        <time>2011-12-31T11:07:28Z</time>
      </trkpt>
      <trkpt lat="43.53388" lon="3.00507">
        <ele>210.1854248</ele>
        <time>2011-12-31T11:07:29Z</time>
      </trkpt>
      <trkpt lat="43.53388" lon="3.00507">
        <ele>204.8980713</ele>
        <time>2011-12-31T11:07:30Z</time>
      </trkpt>
      <trkpt lat="43.53388" lon="3.00507">
        <ele>204.8980713</ele>
        <time>2011-12-31T11:07:31Z</time>
      </trkpt>
      <trkpt lat="43.5339" lon="3.00505">
        <ele>203.4561768</ele>
        <time>2011-12-31T11:07:40Z</time>
      </trkpt>
      <trkpt lat="43.53389" lon="3.00505">
        <ele>203.4561768</ele>
        <time>2011-12-31T11:07:56Z</time>
      </trkpt>
      <trkpt lat="43.53388" lon="3.00505">
        <ele>202.9754639</ele>
        <time>2011-12-31T11:08:15Z</time>
      </trkpt>
      <trkpt lat="43.53301" lon="3.00527">
        <ele>206.8206787</ele>
        <time>2012-01-12T15:33:24Z</time>
      </trkpt>
      <trkpt lat="43.53272" lon="3.00575">
        <ele>204.8980713</ele>
        <time>2012-01-12T15:33:38Z</time>
      </trkpt>
      <trkpt lat="43.53278" lon="3.00646">
        <ele>203.9368896</ele>
        <time>2012-01-12T15:33:55Z</time>
      </trkpt>
      <trkpt lat="43.53297" lon="3.00714">
        <ele>204.4174805</ele>
        <time>2012-01-12T15:34:12Z</time>
      </trkpt>
      <trkpt lat="43.53279" lon="3.00747">
        <ele>206.8206787</ele>
        <time>2012-01-12T15:34:22Z</time>
      </trkpt>
      <trkpt lat="43.53263" lon="3.00811">
        <ele>210.6660156</ele>
        <time>2012-01-12T15:34:39Z</time>
      </trkpt>
      <trkpt lat="43.53257" lon="3.0089">
        <ele>213.0693359</ele>
        <time>2012-01-12T15:35:00Z</time>
      </trkpt>
      <trkpt lat="43.53254" lon="3.00968">
        <ele>218.3565674</ele>
        <time>2012-01-12T15:35:22Z</time>
      </trkpt>
      <trkpt lat="43.53255" lon="3.01061">
        <ele>227.0085449</ele>
        <time>2012-01-12T15:35:46Z</time>
      </trkpt>
      <trkpt lat="43.53255" lon="3.01143">
        <ele>232.2957764</ele>
        <time>2012-01-12T15:36:10Z</time>
      </trkpt>
      <trkpt lat="43.53252" lon="3.01203">
        <ele>232.2957764</ele>
        <time>2012-01-12T15:36:26Z</time>
      </trkpt>
      <trkpt lat="43.53261" lon="3.01289">
        <ele>231.3343506</ele>
        <time>2012-01-12T15:36:41Z</time>
      </trkpt>
      <trkpt lat="43.53253" lon="3.01336">
        <ele>228.9311523</ele>
        <time>2012-01-12T15:36:50Z</time>
      </trkpt>
      <trkpt lat="43.53248" lon="3.01375">
        <ele>227.0085449</ele>
        <time>2012-01-12T15:36:55Z</time>
      </trkpt>
      <trkpt lat="43.53246" lon="3.0141">
        <ele>224.1245117</ele>
        <time>2012-01-12T15:37:00Z</time>
      </trkpt>
      <trkpt lat="43.53226" lon="3.01414">
        <ele>221.7211914</ele>
        <time>2012-01-12T15:37:06Z</time>
      </trkpt>
      <trkpt lat="43.53214" lon="3.01388">
        <ele>219.798584</ele>
        <time>2012-01-12T15:37:12Z</time>
      </trkpt>
      <trkpt lat="43.53205" lon="3.0132">
        <ele>214.9919434</ele>
        <time>2012-01-12T15:37:25Z</time>
      </trkpt>
      <trkpt lat="43.5319" lon="3.01269">
        <ele>215.4726563</ele>
        <time>2012-01-12T15:37:38Z</time>
      </trkpt>
      <trkpt lat="43.53178" lon="3.01202">
        <ele>217.8759766</ele>
        <time>2012-01-12T15:37:56Z</time>
      </trkpt>
      <trkpt lat="43.53152" lon="3.01157">
        <ele>220.7598877</ele>
        <time>2012-01-12T15:38:13Z</time>
      </trkpt>
      <trkpt lat="43.53144" lon="3.01141">
        <ele>222.2017822</ele>
        <time>2012-01-12T15:38:19Z</time>
      </trkpt>
      <trkpt lat="43.53161" lon="3.01115">
        <ele>227.0085449</ele>
        <time>2012-01-12T15:38:29Z</time>
      </trkpt>
      <trkpt lat="43.53147" lon="3.01065">
        <ele>231.3343506</ele>
        <time>2012-01-12T15:38:44Z</time>
      </trkpt>
      <trkpt lat="43.53143" lon="3.01049">
        <ele>232.2957764</ele>
        <time>2012-01-12T15:38:49Z</time>
      </trkpt>
      <trkpt lat="43.53144" lon="3.01006">
        <ele>234.6990967</ele>
        <time>2012-01-12T15:39:01Z</time>
      </trkpt>
      <trkpt lat="43.53141" lon="3.00996">
        <ele>235.6602783</ele>
        <time>2012-01-12T15:39:04Z</time>
      </trkpt>
      <trkpt lat="43.53138" lon="3.00931">
        <ele>241.9089355</ele>
        <time>2012-01-12T15:39:23Z</time>
      </trkpt>
      <trkpt lat="43.53124" lon="3.00851">
        <ele>246.7154541</ele>
        <time>2012-01-12T15:39:46Z</time>
      </trkpt>
      <trkpt lat="43.53101" lon="3.00825">
        <ele>248.1575928</ele>
        <time>2012-01-12T15:39:58Z</time>
      </trkpt>
      <trkpt lat="43.53101" lon="3.00807">
        <ele>248.6381836</ele>
        <time>2012-01-12T15:40:04Z</time>
      </trkpt>
      <trkpt lat="43.53103" lon="3.00801">
        <ele>250.560791</ele>
        <time>2012-01-12T15:40:07Z</time>
      </trkpt>
      <trkpt lat="43.5312" lon="3.00766">
        <ele>252.0028076</ele>
        <time>2012-01-12T15:40:19Z</time>
      </trkpt>
      <trkpt lat="43.53103" lon="3.007">
        <ele>255.3673096</ele>
        <time>2012-01-12T15:40:39Z</time>
      </trkpt>
      <trkpt lat="43.53063" lon="3.00645">
        <ele>257.2900391</ele>
        <time>2012-01-12T15:40:59Z</time>
      </trkpt>
      <trkpt lat="43.5304" lon="3.00609">
        <ele>260.654541</ele>
        <time>2012-01-12T15:41:13Z</time>
      </trkpt>
      <trkpt lat="43.53002" lon="3.00569">
        <ele>262.0965576</ele>
        <time>2012-01-12T15:41:31Z</time>
      </trkpt>
      <trkpt lat="43.52962" lon="3.00547">
        <ele>262.5771484</ele>
        <time>2012-01-12T15:41:49Z</time>
      </trkpt>
      <trkpt lat="43.52958" lon="3.0055">
        <ele>264.0192871</ele>
        <time>2012-01-12T15:41:51Z</time>
      </trkpt>
      <trkpt lat="43.52964" lon="3.00563">
        <ele>264.9805908</ele>
        <time>2012-01-12T15:41:58Z</time>
      </trkpt>
      <trkpt lat="43.53" lon="3.00598">
        <ele>264.9805908</ele>
        <time>2012-01-12T15:42:15Z</time>
      </trkpt>
      <trkpt lat="43.53028" lon="3.00656">
        <ele>268.3450928</ele>
        <time>2012-01-12T15:42:36Z</time>
      </trkpt>
      <trkpt lat="43.53022" lon="3.00659">
        <ele>269.7871094</ele>
        <time>2012-01-12T15:42:41Z</time>
      </trkpt>
      <trkpt lat="43.52983" lon="3.00611">
        <ele>273.1518555</ele>
        <time>2012-01-12T15:43:01Z</time>
      </trkpt>
      <trkpt lat="43.52939" lon="3.00594">
        <ele>276.9970703</ele>
        <time>2012-01-12T15:43:19Z</time>
      </trkpt>
      <trkpt lat="43.5292" lon="3.00566">
        <ele>279.4002686</ele>
        <time>2012-01-12T15:43:31Z</time>
      </trkpt>
      <trkpt lat="43.52897" lon="3.00513">
        <ele>282.7650146</ele>
        <time>2012-01-12T15:43:49Z</time>
      </trkpt>
      <trkpt lat="43.5288" lon="3.00443">
        <ele>288.0522461</ele>
        <time>2012-01-12T15:44:12Z</time>
      </trkpt>
      <trkpt lat="43.52864" lon="3.00411">
        <ele>291.416748</ele>
        <time>2012-01-12T15:44:25Z</time>
      </trkpt>
      <trkpt lat="43.52841" lon="3.00416">
        <ele>292.8587646</ele>
        <time>2012-01-12T15:44:36Z</time>
      </trkpt>
      <trkpt lat="43.52804" lon="3.00467">
        <ele>295.2619629</ele>
        <time>2012-01-12T15:44:57Z</time>
      </trkpt>
      <trkpt lat="43.52765" lon="3.00521">
        <ele>294.3007813</ele>
        <time>2012-01-12T15:45:18Z</time>
      </trkpt>
      <trkpt lat="43.52751" lon="3.00536">
        <ele>292.3781738</ele>
        <time>2012-01-12T15:45:23Z</time>
      </trkpt>
      <trkpt lat="43.52725" lon="3.00548">
        <ele>289.9748535</ele>
        <time>2012-01-12T15:45:29Z</time>
      </trkpt>
      <trkpt lat="43.52716" lon="3.00553">
        <ele>289.9748535</ele>
        <time>2012-01-12T15:45:31Z</time>
      </trkpt>
      <trkpt lat="43.52694" lon="3.00558">
        <ele>288.0522461</ele>
        <time>2012-01-12T15:45:35Z</time>
      </trkpt>
      <trkpt lat="43.52649" lon="3.00558">
        <ele>289.0135498</ele>
        <time>2012-01-12T15:45:45Z</time>
      </trkpt>
      <trkpt lat="43.526" lon="3.00582">
        <ele>284.6876221</ele>
        <time>2012-01-12T15:45:56Z</time>
      </trkpt>
      <trkpt lat="43.52585" lon="3.00597">
        <ele>285.1682129</ele>
        <time>2012-01-12T15:46:00Z</time>
      </trkpt>
      <trkpt lat="43.52576" lon="3.00621">
        <ele>286.1295166</ele>
        <time>2012-01-12T15:46:05Z</time>
      </trkpt>
      <trkpt lat="43.52561" lon="3.00615">
        <ele>287.0908203</ele>
        <time>2012-01-12T15:46:10Z</time>
      </trkpt>
      <trkpt lat="43.52517" lon="3.00567">
        <ele>292.8587646</ele>
        <time>2012-01-12T15:46:26Z</time>
      </trkpt>
      <trkpt lat="43.52484" lon="3.00575">
        <ele>295.2619629</ele>
        <time>2012-01-12T15:46:37Z</time>
      </trkpt>
      <trkpt lat="43.5243" lon="3.00624">
        <ele>298.1461182</ele>
        <time>2012-01-12T15:46:57Z</time>
      </trkpt>
      <trkpt lat="43.52399" lon="3.0067">
        <ele>300.0687256</ele>
        <time>2012-01-12T15:47:13Z</time>
      </trkpt>
      <trkpt lat="43.52354" lon="3.00712">
        <ele>302.4719238</ele>
        <time>2012-01-12T15:47:33Z</time>
      </trkpt>
      <trkpt lat="43.52314" lon="3.00741">
        <ele>302.9525146</ele>
        <time>2012-01-12T15:47:47Z</time>
      </trkpt>
      <trkpt lat="43.52306" lon="3.00794">
        <ele>304.8752441</ele>
        <time>2012-01-12T15:48:01Z</time>
      </trkpt>
      <trkpt lat="43.52291" lon="3.00849">
        <ele>308.2398682</ele>
        <time>2012-01-12T15:48:17Z</time>
      </trkpt>
      <trkpt lat="43.52288" lon="3.00899">
        <ele>314.4884033</ele>
        <time>2012-01-12T15:48:32Z</time>
      </trkpt>
      <trkpt lat="43.52293" lon="3.00927">
        <ele>317.3724365</ele>
        <time>2012-01-12T15:48:41Z</time>
      </trkpt>
      <trkpt lat="43.5228" lon="3.0095">
        <ele>318.3336182</ele>
        <time>2012-01-12T15:48:53Z</time>
      </trkpt>
      <trkpt lat="43.52258" lon="3.00996">
        <ele>320.2563477</ele>
        <time>2012-01-12T15:49:15Z</time>
      </trkpt>
      <trkpt lat="43.52257" lon="3.01009">
        <ele>324.1015625</ele>
        <time>2012-01-12T15:49:21Z</time>
      </trkpt>
      <trkpt lat="43.52242" lon="3.01012">
        <ele>326.9855957</ele>
        <time>2012-01-12T15:49:32Z</time>
      </trkpt>
      <trkpt lat="43.52205" lon="3.00998">
        <ele>327.4661865</ele>
        <time>2012-01-12T15:49:51Z</time>
      </trkpt>
      <trkpt lat="43.5219" lon="3.00987">
        <ele>328.9083252</ele>
        <time>2012-01-12T15:50:00Z</time>
      </trkpt>
      <trkpt lat="43.5216" lon="3.00963">
        <ele>330.8309326</ele>
        <time>2012-01-12T15:50:17Z</time>
      </trkpt>
      <trkpt lat="43.52118" lon="3.00966">
        <ele>334.1954346</ele>
        <time>2012-01-12T15:50:35Z</time>
      </trkpt>
      <trkpt lat="43.52085" lon="3.00991">
        <ele>334.6761475</ele>
        <time>2012-01-12T15:50:48Z</time>
      </trkpt>
      <trkpt lat="43.52058" lon="3.01023">
        <ele>334.1954346</ele>
        <time>2012-01-12T15:51:03Z</time>
      </trkpt>
      <trkpt lat="43.52043" lon="3.01065">
        <ele>331.7921143</ele>
        <time>2012-01-12T15:51:13Z</time>
      </trkpt>
      <trkpt lat="43.52009" lon="3.01045">
        <ele>332.2728271</ele>
        <time>2012-01-12T15:51:23Z</time>
      </trkpt>
      <trkpt lat="43.51974" lon="3.01046">
        <ele>331.3115234</ele>
        <time>2012-01-12T15:51:33Z</time>
      </trkpt>
      <trkpt lat="43.51958" lon="3.01058">
        <ele>331.3115234</ele>
        <time>2012-01-12T15:51:40Z</time>
      </trkpt>
      <trkpt lat="43.51937" lon="3.0104">
        <ele>331.3115234</ele>
        <time>2012-01-12T15:51:49Z</time>
      </trkpt>
      <trkpt lat="43.519" lon="3.01024">
        <ele>335.6373291</ele>
        <time>2012-01-12T15:52:05Z</time>
      </trkpt>
      <trkpt lat="43.51862" lon="3.01006">
        <ele>339.0020752</ele>
        <time>2012-01-12T15:52:24Z</time>
      </trkpt>
      <trkpt lat="43.5186" lon="3.01006">
        <ele>339.0020752</ele>
        <time>2012-01-12T15:52:25Z</time>
      </trkpt>
      <trkpt lat="43.51859" lon="3.00993">
        <ele>339.482666</ele>
        <time>2012-01-12T15:52:29Z</time>
      </trkpt>
      <trkpt lat="43.51874" lon="3.00936">
        <ele>344.7700195</ele>
        <time>2012-01-12T15:52:47Z</time>
      </trkpt>
      <trkpt lat="43.51863" lon="3.00868">
        <ele>351.4991455</ele>
        <time>2012-01-12T15:53:10Z</time>
      </trkpt>
      <trkpt lat="43.51846" lon="3.00845">
        <ele>354.3831787</ele>
        <time>2012-01-12T15:53:25Z</time>
      </trkpt>
      <trkpt lat="43.51838" lon="3.0084">
        <ele>355.3444824</ele>
        <time>2012-01-12T15:53:30Z</time>
      </trkpt>
      <trkpt lat="43.51814" lon="3.00806">
        <ele>361.1124268</ele>
        <time>2012-01-12T15:53:53Z</time>
      </trkpt>
      <trkpt lat="43.51795" lon="3.00782">
        <ele>365.4383545</ele>
        <time>2012-01-12T15:54:09Z</time>
      </trkpt>
      <trkpt lat="43.51767" lon="3.00753">
        <ele>370.244873</ele>
        <time>2012-01-12T15:54:31Z</time>
      </trkpt>
      <trkpt lat="43.51722" lon="3.00729">
        <ele>372.6481934</ele>
        <time>2012-01-12T15:54:55Z</time>
      </trkpt>
      <trkpt lat="43.5169" lon="3.0074">
        <ele>375.0515137</ele>
        <time>2012-01-12T15:55:10Z</time>
      </trkpt>
      <trkpt lat="43.51648" lon="3.00776">
        <ele>376.0128174</ele>
        <time>2012-01-12T15:55:26Z</time>
      </trkpt>
      <trkpt lat="43.51622" lon="3.00859">
        <ele>376.0128174</ele>
        <time>2012-01-12T15:55:44Z</time>
      </trkpt>
      <trkpt lat="43.51594" lon="3.00897">
        <ele>376.4935303</ele>
        <time>2012-01-12T15:55:56Z</time>
      </trkpt>
      <trkpt lat="43.51551" lon="3.00941">
        <ele>377.9354248</ele>
        <time>2012-01-12T15:56:17Z</time>
      </trkpt>
      <trkpt lat="43.51547" lon="3.00983">
        <ele>376.4935303</ele>
        <time>2012-01-12T15:56:29Z</time>
      </trkpt>
      <trkpt lat="43.51548" lon="3.00984">
        <ele>375.5321045</ele>
        <time>2012-01-12T15:56:44Z</time>
      </trkpt>
      <trkpt lat="43.51556" lon="3.01014">
        <ele>375.0515137</ele>
        <time>2012-01-12T15:58:06Z</time>
      </trkpt>
      <trkpt lat="43.51588" lon="3.01107">
        <ele>374.0900879</ele>
        <time>2012-01-12T15:58:26Z</time>
      </trkpt>
      <trkpt lat="43.5159" lon="3.01147">
        <ele>375.5321045</ele>
        <time>2012-01-12T15:58:33Z</time>
      </trkpt>
      <trkpt lat="43.51582" lon="3.01288">
        <ele>377.9354248</ele>
        <time>2012-01-12T15:58:57Z</time>
      </trkpt>
      <trkpt lat="43.51582" lon="3.01294">
        <ele>377.9354248</ele>
        <time>2012-01-12T15:58:58Z</time>
      </trkpt>
      <trkpt lat="43.51574" lon="3.01328">
        <ele>377.9354248</ele>
        <time>2012-01-12T15:59:04Z</time>
      </trkpt>
      <trkpt lat="43.51526" lon="3.01405">
        <ele>374.5708008</ele>
        <time>2012-01-12T15:59:19Z</time>
      </trkpt>
      <trkpt lat="43.51506" lon="3.01415">
        <ele>374.5708008</ele>
        <time>2012-01-12T15:59:23Z</time>
      </trkpt>
      <trkpt lat="43.51496" lon="3.01412">
        <ele>374.5708008</ele>
        <time>2012-01-12T15:59:25Z</time>
      </trkpt>
      <trkpt lat="43.51433" lon="3.01435">
        <ele>375.5321045</ele>
        <time>2012-01-12T15:59:43Z</time>
      </trkpt>
      <trkpt lat="43.5138" lon="3.01473">
        <ele>376.0128174</ele>
        <time>2012-01-12T16:00:04Z</time>
      </trkpt>
      <trkpt lat="43.51348" lon="3.0151">
        <ele>378.8968506</ele>
        <time>2012-01-12T16:00:21Z</time>
      </trkpt>
      <trkpt lat="43.51347" lon="3.01511">
        <ele>379.3774414</ele>
        <time>2012-01-12T16:00:22Z</time>
      </trkpt>
      <trkpt lat="43.51334" lon="3.01549">
        <ele>382.7420654</ele>
        <time>2012-01-12T16:00:36Z</time>
      </trkpt>
      <trkpt lat="43.5131" lon="3.0158">
        <ele>386.1066895</ele>
        <time>2012-01-12T16:00:53Z</time>
      </trkpt>
      <trkpt lat="43.51278" lon="3.01629">
        <ele>389.4711914</ele>
        <time>2012-01-12T16:01:16Z</time>
      </trkpt>
      <trkpt lat="43.51245" lon="3.01647">
        <ele>394.2779541</ele>
        <time>2012-01-12T16:01:35Z</time>
      </trkpt>
      <trkpt lat="43.51206" lon="3.01652">
        <ele>398.6037598</ele>
        <time>2012-01-12T16:01:58Z</time>
      </trkpt>
      <trkpt lat="43.51173" lon="3.01662">
        <ele>402.9296875</ele>
        <time>2012-01-12T16:02:19Z</time>
      </trkpt>
      <trkpt lat="43.51153" lon="3.0168">
        <ele>407.2556152</ele>
        <time>2012-01-12T16:02:35Z</time>
      </trkpt>
      <trkpt lat="43.51131" lon="3.01701">
        <ele>412.0622559</ele>
        <time>2012-01-12T16:02:53Z</time>
      </trkpt>
      <trkpt lat="43.51099" lon="3.01715">
        <ele>416.3881836</ele>
        <time>2012-01-12T16:03:16Z</time>
      </trkpt>
      <trkpt lat="43.51059" lon="3.0171">
        <ele>416.3881836</ele>
        <time>2012-01-12T16:03:33Z</time>
      </trkpt>
      <trkpt lat="43.51032" lon="3.01713">
        <ele>417.8302002</ele>
        <time>2012-01-12T16:03:44Z</time>
      </trkpt>
      <trkpt lat="43.5103" lon="3.01713">
        <ele>418.310791</ele>
        <time>2012-01-12T16:03:45Z</time>
      </trkpt>
      <trkpt lat="43.51028" lon="3.01715">
        <ele>418.7915039</ele>
        <time>2012-01-12T16:03:47Z</time>
      </trkpt>
      <trkpt lat="43.51017" lon="3.01715">
        <ele>419.2722168</ele>
        <time>2012-01-12T16:04:05Z</time>
      </trkpt>
      <trkpt lat="43.51016" lon="3.01715">
        <ele>419.2722168</ele>
        <time>2012-01-12T16:05:00Z</time>
      </trkpt>
      <trkpt lat="43.51015" lon="3.01716">
        <ele>419.7528076</ele>
        <time>2012-01-12T16:08:43Z</time>
      </trkpt>
      <trkpt lat="43.51015" lon="3.01715">
        <ele>419.7528076</ele>
        <time>2012-01-12T16:08:44Z</time>
      </trkpt>
      <trkpt lat="43.51013" lon="3.01709">
        <ele>419.7528076</ele>
        <time>2012-01-12T16:08:48Z</time>
      </trkpt>
      <trkpt lat="43.50989" lon="3.01688">
        <ele>414.946167</ele>
        <time>2012-01-12T16:08:57Z</time>
      </trkpt>
      <trkpt lat="43.50986" lon="3.01659">
        <ele>413.0235596</ele>
        <time>2012-01-12T16:09:04Z</time>
      </trkpt>
      <trkpt lat="43.50988" lon="3.01655">
        <ele>412.5428467</ele>
        <time>2012-01-12T16:09:06Z</time>
      </trkpt>
      <trkpt lat="43.50992" lon="3.01607">
        <ele>408.6976318</ele>
        <time>2012-01-12T16:09:17Z</time>
      </trkpt>
      <trkpt lat="43.50991" lon="3.01604">
        <ele>406.2943115</ele>
        <time>2012-01-12T16:09:33Z</time>
      </trkpt>
      <trkpt lat="43.50991" lon="3.01605">
        <ele>405.8137207</ele>
        <time>2012-01-12T16:09:42Z</time>
      </trkpt>
      <trkpt lat="43.50991" lon="3.01615">
        <ele>404.3717041</ele>
        <time>2012-01-12T16:09:52Z</time>
      </trkpt>
      <trkpt lat="43.50992" lon="3.01617">
        <ele>403.4104004</ele>
        <time>2012-01-12T16:10:04Z</time>
      </trkpt>
      <trkpt lat="43.50988" lon="3.01635">
        <ele>397.6424561</ele>
        <time>2012-01-12T16:11:01Z</time>
      </trkpt>
      <trkpt lat="43.50987" lon="3.01638">
        <ele>397.1617432</ele>
        <time>2012-01-12T16:11:03Z</time>
      </trkpt>
      <trkpt lat="43.50987" lon="3.01679">
        <ele>396.2005615</ele>
        <time>2012-01-12T16:11:20Z</time>
      </trkpt>
      <trkpt lat="43.51007" lon="3.01699">
        <ele>397.6424561</ele>
        <time>2012-01-12T16:11:30Z</time>
      </trkpt>
      <trkpt lat="43.51012" lon="3.01701">
        <ele>397.6424561</ele>
        <time>2012-01-12T16:11:34Z</time>
      </trkpt>
      <trkpt lat="43.51013" lon="3.01712">
        <ele>401.9685059</ele>
        <time>2012-01-12T16:11:40Z</time>
      </trkpt>
      <trkpt lat="43.51004" lon="3.01731">
        <ele>403.4104004</ele>
        <time>2012-01-12T16:11:51Z</time>
      </trkpt>
      <trkpt lat="43.51" lon="3.01739">
        <ele>401.487793</ele>
        <time>2012-01-12T16:11:56Z</time>
      </trkpt>
      <trkpt lat="43.50998" lon="3.01747">
        <ele>400.5264893</ele>
        <time>2012-01-12T16:12:01Z</time>
      </trkpt>
      <trkpt lat="43.50997" lon="3.01749">
        <ele>400.0458984</ele>
        <time>2012-01-12T16:12:03Z</time>
      </trkpt>
      <trkpt lat="43.50998" lon="3.0176">
        <ele>400.5264893</ele>
        <time>2012-01-12T16:12:08Z</time>
      </trkpt>
      <trkpt lat="43.50991" lon="3.01764">
        <ele>399.5650635</ele>
        <time>2012-01-12T16:12:13Z</time>
      </trkpt>
      <trkpt lat="43.50977" lon="3.01765">
        <ele>399.5650635</ele>
        <time>2012-01-12T16:12:26Z</time>
      </trkpt>
      <trkpt lat="43.50977" lon="3.01765">
        <ele>399.5650635</ele>
        <time>2012-01-12T16:12:30Z</time>
      </trkpt>
      <trkpt lat="43.50955" lon="3.01754">
        <ele>401.0070801</ele>
        <time>2012-01-12T16:12:42Z</time>
      </trkpt>
      <trkpt lat="43.50954" lon="3.01755">
        <ele>401.0070801</ele>
        <time>2012-01-12T16:13:43Z</time>
      </trkpt>
      <trkpt lat="43.50954" lon="3.01762">
        <ele>401.9685059</ele>
        <time>2012-01-12T16:14:05Z</time>
      </trkpt>
      <trkpt lat="43.50953" lon="3.01765">
        <ele>402.4490967</ele>
        <time>2012-01-12T16:14:07Z</time>
      </trkpt>
      <trkpt lat="43.50949" lon="3.01781">
        <ele>405.8137207</ele>
        <time>2012-01-12T16:14:20Z</time>
      </trkpt>
      <trkpt lat="43.5095" lon="3.01787">
        <ele>407.7363281</ele>
        <time>2012-01-12T16:14:24Z</time>
      </trkpt>
      <trkpt lat="43.50958" lon="3.01797">
        <ele>410.6202393</ele>
        <time>2012-01-12T16:14:37Z</time>
      </trkpt>
      <trkpt lat="43.50966" lon="3.01798">
        <ele>413.0235596</ele>
        <time>2012-01-12T16:14:49Z</time>
      </trkpt>
      <trkpt lat="43.50965" lon="3.01803">
        <ele>414.946167</ele>
        <time>2012-01-12T16:15:03Z</time>
      </trkpt>
      <trkpt lat="43.50962" lon="3.01804">
        <ele>416.3881836</ele>
        <time>2012-01-12T16:15:07Z</time>
      </trkpt>
      <trkpt lat="43.5096" lon="3.01805">
        <ele>415.9074707</ele>
        <time>2012-01-12T16:15:13Z</time>
      </trkpt>
      <trkpt lat="43.50959" lon="3.01815">
        <ele>417.3496094</ele>
        <time>2012-01-12T16:15:22Z</time>
      </trkpt>
      <trkpt lat="43.5096" lon="3.01817">
        <ele>417.3496094</ele>
        <time>2012-01-12T16:15:36Z</time>
      </trkpt>
      <trkpt lat="43.5097" lon="3.01825">
        <ele>415.4268799</ele>
        <time>2012-01-12T16:15:43Z</time>
      </trkpt>
      <trkpt lat="43.5098" lon="3.0184">
        <ele>414.4654541</ele>
        <time>2012-01-12T16:15:51Z</time>
      </trkpt>
      <trkpt lat="43.50995" lon="3.01837">
        <ele>410.1396484</ele>
        <time>2012-01-12T16:16:00Z</time>
      </trkpt>
      <trkpt lat="43.50996" lon="3.01838">
        <ele>407.2556152</ele>
        <time>2012-01-12T16:16:15Z</time>
      </trkpt>
      <trkpt lat="43.50997" lon="3.01837">
        <ele>407.2556152</ele>
        <time>2012-01-12T16:16:17Z</time>
      </trkpt>
      <trkpt lat="43.51002" lon="3.01831">
        <ele>405.3330078</ele>
        <time>2012-01-12T16:16:34Z</time>
      </trkpt>
      <trkpt lat="43.51003" lon="3.0183">
        <ele>405.8137207</ele>
        <time>2012-01-12T16:16:51Z</time>
      </trkpt>
      <trkpt lat="43.51006" lon="3.01836">
        <ele>405.3330078</ele>
        <time>2012-01-12T16:17:04Z</time>
      </trkpt>
      <trkpt lat="43.5101" lon="3.01838">
        <ele>405.8137207</ele>
        <time>2012-01-12T16:17:16Z</time>
      </trkpt>
      <trkpt lat="43.51011" lon="3.01847">
        <ele>404.3717041</ele>
        <time>2012-01-12T16:17:22Z</time>
      </trkpt>
      <trkpt lat="43.51013" lon="3.01853">
        <ele>403.4104004</ele>
        <time>2012-01-12T16:17:24Z</time>
      </trkpt>
      <trkpt lat="43.51012" lon="3.01866">
        <ele>401.9685059</ele>
        <time>2012-01-12T16:17:27Z</time>
      </trkpt>
      <trkpt lat="43.51019" lon="3.01913">
        <ele>394.7585449</ele>
        <time>2012-01-12T16:17:38Z</time>
      </trkpt>
      <trkpt lat="43.51025" lon="3.01945">
        <ele>389.4711914</ele>
        <time>2012-01-12T16:17:48Z</time>
      </trkpt>
      <trkpt lat="43.51025" lon="3.01949">
        <ele>389.4711914</ele>
        <time>2012-01-12T16:17:49Z</time>
      </trkpt>
      <trkpt lat="43.51027" lon="3.01973">
        <ele>385.6259766</ele>
        <time>2012-01-12T16:17:56Z</time>
      </trkpt>
      <trkpt lat="43.51025" lon="3.0199">
        <ele>385.6259766</ele>
        <time>2012-01-12T16:18:06Z</time>
      </trkpt>
      <trkpt lat="43.51023" lon="3.02001">
        <ele>385.6259766</ele>
        <time>2012-01-12T16:18:21Z</time>
      </trkpt>
      <trkpt lat="43.51023" lon="3.02002">
        <ele>385.6259766</ele>
        <time>2012-01-12T16:18:22Z</time>
      </trkpt>
      <trkpt lat="43.51024" lon="3.02003">
        <ele>382.2613525</ele>
        <time>2012-01-12T16:18:34Z</time>
      </trkpt>
      <trkpt lat="43.51031" lon="3.01989">
        <ele>381.3000488</ele>
        <time>2012-01-12T16:18:40Z</time>
      </trkpt>
      <trkpt lat="43.51038" lon="3.02002">
        <ele>379.8580322</ele>
        <time>2012-01-12T16:18:47Z</time>
      </trkpt>
      <trkpt lat="43.51041" lon="3.02012">
        <ele>377.454834</ele>
        <time>2012-01-12T16:18:51Z</time>
      </trkpt>
      <trkpt lat="43.5105" lon="3.02045">
        <ele>372.6481934</ele>
        <time>2012-01-12T16:19:02Z</time>
      </trkpt>
      <trkpt lat="43.51048" lon="3.02055">
        <ele>371.2062988</ele>
        <time>2012-01-12T16:19:05Z</time>
      </trkpt>
      <trkpt lat="43.51047" lon="3.02061">
        <ele>370.244873</ele>
        <time>2012-01-12T16:19:07Z</time>
      </trkpt>
      <trkpt lat="43.51032" lon="3.02104">
        <ele>365.9189453</ele>
        <time>2012-01-12T16:19:18Z</time>
      </trkpt>
      <trkpt lat="43.51014" lon="3.02137">
        <ele>358.7089844</ele>
        <time>2012-01-12T16:19:28Z</time>
      </trkpt>
      <trkpt lat="43.51014" lon="3.02153">
        <ele>356.3057861</ele>
        <time>2012-01-12T16:19:33Z</time>
      </trkpt>
      <trkpt lat="43.51002" lon="3.02178">
        <ele>348.6152344</ele>
        <time>2012-01-12T16:19:43Z</time>
      </trkpt>
      <trkpt lat="43.50986" lon="3.02211">
        <ele>347.1732178</ele>
        <time>2012-01-12T16:19:52Z</time>
      </trkpt>
      <trkpt lat="43.50965" lon="3.02237">
        <ele>343.3278809</ele>
        <time>2012-01-12T16:19:59Z</time>
      </trkpt>
      <trkpt lat="43.50939" lon="3.02266">
        <ele>344.2894287</ele>
        <time>2012-01-12T16:20:09Z</time>
      </trkpt>
      <trkpt lat="43.50913" lon="3.02287">
        <ele>346.2120361</ele>
        <time>2012-01-12T16:20:19Z</time>
      </trkpt>
      <trkpt lat="43.50909" lon="3.02288">
        <ele>346.2120361</ele>
        <time>2012-01-12T16:20:21Z</time>
      </trkpt>
      <trkpt lat="43.50887" lon="3.02296">
        <ele>349.0958252</ele>
        <time>2012-01-12T16:20:30Z</time>
      </trkpt>
      <trkpt lat="43.50875" lon="3.0231">
        <ele>343.8085938</ele>
        <time>2012-01-12T16:20:34Z</time>
      </trkpt>
      <trkpt lat="43.50845" lon="3.02297">
        <ele>339.0020752</ele>
        <time>2012-01-12T16:20:43Z</time>
      </trkpt>
      <trkpt lat="43.50831" lon="3.02289">
        <ele>336.598877</ele>
        <time>2012-01-12T16:20:46Z</time>
      </trkpt>
      <trkpt lat="43.50804" lon="3.02284">
        <ele>333.7147217</ele>
        <time>2012-01-12T16:20:51Z</time>
      </trkpt>
      <trkpt lat="43.50772" lon="3.02281">
        <ele>331.7921143</ele>
        <time>2012-01-12T16:20:57Z</time>
      </trkpt>
      <trkpt lat="43.50759" lon="3.02287">
        <ele>331.7921143</ele>
        <time>2012-01-12T16:21:00Z</time>
      </trkpt>
      <trkpt lat="43.50743" lon="3.02297">
        <ele>330.3502197</ele>
        <time>2012-01-12T16:21:05Z</time>
      </trkpt>
      <trkpt lat="43.50723" lon="3.02318">
        <ele>328.9083252</ele>
        <time>2012-01-12T16:21:10Z</time>
      </trkpt>
      <trkpt lat="43.50712" lon="3.02325">
        <ele>326.5048828</ele>
        <time>2012-01-12T16:21:13Z</time>
      </trkpt>
      <trkpt lat="43.507" lon="3.02347">
        <ele>324.5822754</ele>
        <time>2012-01-12T16:21:17Z</time>
      </trkpt>
      <trkpt lat="43.50669" lon="3.02398">
        <ele>318.8143311</ele>
        <time>2012-01-12T16:21:27Z</time>
      </trkpt>
      <trkpt lat="43.50655" lon="3.0241">
        <ele>317.3724365</ele>
        <time>2012-01-12T16:21:31Z</time>
      </trkpt>
      <trkpt lat="43.50613" lon="3.02414">
        <ele>310.1624756</ele>
        <time>2012-01-12T16:21:41Z</time>
      </trkpt>
      <trkpt lat="43.50606" lon="3.02421">
        <ele>304.3946533</ele>
        <time>2012-01-12T16:21:45Z</time>
      </trkpt>
      <trkpt lat="43.50605" lon="3.02429">
        <ele>299.5880127</ele>
        <time>2012-01-12T16:21:53Z</time>
      </trkpt>
      <trkpt lat="43.50601" lon="3.02452">
        <ele>295.2619629</ele>
        <time>2012-01-12T16:22:00Z</time>
      </trkpt>
      <trkpt lat="43.50596" lon="3.02462">
        <ele>292.8587646</ele>
        <time>2012-01-12T16:22:04Z</time>
      </trkpt>
      <trkpt lat="43.50592" lon="3.0247">
        <ele>290.9361572</ele>
        <time>2012-01-12T16:22:07Z</time>
      </trkpt>
      <trkpt lat="43.50571" lon="3.0249">
        <ele>288.532959</ele>
        <time>2012-01-12T16:22:15Z</time>
      </trkpt>
      <trkpt lat="43.50566" lon="3.02486">
        <ele>288.0522461</ele>
        <time>2012-01-12T16:22:18Z</time>
      </trkpt>
      <trkpt lat="43.50545" lon="3.02489">
        <ele>283.7261963</ele>
        <time>2012-01-12T16:22:26Z</time>
      </trkpt>
      <trkpt lat="43.50542" lon="3.02498">
        <ele>281.8035889</ele>
        <time>2012-01-12T16:22:29Z</time>
      </trkpt>
      <trkpt lat="43.50542" lon="3.02507">
        <ele>280.8424072</ele>
        <time>2012-01-12T16:22:31Z</time>
      </trkpt>
      <trkpt lat="43.50532" lon="3.02482">
        <ele>277.958252</ele>
        <time>2012-01-12T16:22:39Z</time>
      </trkpt>
      <trkpt lat="43.50532" lon="3.02456">
        <ele>276.0356445</ele>
        <time>2012-01-12T16:22:43Z</time>
      </trkpt>
      <trkpt lat="43.50528" lon="3.02422">
        <ele>273.6324463</ele>
        <time>2012-01-12T16:22:49Z</time>
      </trkpt>
      <trkpt lat="43.50526" lon="3.02392">
        <ele>272.6711426</ele>
        <time>2012-01-12T16:22:55Z</time>
      </trkpt>
      <trkpt lat="43.50513" lon="3.02331">
        <ele>272.6711426</ele>
        <time>2012-01-12T16:23:05Z</time>
      </trkpt>
      <trkpt lat="43.50501" lon="3.02307">
        <ele>270.7484131</ele>
        <time>2012-01-12T16:23:09Z</time>
      </trkpt>
      <trkpt lat="43.50492" lon="3.0229">
        <ele>268.3450928</ele>
        <time>2012-01-12T16:23:12Z</time>
      </trkpt>
      <trkpt lat="43.50476" lon="3.02259">
        <ele>263.5385742</ele>
        <time>2012-01-12T16:23:17Z</time>
      </trkpt>
      <trkpt lat="43.50469" lon="3.02209">
        <ele>259.2126465</ele>
        <time>2012-01-12T16:23:25Z</time>
      </trkpt>
      <trkpt lat="43.50467" lon="3.02204">
        <ele>257.770752</ele>
        <time>2012-01-12T16:23:26Z</time>
      </trkpt>
      <trkpt lat="43.50457" lon="3.02205">
        <ele>254.8865967</ele>
        <time>2012-01-12T16:23:30Z</time>
      </trkpt>
      <trkpt lat="43.50451" lon="3.0221">
        <ele>253.4447021</ele>
        <time>2012-01-12T16:23:32Z</time>
      </trkpt>
      <trkpt lat="43.50437" lon="3.02223">
        <ele>249.1187744</ele>
        <time>2012-01-12T16:23:37Z</time>
      </trkpt>
      <trkpt lat="43.50435" lon="3.02238">
        <ele>246.7154541</ele>
        <time>2012-01-12T16:23:42Z</time>
      </trkpt>
      <trkpt lat="43.50433" lon="3.02244">
        <ele>246.2348633</ele>
        <time>2012-01-12T16:23:44Z</time>
      </trkpt>
      <trkpt lat="43.50431" lon="3.02273">
        <ele>244.3122559</ele>
        <time>2012-01-12T16:23:52Z</time>
      </trkpt>
      <trkpt lat="43.50433" lon="3.02282">
        <ele>243.831543</ele>
        <time>2012-01-12T16:23:54Z</time>
      </trkpt>
      <trkpt lat="43.50433" lon="3.02332">
        <ele>237.1022949</ele>
        <time>2012-01-12T16:24:03Z</time>
      </trkpt>
      <trkpt lat="43.50434" lon="3.02365">
        <ele>230.8537598</ele>
        <time>2012-01-12T16:24:09Z</time>
      </trkpt>
      <trkpt lat="43.50436" lon="3.0238">
        <ele>227.9697266</ele>
        <time>2012-01-12T16:24:12Z</time>
      </trkpt>
      <trkpt lat="43.50427" lon="3.0237">
        <ele>225.5665283</ele>
        <time>2012-01-12T16:24:17Z</time>
      </trkpt>
      <trkpt lat="43.5041" lon="3.02353">
        <ele>223.163208</ele>
        <time>2012-01-12T16:24:21Z</time>
      </trkpt>
      <trkpt lat="43.50396" lon="3.02343">
        <ele>221.2406006</ele>
        <time>2012-01-12T16:24:25Z</time>
      </trkpt>
      <trkpt lat="43.50376" lon="3.02305">
        <ele>219.798584</ele>
        <time>2012-01-12T16:24:32Z</time>
      </trkpt>
      <trkpt lat="43.50367" lon="3.02292">
        <ele>218.3565674</ele>
        <time>2012-01-12T16:24:35Z</time>
      </trkpt>
      <trkpt lat="43.50359" lon="3.02269">
        <ele>215.9532471</ele>
        <time>2012-01-12T16:24:39Z</time>
      </trkpt>
      <trkpt lat="43.50348" lon="3.02249">
        <ele>214.0306396</ele>
        <time>2012-01-12T16:24:43Z</time>
      </trkpt>
      <trkpt lat="43.50337" lon="3.02227">
        <ele>212.1080322</ele>
        <time>2012-01-12T16:24:48Z</time>
      </trkpt>
      <trkpt lat="43.50323" lon="3.02163">
        <ele>203.9368896</ele>
        <time>2012-01-12T16:24:58Z</time>
      </trkpt>
      <trkpt lat="43.5032" lon="3.02155">
        <ele>201.5335693</ele>
        <time>2012-01-12T16:25:04Z</time>
      </trkpt>
      <trkpt lat="43.50318" lon="3.02164">
        <ele>201.0528564</ele>
        <time>2012-01-12T16:25:06Z</time>
      </trkpt>
      <trkpt lat="43.5031" lon="3.02184">
        <ele>198.6495361</ele>
        <time>2012-01-12T16:25:10Z</time>
      </trkpt>
      <trkpt lat="43.50302" lon="3.02172">
        <ele>195.765625</ele>
        <time>2012-01-12T16:25:15Z</time>
      </trkpt>
      <trkpt lat="43.50296" lon="3.02187">
        <ele>192.8817139</ele>
        <time>2012-01-12T16:25:20Z</time>
      </trkpt>
      <trkpt lat="43.50299" lon="3.02261">
        <ele>182.7878418</ele>
        <time>2012-01-12T16:25:30Z</time>
      </trkpt>
      <trkpt lat="43.50303" lon="3.02277">
        <ele>181.3458252</ele>
        <time>2012-01-12T16:25:33Z</time>
      </trkpt>
      <trkpt lat="43.50305" lon="3.02301">
        <ele>180.8652344</ele>
        <time>2012-01-12T16:25:39Z</time>
      </trkpt>
      <trkpt lat="43.50302" lon="3.0235">
        <ele>171.732666</ele>
        <time>2012-01-12T16:25:48Z</time>
      </trkpt>
      <trkpt lat="43.5029" lon="3.02335">
        <ele>169.3294678</ele>
        <time>2012-01-12T16:25:54Z</time>
      </trkpt>
      <trkpt lat="43.5029" lon="3.02354">
        <ele>165.9647217</ele>
        <time>2012-01-12T16:25:59Z</time>
      </trkpt>
      <trkpt lat="43.50294" lon="3.02374">
        <ele>163.5615234</ele>
        <time>2012-01-12T16:26:02Z</time>
      </trkpt>
      <trkpt lat="43.50295" lon="3.02395">
        <ele>159.7161865</ele>
        <time>2012-01-12T16:26:06Z</time>
      </trkpt>
      <trkpt lat="43.50286" lon="3.02386">
        <ele>157.7935791</ele>
        <time>2012-01-12T16:26:10Z</time>
      </trkpt>
      <trkpt lat="43.50285" lon="3.02392">
        <ele>153.9483643</ele>
        <time>2012-01-12T16:26:16Z</time>
      </trkpt>
      <trkpt lat="43.50286" lon="3.02399">
        <ele>152.0257568</ele>
        <time>2012-01-12T16:26:18Z</time>
      </trkpt>
      <trkpt lat="43.50278" lon="3.02395">
        <ele>150.5836182</ele>
        <time>2012-01-12T16:26:24Z</time>
      </trkpt>
      <trkpt lat="43.50278" lon="3.02409">
        <ele>148.6610107</ele>
        <time>2012-01-12T16:26:29Z</time>
      </trkpt>
      <trkpt lat="43.50284" lon="3.02423">
        <ele>145.7770996</ele>
        <time>2012-01-12T16:26:35Z</time>
      </trkpt>
      <trkpt lat="43.50281" lon="3.02424">
        <ele>145.2963867</ele>
        <time>2012-01-12T16:26:36Z</time>
      </trkpt>
      <trkpt lat="43.50274" lon="3.02425">
        <ele>144.8157959</ele>
        <time>2012-01-12T16:26:38Z</time>
      </trkpt>
      <trkpt lat="43.50262" lon="3.02419">
        <ele>144.8157959</ele>
        <time>2012-01-12T16:26:41Z</time>
      </trkpt>
      <trkpt lat="43.50247" lon="3.02391">
        <ele>144.8157959</ele>
        <time>2012-01-12T16:26:47Z</time>
      </trkpt>
      <trkpt lat="43.50241" lon="3.02374">
        <ele>145.2963867</ele>
        <time>2012-01-12T16:26:50Z</time>
      </trkpt>
      <trkpt lat="43.50237" lon="3.02361">
        <ele>144.8157959</ele>
        <time>2012-01-12T16:26:52Z</time>
      </trkpt>
      <trkpt lat="43.50232" lon="3.02328">
        <ele>143.3736572</ele>
        <time>2012-01-12T16:26:56Z</time>
      </trkpt>
      <trkpt lat="43.50227" lon="3.023">
        <ele>143.8543701</ele>
        <time>2012-01-12T16:27:01Z</time>
      </trkpt>
      <trkpt lat="43.50207" lon="3.02259">
        <ele>141.9317627</ele>
        <time>2012-01-12T16:27:07Z</time>
      </trkpt>
      <trkpt lat="43.50198" lon="3.02222">
        <ele>140.970459</ele>
        <time>2012-01-12T16:27:11Z</time>
      </trkpt>
      <trkpt lat="43.50189" lon="3.022">
        <ele>140.0091553</ele>
        <time>2012-01-12T16:27:14Z</time>
      </trkpt>
      <trkpt lat="43.50184" lon="3.02184">
        <ele>136.1639404</ele>
        <time>2012-01-12T16:27:16Z</time>
      </trkpt>
      <trkpt lat="43.50131" lon="3.02189">
        <ele>128.9541016</ele>
        <time>2012-01-12T16:27:23Z</time>
      </trkpt>
      <trkpt lat="43.50053" lon="3.02204">
        <ele>120.302124</ele>
        <time>2012-01-12T16:27:32Z</time>
      </trkpt>
      <trkpt lat="43.50048" lon="3.02206">
        <ele>119.3408203</ele>
        <time>2012-01-12T16:27:34Z</time>
      </trkpt>
      <trkpt lat="43.50046" lon="3.02217">
        <ele>113.572998</ele>
        <time>2012-01-12T16:27:38Z</time>
      </trkpt>
      <trkpt lat="43.50065" lon="3.02262">
        <ele>109.7276611</ele>
        <time>2012-01-12T16:27:44Z</time>
      </trkpt>
      <trkpt lat="43.50059" lon="3.02288">
        <ele>107.8050537</ele>
        <time>2012-01-12T16:27:48Z</time>
      </trkpt>
      <trkpt lat="43.50021" lon="3.0231">
        <ele>103.4790039</ele>
        <time>2012-01-12T16:27:53Z</time>
      </trkpt>
      <trkpt lat="43.49986" lon="3.0231">
        <ele>100.5950928</ele>
        <time>2012-01-12T16:27:57Z</time>
      </trkpt>
      <trkpt lat="43.49961" lon="3.02314">
        <ele>96.7498779</ele>
        <time>2012-01-12T16:28:03Z</time>
      </trkpt>
      <trkpt lat="43.49949" lon="3.02278">
        <ele>96.2692871</ele>
        <time>2012-01-12T16:28:09Z</time>
      </trkpt>
      <trkpt lat="43.49942" lon="3.02177">
        <ele>95.3077393</ele>
        <time>2012-01-12T16:28:21Z</time>
      </trkpt>
      <trkpt lat="43.4994" lon="3.02149">
        <ele>95.3077393</ele>
        <time>2012-01-12T16:28:24Z</time>
      </trkpt>
      <trkpt lat="43.49937" lon="3.021">
        <ele>95.7884521</ele>
        <time>2012-01-12T16:28:29Z</time>
      </trkpt>
      <trkpt lat="43.49926" lon="3.02044">
        <ele>94.3465576</ele>
        <time>2012-01-12T16:28:39Z</time>
      </trkpt>
      <trkpt lat="43.49926" lon="3.02044">
        <ele>93.3851318</ele>
        <time>2012-01-12T16:30:54Z</time>
      </trkpt>
      <trkpt lat="43.49927" lon="3.02045">
        <ele>93.3851318</ele>
        <time>2012-01-12T16:32:12Z</time>
      </trkpt>
      <trkpt lat="43.49927" lon="3.02045">
        <ele>93.8658447</ele>
        <time>2012-01-12T16:33:03Z</time>
      </trkpt>
      <trkpt lat="43.49926" lon="3.02046">
        <ele>93.3851318</ele>
        <time>2012-01-12T16:33:24Z</time>
      </trkpt>
      <trkpt lat="43.49926" lon="3.02041">
        <ele>90.9819336</ele>
        <time>2012-01-12T16:34:03Z</time>
      </trkpt>
      <trkpt lat="43.49927" lon="3.02044">
        <ele>92.904541</ele>
        <time>2012-01-12T16:34:22Z</time>
      </trkpt>
      <trkpt lat="43.49926" lon="3.02044">
        <ele>93.3851318</ele>
        <time>2012-01-12T16:34:53Z</time>
      </trkpt>
      <trkpt lat="43.49927" lon="3.02045">
        <ele>92.4239502</ele>
        <time>2012-01-12T16:35:10Z</time>
      </trkpt>
      <trkpt lat="43.49926" lon="3.02042">
        <ele>90.0206299</ele>
        <time>2012-01-12T16:35:22Z</time>
      </trkpt>
      <trkpt lat="43.49926" lon="3.02043">
        <ele>90.0206299</ele>
        <time>2012-01-12T16:35:39Z</time>
      </trkpt>
      <trkpt lat="43.49925" lon="3.02043">
        <ele>90.0206299</ele>
        <time>2012-01-12T16:35:44Z</time>
      </trkpt>
      <trkpt lat="43.49925" lon="3.02041">
        <ele>87.6171875</ele>
        <time>2012-01-12T16:36:00Z</time>
      </trkpt>
      <trkpt lat="43.49925" lon="3.02042">
        <ele>87.6171875</ele>
        <time>2012-01-12T16:36:36Z</time>
      </trkpt>
      <trkpt lat="43.49926" lon="3.02042">
        <ele>88.5787354</ele>
        <time>2012-01-12T16:36:53Z</time>
      </trkpt>
    </trkseg>
  </trk>
</gpx>